Provisional Data: Yellow Breeches Creek near Lisburn, PA


Please select a monitoring station.
Please select start date.
Please select start date.

Toggle Unit: C/F Toggle Unit: C/F
Sample Time Temperature (C) Temperature (F) Specific Conductivity (mS/cm) pH   Turbidity (NTU+) DO (mg/L)
4/18/2023 12:00:00 AM 15.57 60.026 0.237 7.47 43.2 0.01
4/18/2023 12:15:00 AM 15.52 59.936 0.239 7.49 41.99 0.01
4/18/2023 12:30:00 AM 15.48 59.864 0.238 7.49 43.79 0.01
4/18/2023 12:45:00 AM 15.43 59.774 0.236 7.5 42.33 0.01
4/18/2023 1:00:00 AM 15.37 59.666 0.233 7.52 39.01 0.01
4/18/2023 1:15:00 AM 15.32 59.576 0.232 7.55 39.72 0.01
4/18/2023 1:30:00 AM 15.28 59.504 0.229 7.52 38.84 0.01
4/18/2023 1:45:00 AM 15.23 59.414 0.231 7.49 38.92 0.01
4/18/2023 2:00:00 AM 15.19 59.342 0.233 7.53 37.72 0.01
4/18/2023 2:15:00 AM 15.14 59.252 0.233 7.51 53.48 0.01
4/18/2023 2:30:00 AM 15.1 59.18 0.234 7.5 173.1 0.01
4/18/2023 2:45:00 AM 15.06 59.108 0.238 7.52 43.8 0.01
4/18/2023 3:00:00 AM 15 59 0.239 7.47 42.65 0.01
4/18/2023 3:15:00 AM 14.94 58.892 0.246 7.52 41.9 0.01
4/18/2023 3:30:00 AM 14.91 58.838 0.246 7.47 40.28 0.01
4/18/2023 3:45:00 AM 14.88 58.784 0.247 7.45 40.16 0.01
4/18/2023 4:00:00 AM 14.83 58.694 0.245 7.42 43.68 0.01
4/18/2023 4:15:00 AM 14.82 58.676 0.244 7.42 40.02 0.01
4/18/2023 4:30:00 AM 14.78 58.604 0.21 7.43 39.53 0.01
4/18/2023 4:45:00 AM 14.71 58.478 0.2 7.41 31.96 0.01
4/18/2023 5:00:00 AM 14.63 58.334 0.184 7.5 34.75 0.01
4/18/2023 5:15:00 AM 14.53 58.154 0.178 7.52 31.78 0.01
4/18/2023 5:30:00 AM 14.52 58.136 0.172 7.51 31.46 0.01
4/18/2023 5:45:00 AM 14.47 58.046 0.173 7.45 32.6 0.01
4/18/2023 6:00:00 AM 14.44 57.992 0.173 7.51 33.53 0.01
4/18/2023 6:15:00 AM 14.35 57.83 0.211 7.52 33.36 0.01
4/18/2023 6:30:00 AM 14.28 57.704 0.203 7.56 31.88 0.01
4/18/2023 6:45:00 AM 14.24 57.632 0.201 7.58 33.32 0.01
4/18/2023 7:00:00 AM 14.19 57.542 0.176 7.53 29.38 0.01
4/18/2023 7:15:00 AM 14.04 57.272 0.176 7.56 32.04 0.01
4/18/2023 7:30:00 AM 14.08 57.344 0.178 7.57 36.9 0.01
4/18/2023 7:45:00 AM 13.94 57.092 0.174 7.55 32.87 0.01
4/18/2023 8:00:00 AM 13.96 57.128 0.171 7.53 34.5 0.01
4/18/2023 8:15:00 AM 13.89 57.002 0.175 7.56 32.04 0.01
4/18/2023 8:30:00 AM 13.78 56.804 0.188 7.54 31.37 0.01
4/18/2023 8:45:00 AM 13.83 56.894 0.209 7.56 30.75 0.01
4/18/2023 9:00:00 AM 13.78 56.804 0.181 7.52 30.15 0.01
4/18/2023 9:15:00 AM 13.71 56.678 0.181 7.55 29.82 0.01
4/18/2023 9:30:00 AM 13.74 56.732 0.182 7.54 28.95 0.01
4/18/2023 9:45:00 AM 13.66 56.588 0.203 7.52 33.59 0.01
4/18/2023 10:00:00 AM 13.59 56.462 0.218 7.54 923.2 0.01
4/18/2023 10:15:00 AM 13.57 56.426 0.175 7.57 812.4 0.01
4/18/2023 10:30:00 AM 13.49 56.282 0.176 7.59 748.8 0.01
4/18/2023 10:45:00 AM 13.46 56.228 0.184 7.61 4189 0.01
4/18/2023 11:00:00 AM 13.38 56.084 0.178 7.64 2977 0.01
4/18/2023 11:15:00 AM 13.37 56.066 0.179 7.65 5037 0.01
4/18/2023 11:30:00 AM 13.4 56.12 0.185 7.65 5037 0.01
4/18/2023 11:45:00 AM 13.35 56.03 0.172 7.66 5037 0.01
4/18/2023 12:00:00 PM 13.39 56.102 0.177 7.68 5037 0.01
4/18/2023 12:15:00 PM 13.47 56.246 0.185 7.7 5037 0.01
4/18/2023 12:30:00 PM 13.56 56.408 0.183 7.7 5037 0.01
4/18/2023 12:45:00 PM 13.6 56.48 0.189 7.72 5037 0.01
4/18/2023 1:00:00 PM 13.66 56.588 0.182 7.74 5037 0.01
4/18/2023 1:15:00 PM 13.7 56.66 0.182 7.78 5037 0.01
4/18/2023 1:30:00 PM 13.77 56.786 0.181 7.78 5037 0.01
4/18/2023 1:45:00 PM 13.83 56.894 0.185 7.78 5037 0.01
4/18/2023 2:00:00 PM 13.91 57.038 0.21 7.81 5036 0.01
4/18/2023 2:15:00 PM 13.96 57.128 0.211 7.83 5036 0.01
4/18/2023 2:30:00 PM 14.05 57.29 0.211 7.88 5036 0.01
4/18/2023 2:45:00 PM 14.09 57.362 0.214 7.87 5036 0.01
4/18/2023 3:00:00 PM 14.14 57.452 0.212 7.86 5036 0.01
4/18/2023 3:15:00 PM 14.17 57.506 0.215 7.88 5036 0.01
4/18/2023 3:30:00 PM 14.26 57.668 0.213 7.93 5036 0.01
4/18/2023 3:45:00 PM 14.37 57.866 0.213 7.98 5036 0.01
4/18/2023 4:00:00 PM 14.35 57.83 0.215 8.04 5036 0.01
4/18/2023 4:15:00 PM 14.44 57.992 0.215 8.04 5036 0.01
4/18/2023 4:30:00 PM 14.45 58.01 0.215 8.08 5036 0.01
4/18/2023 4:45:00 PM 14.51 58.118 0.214 8.09 5036 0.01
4/18/2023 5:00:00 PM 14.53 58.154 0.213 8.11 5036 0.01
4/18/2023 5:15:00 PM 14.66 58.388 0.213 8.17 5036 0.01
4/18/2023 5:30:00 PM 14.65 58.37 0.215 8.17 5036 0.01
4/18/2023 5:45:00 PM 14.67 58.406 0.214 8.2 5036 0.01
4/18/2023 6:00:00 PM 14.65 58.37 0.216 8.21 5036 0.01
4/18/2023 6:15:00 PM 14.65 58.37 0.222 8.17 5036 0.01
4/18/2023 6:30:00 PM 14.63 58.334 0.215 8.21 5036 0.01
4/18/2023 6:45:00 PM 14.62 58.316 0.218 8.21 5036 0.01
4/18/2023 7:00:00 PM 14.56 58.208 0.227 8.17 5036 0.01
4/18/2023 7:15:00 PM 14.5 58.1 0.224 8.18 5036 0.01
4/18/2023 7:30:00 PM 14.44 57.992 0.215 8.2 5036 0.01
4/18/2023 7:45:00 PM 14.38 57.884 0.221 8.22 5036 0.01
4/18/2023 8:00:00 PM 14.33 57.794 0.217 8.21 5036 0.01
4/18/2023 8:15:00 PM 14.27 57.686 0.223 8.17 5036 0.01
4/18/2023 8:30:00 PM 14.23 57.614 0.233 8.13 5036 0.01
4/18/2023 8:45:00 PM 14.17 57.506 0.227 8.12 5036 0.01
4/18/2023 9:00:00 PM 14.11 57.398 0.222 8.07 5036 0.01
4/18/2023 9:15:00 PM 14.05 57.29 0.222 8.07 5036 0.01
4/18/2023 9:30:00 PM 14.01 57.218 0.222 8.04 5036 0.01
4/18/2023 9:45:00 PM 13.96 57.128 0.224 8.02 5036 0.01
4/18/2023 10:00:00 PM 13.92 57.056 0.223 7.99 5036 0.01
4/18/2023 10:15:00 PM 13.87 56.966 0.221 7.97 5037 0.01
4/18/2023 10:30:00 PM 13.81 56.858 0.22 7.93 5037 0.01
4/18/2023 10:45:00 PM 13.76 56.768 0.218 7.91 5037 0.01
4/18/2023 11:00:00 PM 13.73 56.714 0.218 7.9 5037 0.01
4/18/2023 11:15:00 PM 13.66 56.588 0.217 7.9 5037 0.01
4/18/2023 11:30:00 PM 13.6 56.48 0.221 7.88 5037 0.01
4/18/2023 11:45:00 PM 13.58 56.444 0.22 7.84 5037 0.01
4/19/2023 12:00:00 AM 13.53 56.354 0.222 7.83 5037 0.01
4/19/2023 12:15:00 AM 13.43 56.174 0.221 7.82 5037 0.01
4/19/2023 12:30:00 AM 13.41 56.138 0.223 7.81 5037 0.01
4/19/2023 12:45:00 AM 13.37 56.066 0.222 7.79 5037 0.01
4/19/2023 1:00:00 AM 13.34 56.012 0.221 7.79 5037 0.01
4/19/2023 1:15:00 AM 13.3 55.94 0.221 7.78 5037 0.01
4/19/2023 1:30:00 AM 13.27 55.886 0.22 7.77 5037 0.01
4/19/2023 1:45:00 AM 13.21 55.778 0.223 7.77 5037 0.01
4/19/2023 2:00:00 AM 13.19 55.742 0.218 7.76 5037 0.01
4/19/2023 2:15:00 AM 13.09 55.562 0.217 7.77 5037 0.01
4/19/2023 2:30:00 AM 13.06 55.508 0.218 7.77 5037 0.01
4/19/2023 2:45:00 AM 13.08 55.544 0.219 7.76 5037 0.01
4/19/2023 3:00:00 AM 13.03 55.454 0.22 7.75 5037 0.01
4/19/2023 3:15:00 AM 13.05 55.49 0.225 7.75 5037 0.01
4/19/2023 3:30:00 AM 13 55.4 0.22 7.74 5037 0.01
4/19/2023 3:45:00 AM 12.94 55.292 0.221 7.73 5037 0.01
4/19/2023 4:00:00 AM 12.88 55.184 0.221 7.73 5037 0.01
4/19/2023 4:15:00 AM 12.84 55.112 0.222 7.74 5037 0.01
4/19/2023 4:30:00 AM 12.81 55.058 0.222 7.73 5037 0.01
4/19/2023 4:45:00 AM 12.66 54.788 0.217 7.74 5037 0.02
4/19/2023 5:00:00 AM 12.6 54.68 0.217 7.73 5037 0.02
4/19/2023 5:15:00 AM 12.49 54.482 0.216 7.73 5037 0.01
4/19/2023 5:30:00 AM 12.49 54.482 0.216 7.72 5031 0.01
4/19/2023 5:45:00 AM 12.37 54.266 0.217 7.72 4868 0.01
4/19/2023 6:00:00 AM 12.38 54.284 0.217 7.71 4739 0.02
4/19/2023 6:15:00 AM 12.33 54.194 0.218 7.72 5003 0.01
4/19/2023 6:30:00 AM 12.26 54.068 0.218 7.73 741.2 0.01
4/19/2023 6:45:00 AM 12.16 53.888 0.218 7.72 732.3 0.02
4/19/2023 7:00:00 AM 12.18 53.924 0.219 7.71 746.4 0.01
4/19/2023 7:15:00 AM 12.03 53.654 0.216 7.72 743.6 0.02
4/19/2023 7:30:00 AM 12.02 53.636 0.216 7.73 740.9 0.01
4/19/2023 7:45:00 AM 11.94 53.492 0.218 7.73 725.4 0.02
4/19/2023 8:00:00 AM 11.88 53.384 0.214 7.73 719 0.01
4/19/2023 8:15:00 AM 11.87 53.366 0.215 7.74 714.1 0.02
4/19/2023 8:30:00 AM 11.87 53.366 0.216 7.74 730.1 0.02
4/19/2023 8:45:00 AM 11.83 53.294 0.215 7.74 709.5 0.01
4/19/2023 9:00:00 AM 11.89 53.402 0.218 7.74 707.8 0.01
4/19/2023 9:15:00 AM 11.94 53.492 0.219 7.73 703.5 0.01
4/19/2023 9:30:00 AM 11.96 53.528 0.22 7.74 699.1 0.01
4/19/2023 9:45:00 AM 12.03 53.654 0.22 7.77 691.8 0.01
4/19/2023 10:00:00 AM 12.12 53.816 0.221 7.79 683.2 0.01
4/19/2023 10:15:00 AM 12.2 53.96 0.22 7.82 676.7 0.01
4/19/2023 10:30:00 AM 12.28 54.104 0.219 7.84 671.9 0.01
4/19/2023 10:45:00 AM 12.39 54.302 0.218 7.86 662.9 0.01
4/19/2023 11:00:00 AM 12.49 54.482 0.218 7.86 658.9 0.01
4/19/2023 11:15:00 AM 12.59 54.662 0.219 7.87 647.8 0.01
4/19/2023 11:30:00 AM 12.67 54.806 0.217 7.91 643.1 0.01
4/19/2023 11:45:00 AM 12.79 55.022 0.218 7.92 638.9 0.01
4/19/2023 12:00:00 PM 12.88 55.184 0.219 7.93 634.3 0.01
4/19/2023 12:15:00 PM 12.97 55.346 0.22 7.94 626.6 0.01
4/19/2023 12:30:00 PM 13.04 55.472 0.22 7.95 626.1 0.01
4/19/2023 12:45:00 PM 13.14 55.652 0.221 7.96 1765 0.01
4/19/2023 1:00:00 PM 13.22 55.796 0.22 7.97 5037 0.01
4/19/2023 1:15:00 PM 13.28 55.904 0.219 8.02 5037 0.01
4/19/2023 1:30:00 PM 13.34 56.012 0.22 8.02 5037 0.01
4/19/2023 1:45:00 PM 13.35 56.03 0.223 8.04 5037 0.02
4/19/2023 2:00:00 PM 13.61 56.498 0.219 8.06 5037 0.02
4/19/2023 2:15:00 PM 13.68 56.624 0.221 8.1 5037 0.01
4/19/2023 2:30:00 PM 13.67 56.606 0.22 8.11 5036 0.01
4/19/2023 2:45:00 PM 13.95 57.11 0.218 8.17 5036 0.01
4/19/2023 3:00:00 PM 13.96 57.128 0.219 8.17 5036 0.01
4/19/2023 3:15:00 PM 14.14 57.452 0.218 8.21 5036 0.01
4/19/2023 3:30:00 PM 14.02 57.236 0.222 8.17 5036 0.01
4/19/2023 3:45:00 PM 14.3 57.74 0.218 8.17 5036 0.01
4/19/2023 4:00:00 PM 14.33 57.794 0.219 8.23 5036 0.01
4/19/2023 4:15:00 PM 14.46 58.028 0.219 8.23 5036 0.01
4/19/2023 4:30:00 PM 14.36 57.848 0.22 8.28 5036 0.01
4/19/2023 4:45:00 PM 14.55 58.19 0.219 8.26 5036 0.01
4/19/2023 5:00:00 PM 14.59 58.262 0.22 8.29 5036 0.01
4/19/2023 5:15:00 PM 14.62 58.316 0.22 8.31 5036 0.01
4/19/2023 5:30:00 PM 14.65 58.37 0.219 8.32 5036 0.01
4/19/2023 5:45:00 PM 14.66 58.388 0.221 8.32 5036 0.01
4/19/2023 6:00:00 PM 14.51 58.118 0.222 8.31 5036 0.01
4/19/2023 6:15:00 PM 14.56 58.208 0.224 8.3 5036 0.01
4/19/2023 6:30:00 PM 14.61 58.298 0.224 8.32 5036 0.01
4/19/2023 6:45:00 PM 14.63 58.334 0.225 8.32 5036 0.08
4/19/2023 7:00:00 PM 14.75 58.55 0.223 8.31 5036 0.16
4/19/2023 7:15:00 PM 14.68 58.424 0.224 8.32 5036 0.01
4/19/2023 7:30:00 PM 14.64 58.352 0.225 8.32 5036 0.01
4/19/2023 7:45:00 PM 14.75 58.55 0.224 8.28 5036 0.03
4/19/2023 8:00:00 PM 14.75 58.55 0.221 8.27 5036 0.18
4/19/2023 8:15:00 PM 14.64 58.352 0.226 8.25 5036 0.05
4/19/2023 8:30:00 PM 14.6 58.28 0.228 8.21 5036 0.08
4/19/2023 8:45:00 PM 14.64 58.352 0.224 8.18 5036 0.05
4/19/2023 9:00:00 PM 14.62 58.316 0.226 8.17 5036 0.05
4/19/2023 9:15:00 PM 14.55 58.19 0.229 8.12 5037 0.01
4/19/2023 9:30:00 PM 14.55 58.19 0.231 8.1 5036 0.01
4/19/2023 9:45:00 PM 14.52 58.136 0.23 8.09 5037 0.03
4/19/2023 10:00:00 PM 14.5 58.1 0.23 8.07 5037 0.01
4/19/2023 10:15:00 PM 14.46 58.028 0.231 8.02 3907 0.02
4/19/2023 10:30:00 PM 14.4 57.92 0.227 7.99 4636 0.02
4/19/2023 10:45:00 PM 14.39 57.902 0.223 7.97 5037 0.02
4/19/2023 11:00:00 PM 14.34 57.812 0.226 7.95 5037 0.01
4/19/2023 11:15:00 PM 14.3 57.74 0.227 7.93 5037 0.02
4/19/2023 11:30:00 PM 14.24 57.632 0.225 7.9 5036 0.04
4/19/2023 11:45:00 PM 14.21 57.578 0.224 7.87 5036 0.01
4/20/2023 12:00:00 AM 14.18 57.524 0.225 7.81 5036 0.01
4/20/2023 12:15:00 AM 14.14 57.452 0.224 7.78 5036 0.01
4/20/2023 12:30:00 AM 14.09 57.362 0.228 7.75 4512 0.02
4/20/2023 12:45:00 AM 14.07 57.326 0.226 7.75 4840 0.01
4/20/2023 1:00:00 AM 14.04 57.272 0.208 7.76 5037 0.02
4/20/2023 1:15:00 AM 14.03 57.254 0.219 7.69 5037 0.01
4/20/2023 1:30:00 AM 13.99 57.182 0.222 7.69 5037 0.01
4/20/2023 1:45:00 AM 13.97 57.146 0.179 7.7 5037 0.04
4/20/2023 2:00:00 AM 13.96 57.128 0.227 7.66 5037 0.02
4/20/2023 2:15:00 AM 13.94 57.092 0.221 7.69 5037 0.01
4/20/2023 2:30:00 AM 13.91 57.038 0.218 7.72 5037 0.01
4/20/2023 2:45:00 AM 13.87 56.966 0.197 7.68 5037 0.02
4/20/2023 3:00:00 AM 13.84 56.912 0.206 7.7 5037 0.02
4/20/2023 3:15:00 AM 13.82 56.876 0.213 7.69 5037 0.01
4/20/2023 3:30:00 AM 13.79 56.822 0.215 7.71 5037 0.02
4/20/2023 3:45:00 AM 13.75 56.75 0.195 7.69 5037 0.02
4/20/2023 4:00:00 AM 13.7 56.66 0.206 7.69 5037 0.05
4/20/2023 4:15:00 AM 13.65 56.57 0.221 7.69 5037 0.05
4/20/2023 4:30:00 AM 13.62 56.516 0.215 7.69 5037 0.01
4/20/2023 4:45:00 AM 13.6 56.48 0.19 7.68 5037 0.02
4/20/2023 5:00:00 AM 13.56 56.408 0.214 7.65 5037 0.4
4/20/2023 5:15:00 AM 13.53 56.354 0.219 7.63 681.4 1.93
4/20/2023 5:30:00 AM 13.48 56.264 0.219 7.62 674.4 1.31
4/20/2023 5:45:00 AM 13.45 56.21 0.22 7.62 667.1 1.2
4/20/2023 6:00:00 AM 13.38 56.084 0.216 7.64 654.6 0.76
4/20/2023 6:15:00 AM 13.32 55.976 0.223 7.66 560.3 0.25
4/20/2023 6:30:00 AM 13.28 55.904 0.211 7.62 569.5 0.13
4/20/2023 6:45:00 AM 13.27 55.886 0.227 7.62 569.6 0.42
4/20/2023 7:00:00 AM 13.2 55.76 0.217 7.63 572.3 0.04
4/20/2023 7:15:00 AM 13.14 55.652 0.193 7.62 573.7 0.05
4/20/2023 7:30:00 AM 13.13 55.634 0.217 7.63 570.9 0.05
4/20/2023 7:45:00 AM 13.1 55.58 0.21 7.62 542.7 0.03
4/20/2023 8:00:00 AM 13.07 55.526 0.222 7.61 547.1 0.01
4/20/2023 8:15:00 AM 13.06 55.508 0.222 7.62 554.6 0.12
4/20/2023 8:30:00 AM 13.05 55.49 0.22 7.64 556.8 0.59
4/20/2023 8:45:00 AM 13.05 55.49 0.225 7.65 553.7 0.17
4/20/2023 9:00:00 AM 13.06 55.508 0.221 7.69 547.7 0.13
4/20/2023 9:15:00 AM 13.11 55.598 0.223 7.69 548.9 0.05
4/20/2023 9:30:00 AM 13.19 55.742 0.224 7.7 551 0.01
4/20/2023 9:45:00 AM 13.28 55.904 0.225 7.73 550 0.03
4/20/2023 10:00:00 AM 13.35 56.03 0.222 7.75 548.7 0.05
4/20/2023 10:15:00 AM 13.4 56.12 0.225 7.78 550.8 0.03
4/20/2023 10:30:00 AM 13.52 56.336 0.207 7.79 550 0.07
4/20/2023 10:45:00 AM 13.64 56.552 0.222 7.84 563.5 0.01
4/20/2023 11:00:00 AM 13.89 57.002 0.212 7.86 565.5 0.01
4/20/2023 11:15:00 AM 13.97 57.146 0.207 7.88 817.2 0.01
4/20/2023 11:30:00 AM 14.26 57.668 0.212 7.9 924.2 0.01
4/20/2023 11:45:00 AM 14.25 57.65 0.205 7.88 899.3 0.01
4/20/2023 12:00:00 PM 14.4 57.92 0.207 7.91 886.7 0.01
4/20/2023 12:15:00 PM 14.66 58.388 0.212 7.95 862.8 0.01
4/20/2023 12:30:00 PM 14.7 58.46 0.219 8 848.1 0.01
4/20/2023 12:45:00 PM 14.86 58.748 0.222 8.02 823.8 0.01
4/20/2023 1:00:00 PM 14.93 58.874 0.221 8.07 814.9 0.02
4/20/2023 1:15:00 PM 14.94 58.892 0.225 8.09 804 0.01
4/20/2023 1:30:00 PM 15.29 59.522 0.221 8.12 781.3 0.01
4/20/2023 1:45:00 PM 14.89 58.802 0.222 8.14 770.1 0.01
4/20/2023 2:00:00 PM 15 59 0.222 8.15 767.5 0.01
4/20/2023 2:15:00 PM 15.62 60.116 0.221 8.15 749.5 0.01
4/20/2023 2:30:00 PM 15.58 60.044 0.22 8.18 750.3 0.01
4/20/2023 2:45:00 PM 15.8 60.44 0.219 8.24 741.9 0.01
4/20/2023 3:00:00 PM 15.87 60.566 0.22 8.27 735.1 0.01
4/20/2023 3:15:00 PM 15.67 60.206 0.222 8.29 722.2 0.01
4/20/2023 3:30:00 PM 15.64 60.152 0.227 8.28 712.1 0.01
4/20/2023 3:45:00 PM 15.94 60.692 0.225 8.25 702 0.01
4/20/2023 4:00:00 PM 16.16 61.088 0.223 8.29 691.8 0.01
4/20/2023 4:15:00 PM 15.83 60.494 0.225 8.33 680.9 0.01
4/20/2023 4:30:00 PM 15.97 60.746 0.225 8.3 638.5 0.01
4/20/2023 4:45:00 PM 15.67 60.206 0.224 8.31 631.6 0.01
4/20/2023 5:00:00 PM 15.7 60.26 0.226 8.28 629 0.01
4/20/2023 5:15:00 PM 15.7 60.26 0.223 8.33 627.8 0.01
4/20/2023 5:30:00 PM 15.9 60.62 0.225 8.32 621.8 0.01
4/20/2023 5:45:00 PM 16.19 61.142 0.223 8.32 622.9 0.01
4/20/2023 6:00:00 PM 16.14 61.052 0.227 8.31 970.3 0.01
4/20/2023 6:15:00 PM 16.48 61.664 0.224 8.34 942.9 0.01
4/20/2023 6:30:00 PM 16.22 61.196 0.226 8.34 925.2 0.01
4/20/2023 6:45:00 PM 16.59 61.862 0.226 8.34 905.5 0.01
4/20/2023 7:00:00 PM 16.34 61.412 0.227 8.3 884.7 0.01
4/20/2023 7:15:00 PM 16.44 61.592 0.227 8.28 872.7 0.01
4/20/2023 7:30:00 PM 16.41 61.538 0.226 8.29 867.4 0.01
4/20/2023 7:45:00 PM 16.36 61.448 0.227 8.24 852 0.01
4/20/2023 8:00:00 PM 16.38 61.484 0.225 8.23 849.5 0.01
4/20/2023 8:15:00 PM 16.35 61.43 0.225 8.18 843.5 0.01
4/20/2023 8:30:00 PM 16.39 61.502 0.224 8.19 839.3 0.01
4/20/2023 8:45:00 PM 16.48 61.664 0.226 8.12 846.8 0.01
4/20/2023 9:00:00 PM 16.24 61.232 0.224 8.13 842 0.01
4/20/2023 9:15:00 PM 16.24 61.232 0.229 8.04 813.4 0.01
4/20/2023 9:30:00 PM 16.32 61.376 0.231 7.94 835.9 0.02
4/20/2023 9:45:00 PM 16.3 61.34 0.232 7.91 840.3 0.01
4/20/2023 10:00:00 PM 16.06 60.908 0.231 7.84 840.9 0.03
4/20/2023 10:15:00 PM 16 60.8 0.229 7.83 836 0.01
4/20/2023 10:30:00 PM 16.02 60.836 0.234 7.84 840.9 0.01
4/20/2023 10:45:00 PM 16.2 61.16 0.229 7.81 842.8 0.02
4/20/2023 11:00:00 PM 16.31 61.358 0.227 7.8 844.9 0.01
4/20/2023 11:15:00 PM 16.32 61.376 0.227 7.81 983.6 0.01
4/20/2023 11:30:00 PM 16.31 61.358 0.225 7.81 951.5 0.01
4/20/2023 11:45:00 PM 16.27 61.286 0.227 7.78 971.7 0.01
4/21/2023 12:00:00 AM 16.29 61.322 0.225 7.79 969.4 0.01
4/21/2023 12:15:00 AM 16.23 61.214 0.228 7.76 972.8 0.01
4/21/2023 12:30:00 AM 16.22 61.196 0.229 7.73 974 0.01
4/21/2023 12:45:00 AM 16.14 61.052 0.228 7.73 979.3 0.01
4/21/2023 1:00:00 AM 16.24 61.232 0.227 7.72 984.8 0.02
4/21/2023 1:15:00 AM 16.25 61.25 0.227 7.73 989.5 0.01
4/21/2023 1:30:00 AM 16.12 61.016 0.23 7.73 1007 0.01
4/21/2023 1:45:00 AM 16.15 61.07 0.228 7.71 1006 0.01
4/21/2023 2:00:00 AM 16.08 60.944 0.228 7.7 1007 0.01
4/21/2023 2:15:00 AM 16.1 60.98 0.227 7.67 1011 0.01
4/21/2023 2:30:00 AM 16.01 60.818 0.229 7.66 1010 0.01
4/21/2023 2:45:00 AM 16.04 60.872 0.225 7.67 1026 0.01
4/21/2023 3:00:00 AM 16 60.8 0.226 7.67 1028 0.01
4/21/2023 3:15:00 AM 16 60.8 0.227 7.65 1031 0.01
4/21/2023 3:30:00 AM 15.95 60.71 0.229 7.64 1037 0.01
4/21/2023 3:45:00 AM 15.82 60.476 0.228 7.61 1034 0.01
4/21/2023 4:00:00 AM 15.78 60.404 0.228 7.6 1037 0.01
4/21/2023 4:15:00 AM 15.88 60.584 0.226 7.62 1043 0.01
4/21/2023 4:30:00 AM 15.79 60.422 0.231 7.62 1047 0.01
4/21/2023 4:45:00 AM 15.78 60.404 0.23 7.56 851.1 0.01
4/21/2023 5:00:00 AM 15.67 60.206 0.223 7.61 922.9 0.01
4/21/2023 5:15:00 AM 15.6 60.08 0.224 7.62 944.2 0.01
4/21/2023 5:30:00 AM 15.59 60.062 0.226 7.6 959.8 0.01
4/21/2023 5:45:00 AM 15.58 60.044 0.229 7.54 956.7 0.01
4/21/2023 6:00:00 AM 15.54 59.972 0.227 7.53 959.5 0.01
4/21/2023 6:15:00 AM 15.5 59.9 0.226 7.55 984.3 0.01
4/21/2023 6:30:00 AM 15.41 59.738 0.226 7.59 980.7 0.01
4/21/2023 6:45:00 AM 15.38 59.684 0.228 7.57 988.4 0.01
4/21/2023 7:00:00 AM 15.34 59.612 0.229 7.57 987.8 0.01
4/21/2023 7:15:00 AM 15.31 59.558 0.228 7.57 987.4 0.01
4/21/2023 7:30:00 AM 15.25 59.45 0.228 7.57 737 0.01
4/21/2023 7:45:00 AM 15.23 59.414 0.227 7.57 674.4 0.01
4/21/2023 8:00:00 AM 15.22 59.396 0.228 7.58 1453 0.01
4/21/2023 8:15:00 AM 15.19 59.342 0.229 7.58 1051 0.01
4/21/2023 8:30:00 AM 15.19 59.342 0.225 7.61 1418 0.01
4/21/2023 8:45:00 AM 15.2 59.36 0.225 7.64 1049 0.01
4/21/2023 9:00:00 AM 15.24 59.432 0.226 7.65 1192 0.01
4/21/2023 9:15:00 AM 15.29 59.522 0.229 7.64 1039 0.01
4/21/2023 9:30:00 AM 15.41 59.738 0.233 7.66 787.6 0.01
4/21/2023 9:45:00 AM 15.5 59.9 0.23 7.69 985.5 0.01
4/21/2023 10:00:00 AM 15.67 60.206 0.231 7.68 1005 0.01
4/21/2023 10:15:00 AM 15.6 60.08 0.235 7.72 995.6 0.01
4/21/2023 10:30:00 AM 15.74 60.332 0.232 7.75 1009 0.01
4/21/2023 10:45:00 AM 15.67 60.206 0.233 7.76 1003 0.01
4/21/2023 11:00:00 AM 15.85 60.53 0.231 7.76 995.3 0.01
4/21/2023 11:15:00 AM 15.93 60.674 0.23 7.8 974.6 0.01
4/21/2023 11:30:00 AM 16.15 61.07 0.229 7.84 873.7 0.01
4/21/2023 11:45:00 AM 16.11 60.998 0.23 7.84 870.4 0.01
4/21/2023 12:00:00 PM 16.21 61.178 0.231 7.89 852.5 0.01
4/21/2023 12:15:00 PM 16.28 61.304 0.231 7.94 846 0.01
4/21/2023 12:30:00 PM 16.29 61.322 0.233 7.95 900.3 0.01
4/21/2023 12:45:00 PM 16.45 61.61 0.234 7.96 871.9 0.01
4/21/2023 1:00:00 PM 16.65 61.97 0.233 8.03 710.3 0.01
4/21/2023 1:15:00 PM 16.52 61.736 0.236 7.97 1397 0.01
4/21/2023 1:30:00 PM 16.51 61.718 0.237 7.94 5036 0.01
4/21/2023 1:45:00 PM 16.74 62.132 0.233 8.03 5036 0.01
4/21/2023 2:00:00 PM 16.82 62.276 0.235 8.09 4182 0.01
4/21/2023 2:15:00 PM 16.88 62.384 0.232 8.08 4115 0
4/21/2023 2:30:00 PM 17.1 62.78 0.234 8.12 3972 0.01
4/21/2023 2:45:00 PM 16.84 62.312 0.235 8.17 3878 0
4/21/2023 3:00:00 PM 16.78 62.204 0.232 8.19 3868 0.01
4/21/2023 3:15:00 PM 16.89 62.402 0.236 8.13 3951 0.01
4/21/2023 3:30:00 PM 17.14 62.852 0.234 8.07 3712 0
4/21/2023 3:45:00 PM 17.22 62.996 0.233 8.09 3616 0
4/21/2023 4:00:00 PM 17.16 62.888 0.234 8.09 3579 0.01
4/21/2023 4:15:00 PM 17.28 63.104 0.234 8.13 3474 0
4/21/2023 4:30:00 PM 17.5 63.5 0.232 8.21 3429 0
4/21/2023 4:45:00 PM 17.47 63.446 0.233 8.22 3405 0.01
4/21/2023 5:00:00 PM 17.62 63.716 0.231 8.28 2620 0
4/21/2023 5:15:00 PM 17.66 63.788 0.232 8.26 611.8 0
4/21/2023 5:30:00 PM 17.8 64.04 0.232 8.27 227.4 0
4/21/2023 5:45:00 PM 18.01 64.418 0.23 8.25 212.1 0
4/21/2023 6:00:00 PM 17.92 64.256 0.235 8.29 206.7 0
4/21/2023 6:15:00 PM 18.42 65.156 0.228 8.33 219.3 0
4/21/2023 6:30:00 PM 18.16 64.688 0.23 8.32 213.1 0
4/21/2023 6:45:00 PM 18.06 64.508 0.233 8.3 209.3 0
4/21/2023 7:00:00 PM 18.03 64.454 0.233 8.19 211.3 0
4/21/2023 7:15:00 PM 17.98 64.364 0.234 8.21 213.1 0.01
4/21/2023 7:30:00 PM 17.82 64.076 0.229 8.22 219.7 0.01
4/21/2023 7:45:00 PM 17.76 63.968 0.23 8.14 209.3 0.01
4/21/2023 8:00:00 PM 17.73 63.914 0.228 8.18 207.3 0.05
4/21/2023 8:15:00 PM 17.8 64.04 0.231 8.06 213 0.02
4/21/2023 8:30:00 PM 17.88 64.184 0.231 8.02 215.6 0.01
4/21/2023 8:45:00 PM 18.15 64.67 0.229 7.99 227.5 0.01
4/21/2023 9:00:00 PM 18.24 64.832 0.23 8.02 218.3 0
4/21/2023 9:15:00 PM 18.22 64.796 0.23 8.01 245.8 0
4/21/2023 9:30:00 PM 18.16 64.688 0.235 7.94 247.6 0.01
4/21/2023 9:45:00 PM 18.21 64.778 0.233 7.9 248.7 0.01
4/21/2023 10:00:00 PM 18.29 64.922 0.233 7.9 266.2 0.01
4/21/2023 10:15:00 PM 18.22 64.796 0.234 7.83 247.2 0.01
4/21/2023 10:30:00 PM 18.23 64.814 0.231 7.85 239.4 0.01
4/21/2023 10:45:00 PM 18.12 64.616 0.235 7.8 292.8 0.01
4/21/2023 11:00:00 PM 18.14 64.652 0.231 7.8 257.5 0
4/21/2023 11:15:00 PM 18.11 64.598 0.232 7.77 270.4 0.01
4/21/2023 11:30:00 PM 18.07 64.526 0.23 7.72 277.7 0.01
4/21/2023 11:45:00 PM 18.06 64.508 0.23 7.72 271.2 0
4/22/2023 12:00:00 AM 18.02 64.436 0.232 7.72 300.7 0.01
4/22/2023 12:15:00 AM 17.91 64.238 0.233 7.67 297.7 0.01
4/22/2023 12:30:00 AM 17.91 64.238 0.232 7.68 308.2 0.01
4/22/2023 12:45:00 AM 17.92 64.256 0.233 7.68 313.3 0.01
4/22/2023 1:00:00 AM 17.9 64.22 0.233 7.67 334.6 0.01
4/22/2023 1:15:00 AM 17.84 64.112 0.232 7.67 343.1 0.01
4/22/2023 1:30:00 AM 17.87 64.166 0.232 7.68 332.7 0.01
4/22/2023 1:45:00 AM 17.93 64.274 0.23 7.65 331.3 0.01
4/22/2023 2:00:00 AM 17.9 64.22 0.228 7.66 360.3 0.01
4/22/2023 2:15:00 AM 17.97 64.346 0.227 7.65 371.7 0.01
4/22/2023 2:30:00 AM 17.85 64.13 0.228 7.65 357.4 0.01
4/22/2023 2:45:00 AM 17.79 64.022 0.227 7.64 369.7 0
4/22/2023 3:00:00 AM 17.73 63.914 0.228 7.64 373.3 0.01
4/22/2023 3:15:00 AM 17.73 63.914 0.226 7.66 378.2 0.01
4/22/2023 3:30:00 AM 17.65 63.77 0.227 7.66 386.6 0.01
4/22/2023 3:45:00 AM 17.65 63.77 0.23 7.65 401.7 0.01
4/22/2023 4:00:00 AM 17.63 63.734 0.228 7.65 419.1 0.01
4/22/2023 4:15:00 AM 17.56 63.608 0.229 7.65 442 0.01
4/22/2023 4:30:00 AM 17.46 63.428 0.23 7.64 453.1 0.01
4/22/2023 4:45:00 AM 17.43 63.374 0.229 7.64 449.4 0.01
4/22/2023 5:00:00 AM 17.41 63.338 0.226 7.64 456.5 0.01
4/22/2023 5:15:00 AM 17.32 63.176 0.226 7.63 462.2 0.01
4/22/2023 5:30:00 AM 17.25 63.05 0.228 7.63 480.1 0.01
4/22/2023 5:45:00 AM 17.17 62.906 0.227 7.62 497.8 0.01
4/22/2023 6:00:00 AM 17.11 62.798 0.226 7.61 509.4 0.01
4/22/2023 6:15:00 AM 17.08 62.744 0.227 7.61 519.4 0.01
4/22/2023 6:30:00 AM 17.03 62.654 0.229 7.62 525.5 0.01
4/22/2023 6:45:00 AM 16.92 62.456 0.229 7.61 524 0.01
4/22/2023 7:00:00 AM 16.9 62.42 0.23 7.6 541.9 0.01
4/22/2023 7:15:00 AM 16.86 62.348 0.229 7.61 560.6 0.01
4/22/2023 7:30:00 AM 16.82 62.276 0.229 7.6 582.9 0.01
4/22/2023 7:45:00 AM 16.73 62.114 0.23 7.6 588.2 0.01
4/22/2023 8:00:00 AM 16.72 62.096 0.228 7.6 596.4 0.01
4/22/2023 8:15:00 AM 16.73 62.114 0.228 7.61 614.3 0.01
4/22/2023 8:30:00 AM 16.74 62.132 0.227 7.62 645.9 0.01
4/22/2023 8:45:00 AM 16.71 62.078 0.228 7.63 661.9 0.01
4/22/2023 9:00:00 AM 16.63 61.934 0.228 7.64 672.7 0.01
4/22/2023 9:15:00 AM 16.93 62.474 0.227 7.67 699.7 0.01
4/22/2023 9:30:00 AM 16.98 62.564 0.229 7.7 999.5 0.01
4/22/2023 9:45:00 AM 16.84 62.312 0.23 7.7 225.8 0.01
4/22/2023 10:00:00 AM 17 62.6 0.229 7.74 152.4 0.01
4/22/2023 10:15:00 AM 17.05 62.69 0.229 7.75 127.7 0.01
4/22/2023 10:30:00 AM 17.12 62.816 0.228 7.79 126.9 0.01
4/22/2023 10:45:00 AM 17.03 62.654 0.229 7.81 121.8 0.01
4/22/2023 11:00:00 AM 17.29 63.122 0.227 7.85 119.1 0.01
4/22/2023 11:15:00 AM 17.25 63.05 0.228 7.88 111.8 0.01
4/22/2023 11:30:00 AM 17.36 63.248 0.228 7.9 105.2 0.01
4/22/2023 11:45:00 AM 17.42 63.356 0.228 7.92 97.98 0.01
4/22/2023 12:00:00 PM 17.51 63.518 0.228 7.95 103.4 0.01
4/22/2023 12:15:00 PM 17.37 63.266 0.229 7.97 95.16 0
4/22/2023 12:30:00 PM 17.47 63.446 0.229 8.02 101.7 0.01
4/22/2023 12:45:00 PM 17.42 63.356 0.229 8.06 92.29 0
4/22/2023 1:00:00 PM 17.79 64.022 0.23 8.07 89.71 0
4/22/2023 1:15:00 PM 17.93 64.274 0.228 8.12 89.22 0.01
4/22/2023 1:30:00 PM 17.93 64.274 0.228 8.16 88.25 0
4/22/2023 1:45:00 PM 18.06 64.508 0.227 8.2 87.71 0.01
4/22/2023 2:00:00 PM 17.92 64.256 0.228 8.23 87.65 0.01
4/22/2023 2:15:00 PM 17.87 64.166 0.227 8.23 86.99 0.01
4/22/2023 2:30:00 PM 17.62 63.716 0.229 8.18 86.79 0.01
4/22/2023 2:45:00 PM 17.69 63.842 0.229 8.17 88.02 0
4/22/2023 3:00:00 PM 17.81 64.058 0.222 8.16 89.84 0.01
4/22/2023 3:15:00 PM 17.61 63.698 0.223 8.16 89.75 0.01
4/22/2023 3:30:00 PM 17.62 63.716 0.222 8.1 95.56 0.01
4/22/2023 3:45:00 PM 17.44 63.392 0.222 8.05 90.48 0.02
4/22/2023 4:00:00 PM 17.39 63.302 0.227 8 90.9 0.01
4/22/2023 4:15:00 PM 17.29 63.122 0.223 7.99 91.96 0.01
4/22/2023 4:30:00 PM 17.32 63.176 0.221 7.98 91.94 0.01
4/22/2023 4:45:00 PM 17.37 63.266 0.222 7.96 92.45 0.01
4/22/2023 5:00:00 PM 17.29 63.122 0.221 7.97 94.23 0.01
4/22/2023 5:15:00 PM 17.24 63.032 0.221 7.96 94.36 0.01
4/22/2023 5:30:00 PM 17.17 62.906 0.221 7.93 95.06 0.01
4/22/2023 5:45:00 PM 17.12 62.816 0.222 7.91 95.75 0.01
4/22/2023 6:00:00 PM 17.11 62.798 0.221 7.9 106.6 0.01
4/22/2023 6:15:00 PM 17.16 62.888 0.221 7.9 97.11 0.01
4/22/2023 6:30:00 PM 17.01 62.618 0.221 7.87 97.04 0.01
4/22/2023 6:45:00 PM 16.99 62.582 0.221 7.86 106.6 0.01
4/22/2023 7:00:00 PM 16.95 62.51 0.224 7.83 98.84 0.01
4/22/2023 7:15:00 PM 16.95 62.51 0.222 7.81 111.2 0.01
4/22/2023 7:30:00 PM 16.9 62.42 0.221 7.79 105.7 0.01
4/22/2023 7:45:00 PM 16.83 62.294 0.222 7.8 96.15 0.01
4/22/2023 8:00:00 PM 16.94 62.492 0.221 7.77 93.1 0.01
4/22/2023 8:15:00 PM 16.82 62.276 0.222 7.77 76.22 0.01
4/22/2023 8:30:00 PM 16.86 62.348 0.223 7.75 71.02 0.01
4/22/2023 8:45:00 PM 16.8 62.24 0.224 7.75 79.16 0.01
4/22/2023 9:00:00 PM 16.84 62.312 0.227 7.72 82.54 0.01
4/22/2023 9:15:00 PM 16.83 62.294 0.227 7.72 84.13 0.01
4/22/2023 9:30:00 PM 16.86 62.348 0.227 7.72 84.4 0.01
4/22/2023 9:45:00 PM 16.85 62.33 0.225 7.72 87.31 0.01
4/22/2023 10:00:00 PM 16.83 62.294 0.224 7.72 84.23 0.01
4/22/2023 10:15:00 PM 16.88 62.384 0.223 7.71 83.98 0.01
4/22/2023 10:30:00 PM 16.65 61.97 0.222 7.7 80.29 0.01
4/22/2023 10:45:00 PM 16.79 62.222 0.218 7.68 74.39 0.01
4/22/2023 11:00:00 PM 16.69 62.042 0.22 7.69 74.31 0.01
4/22/2023 11:15:00 PM 16.7 62.06 0.22 7.68 75.52 0.01
4/22/2023 11:30:00 PM 16.65 61.97 0.222 7.67 72.75 0.01
4/22/2023 11:45:00 PM 16.6 61.88 0.22 7.67 71.68 0.01
4/23/2023 12:00:00 AM 16.57 61.826 0.222 7.66 77.65 0.01
4/23/2023 12:15:00 AM 16.5 61.7 0.219 7.65 70.56 0.01
4/23/2023 12:30:00 AM 16.44 61.592 0.221 7.65 71.72 0.01
4/23/2023 12:45:00 AM 16.4 61.52 0.221 7.65 70.62 0.01
4/23/2023 1:00:00 AM 16.37 61.466 0.22 7.65 69.66 0.01
4/23/2023 1:15:00 AM 16.3 61.34 0.221 7.64 69 0.01
4/23/2023 1:30:00 AM 16.23 61.214 0.22 7.64 69.85 0.01
4/23/2023 1:45:00 AM 16.19 61.142 0.22 7.64 68.16 0.01
4/23/2023 2:00:00 AM 16.16 61.088 0.22 7.64 68.58 0.01
4/23/2023 2:15:00 AM 16.1 60.98 0.223 7.62 68.13 0.01
4/23/2023 2:30:00 AM 16.03 60.854 0.224 7.61 67.09 0.01
4/23/2023 2:45:00 AM 15.99 60.782 0.224 7.63 70.02 0.01
4/23/2023 3:00:00 AM 15.93 60.674 0.224 7.63 67.94 0.01
4/23/2023 3:15:00 AM 15.89 60.602 0.225 7.63 68.47 0.01
4/23/2023 3:30:00 AM 15.83 60.494 0.225 7.62 67.94 0.01
4/23/2023 3:45:00 AM 15.77 60.386 0.223 7.61 68.92 0.01
4/23/2023 4:00:00 AM 15.72 60.296 0.227 7.6 74.1 0.01
4/23/2023 4:15:00 AM 15.68 60.224 0.226 7.6 72.2 0.01
4/23/2023 4:30:00 AM 15.61 60.098 0.225 7.59 73 0.01
4/23/2023 4:45:00 AM 15.55 59.99 0.225 7.6 72.29 0.01
4/23/2023 5:00:00 AM 15.5 59.9 0.227 7.61 72.83 0.01
4/23/2023 5:15:00 AM 15.45 59.81 0.229 7.61 73.6 0.01
4/23/2023 5:30:00 AM 15.4 59.72 0.231 7.6 76.32 0.01
4/23/2023 5:45:00 AM 15.3 59.54 0.231 7.59 72.88 0.01
4/23/2023 6:00:00 AM 15.25 59.45 0.231 7.61 74.12 0.01
4/23/2023 6:15:00 AM 15.2 59.36 0.23 7.61 71.65 0.01
4/23/2023 6:30:00 AM 15.11 59.198 0.227 7.62 76.34 0.01
4/23/2023 6:45:00 AM 15.09 59.162 0.227 7.62 73.98 0.01
4/23/2023 7:00:00 AM 14.98 58.964 0.226 7.62 76.55 0.01
4/23/2023 7:15:00 AM 14.94 58.892 0.222 7.63 75.37 0.01
4/23/2023 7:30:00 AM 14.88 58.784 0.221 7.63 86.99 0.01
4/23/2023 7:45:00 AM 14.89 58.802 0.222 7.63 80.8 0.01
4/23/2023 8:00:00 AM 14.84 58.712 0.221 7.62 80.67 0.01
4/23/2023 8:15:00 AM 14.81 58.658 0.223 7.63 79.19 0.01
4/23/2023 8:30:00 AM 14.79 58.622 0.223 7.64 78.83 0.01
4/23/2023 8:45:00 AM 14.79 58.622 0.224 7.63 78.98 0.01
4/23/2023 9:00:00 AM 14.84 58.712 0.224 7.62 80.76 0.01
4/23/2023 9:15:00 AM 14.89 58.802 0.209 7.63 79.53 0.01
4/23/2023 9:30:00 AM 15.02 59.036 0.218 7.64 81.33 0.01
4/23/2023 9:45:00 AM 15.06 59.108 0.222 7.68 81.82 0.01
4/23/2023 10:00:00 AM 15.12 59.216 0.219 7.7 89.85 0.01
4/23/2023 10:15:00 AM 15.23 59.414 0.219 7.73 87.83 0.01
4/23/2023 10:30:00 AM 15.37 59.666 0.217 7.75 95.07 0.01
4/23/2023 10:45:00 AM 15.4 59.72 0.216 7.79 90.61 0.01
4/23/2023 11:00:00 AM 15.43 59.774 0.217 7.8 91.53 0.01
4/23/2023 11:15:00 AM 15.49 59.882 0.218 7.81 91.15 0.01
4/23/2023 11:30:00 AM 15.51 59.918 0.218 7.82 87.15 0.01
4/23/2023 11:45:00 AM 15.63 60.134 0.218 7.86 89.51 0.01
4/23/2023 12:00:00 PM 15.63 60.134 0.218 7.86 88.87 0.01
4/23/2023 12:15:00 PM 15.81 60.458 0.218 7.88 90.61 0.01
4/23/2023 12:30:00 PM 15.92 60.656 0.22 7.88 86.78 0.01
4/23/2023 12:45:00 PM 15.96 60.728 0.218 7.92 85.78 0.01
4/23/2023 1:00:00 PM 15.97 60.746 0.217 7.95 85.15 0.01
4/23/2023 1:15:00 PM 15.99 60.782 0.218 7.97 85.88 0.01
4/23/2023 1:30:00 PM 16.02 60.836 0.216 7.97 186.7 0.01
4/23/2023 1:45:00 PM 15.94 60.692 0.215 7.98 741.5 0.01
4/23/2023 2:00:00 PM 15.95 60.71 0.215 7.98 779 0.01
4/23/2023 2:15:00 PM 16 60.8 0.218 7.99 804.6 0.01
4/23/2023 2:30:00 PM 15.97 60.746 0.221 7.95 800.2 0.01
4/23/2023 2:45:00 PM 16.01 60.818 0.216 7.97 807.6 0.01
4/23/2023 3:00:00 PM 15.99 60.782 0.218 7.93 780.5 0.01
4/23/2023 3:15:00 PM 16 60.8 0.216 7.97 773.1 0.01
4/23/2023 3:30:00 PM 15.99 60.782 0.214 8 751.8 0.01
4/23/2023 3:45:00 PM 15.99 60.782 0.214 8 755.9 0.01
4/23/2023 4:00:00 PM 15.98 60.764 0.216 8.02 741.7 0.01
4/23/2023 4:15:00 PM 16.01 60.818 0.211 8.03 738.7 0.01
4/23/2023 4:30:00 PM 16 60.8 0.212 8.08 707.2 0.01
4/23/2023 4:45:00 PM 15.98 60.764 0.213 8.1 694.5 0.01
4/23/2023 5:00:00 PM 15.99 60.782 0.213 8.11 710.7 0.01
4/23/2023 5:15:00 PM 15.97 60.746 0.213 8.1 709.3 0.01
4/23/2023 5:30:00 PM 15.94 60.692 0.212 8.09 690.8 0.01
4/23/2023 5:45:00 PM 15.93 60.674 0.214 8.09 697.4 0.01
4/23/2023 6:00:00 PM 15.94 60.692 0.213 8.11 688.2 0.01
4/23/2023 6:15:00 PM 15.9 60.62 0.216 8.07 679.1 0.01
4/23/2023 6:30:00 PM 15.86 60.548 0.215 8.02 665.2 0.01
4/23/2023 6:45:00 PM 15.84 60.512 0.227 8.02 609.2 0.01
4/23/2023 7:00:00 PM 15.8 60.44 0.223 7.99 605.2 0.01
4/23/2023 7:15:00 PM 15.83 60.494 0.225 8.01 601.5 0.01
4/23/2023 7:30:00 PM 15.76 60.368 0.208 8.07 596.8 0.01
4/23/2023 7:45:00 PM 15.69 60.242 0.209 8.07 591.5 0.01
4/23/2023 8:00:00 PM 15.65 60.17 0.208 8.03 582.2 0.01
4/23/2023 8:15:00 PM 15.6 60.08 0.208 8 575.5 0.01
4/23/2023 8:30:00 PM 15.55 59.99 0.209 8.02 570.1 0.01
4/23/2023 8:45:00 PM 15.5 59.9 0.211 7.98 572.9 0.01
4/23/2023 9:00:00 PM 15.45 59.81 0.219 7.98 574.2 0.01
4/23/2023 9:15:00 PM 15.41 59.738 0.214 7.95 566 0.01
4/23/2023 9:30:00 PM 15.38 59.684 0.213 7.94 568.7 0.01
4/23/2023 9:45:00 PM 15.32 59.576 0.211 7.92 554.4 0.01
4/23/2023 10:00:00 PM 15.23 59.414 0.217 7.92 547 0.01
4/23/2023 10:15:00 PM 15.19 59.342 0.207 7.92 550.4 0.01
4/23/2023 10:30:00 PM 15.13 59.234 0.206 7.91 548.1 0.01
4/23/2023 10:45:00 PM 15.07 59.126 0.213 7.88 534.9 0.01
4/23/2023 11:00:00 PM 15 59 0.216 7.88 510.9 0.01
4/23/2023 11:15:00 PM 14.96 58.928 0.209 7.85 497.5 0.01
4/23/2023 11:30:00 PM 14.9 58.82 0.21 7.82 502.3 0.01
4/23/2023 11:45:00 PM 14.81 58.658 0.215 7.82 493.1 0.01
4/24/2023 12:00:00 AM 14.77 58.586 0.222 7.78 482.8 0.01
4/24/2023 12:15:00 AM 14.73 58.514 0.22 7.78 469.2 0.01
4/24/2023 12:30:00 AM 14.69 58.442 0.222 7.73 464.4 0.01
4/24/2023 12:45:00 AM 14.64 58.352 0.212 7.74 446.2 0.01
4/24/2023 1:00:00 AM 14.58 58.244 0.221 7.72 444.4 0.01
4/24/2023 1:15:00 AM 14.55 58.19 0.224 7.73 424.7 0.01
4/24/2023 1:30:00 AM 14.49 58.082 0.213 7.7 422 0.01
4/24/2023 1:45:00 AM 14.47 58.046 0.211 7.71 416.2 0.01
4/24/2023 2:00:00 AM 14.41 57.938 0.217 7.7 399.7 0.01
4/24/2023 2:15:00 AM 14.31 57.758 0.226 7.69 398.1 0.01
4/24/2023 2:30:00 AM 14.31 57.758 0.218 7.7 383.4 0.01
4/24/2023 2:45:00 AM 14.23 57.614 0.211 7.69 392 0.01
4/24/2023 3:00:00 AM 14.17 57.506 0.213 7.7 386.2 0.01
4/24/2023 3:15:00 AM 14.08 57.344 0.216 7.67 369.7 0.01
4/24/2023 3:30:00 AM 14.09 57.362 0.234 7.68 396.1 0.01
4/24/2023 3:45:00 AM 13.98 57.164 0.21 7.67 395.9 0.01
4/24/2023 4:00:00 AM 13.94 57.092 0.212 7.68 388.7 0.01
4/24/2023 4:15:00 AM 13.93 57.074 0.21 7.69 382.1 0.01
4/24/2023 4:30:00 AM 13.85 56.93 0.209 7.67 375.5 0.01
4/24/2023 4:45:00 AM 13.74 56.732 0.206 7.66 369.6 0.01
4/24/2023 5:00:00 AM 13.71 56.678 0.204 7.65 361.9 0.01
4/24/2023 5:15:00 AM 13.64 56.552 0.205 7.66 358.9 0.01
4/24/2023 5:30:00 AM 13.53 56.354 0.21 7.63 358.3 0.01
4/24/2023 5:45:00 AM 13.5 56.3 0.21 7.64 361.7 0.01
4/24/2023 6:00:00 AM 13.35 56.03 0.211 7.62 355.6 0.01
4/24/2023 6:15:00 AM 13.37 56.066 0.211 7.62 359.5 0.01
4/24/2023 6:30:00 AM 13.27 55.886 0.211 7.62 357.4 0.01
4/24/2023 6:45:00 AM 13.18 55.724 0.211 7.63 352.2 0.01
4/24/2023 7:00:00 AM 13.03 55.454 0.202 7.64 363.2 0.01
4/24/2023 7:15:00 AM 13.05 55.49 0.212 7.62 362.5 0.01
4/24/2023 7:30:00 AM 12.95 55.31 0.208 7.63 362.1 0.01
4/24/2023 7:45:00 AM 12.84 55.112 0.209 7.62 360.7 0.01
4/24/2023 8:00:00 AM 12.84 55.112 0.21 7.63 356.8 0.02
4/24/2023 8:15:00 AM 12.75 54.95 0.211 7.63 351.5 0.01
4/24/2023 8:30:00 AM 12.74 54.932 0.208 7.63 349.1 0.01
4/24/2023 8:45:00 AM 12.68 54.824 0.208 7.65 347.2 0.01
4/24/2023 9:00:00 AM 12.69 54.842 0.21 7.66 342.8 0.01
4/24/2023 9:15:00 AM 12.79 55.022 0.215 7.66 340 0.01
4/24/2023 9:30:00 AM 12.92 55.256 0.214 7.68 318.5 0.01
4/24/2023 9:45:00 AM 13.03 55.454 0.219 7.69 64.26 0.01
4/24/2023 10:00:00 AM 13.1 55.58 0.214 7.68 63.62 0.01
4/24/2023 10:15:00 AM 13.18 55.724 0.213 7.71 66.55 0.01
4/24/2023 10:30:00 AM 13.26 55.868 0.212 7.73 67.17 0.01
4/24/2023 10:45:00 AM 13.34 56.012 0.211 7.73 67.33 0.01
4/24/2023 11:00:00 AM 13.42 56.156 0.21 7.77 67.45 0.01
4/24/2023 11:15:00 AM 13.47 56.246 0.21 7.81 66.08 0.01
4/24/2023 11:30:00 AM 13.56 56.408 0.212 7.82 61.15 0.01
4/24/2023 11:45:00 AM 13.63 56.534 0.212 7.84 62.87 0.01
4/24/2023 12:00:00 PM 13.69 56.642 0.187 7.85 62.95 0.01
4/24/2023 12:15:00 PM 13.75 56.75 0.207 7.83 64.73 0.01
4/24/2023 12:30:00 PM 13.8 56.84 0.197 7.79 63.08 0.01
4/24/2023 12:45:00 PM 13.82 56.876 0.218 7.72 63.39 0.01
4/24/2023 1:00:00 PM 13.83 56.894 0.216 7.78 63.83 0.01
4/24/2023 1:15:00 PM 13.84 56.912 0.218 7.88 63.37 0.01
4/24/2023 1:30:00 PM 13.87 56.966 0.216 7.85 63.36 0.01
4/24/2023 1:45:00 PM 13.91 57.038 0.216 7.87 63.17 0.01
4/24/2023 2:00:00 PM 13.93 57.074 0.217 7.86 62.75 0.01
4/24/2023 2:15:00 PM 13.98 57.164 0.216 7.87 63.78 0.01
4/24/2023 2:30:00 PM 14.01 57.218 0.218 7.85 63.78 0.01
4/24/2023 2:45:00 PM 14.04 57.272 0.221 7.84 63.73 0.01
4/24/2023 3:00:00 PM 14.08 57.344 0.222 7.87 63.47 0.01
4/24/2023 3:15:00 PM 14.15 57.47 0.218 7.9 64.05 0.01
4/24/2023 3:30:00 PM 14.2 57.56 0.218 7.91 62.95 0.01
4/24/2023 3:45:00 PM 14.27 57.686 0.219 7.94 62.63 0.01
4/24/2023 4:00:00 PM 14.27 57.686 0.218 7.93 68.58 0.01
4/24/2023 4:15:00 PM 14.29 57.722 0.217 7.97 62.28 0.01
4/24/2023 4:30:00 PM 14.35 57.83 0.215 7.97 61.17 0.01
4/24/2023 4:45:00 PM 14.36 57.848 0.218 7.95 60.83 0.01
4/24/2023 5:00:00 PM 14.39 57.902 0.218 8.01 61.07 0.01
4/24/2023 5:15:00 PM 14.4 57.92 0.216 8.01 65.43 0.01
4/24/2023 5:30:00 PM 14.4 57.92 0.224 8.03 70.25 0.01
4/24/2023 5:45:00 PM 14.41 57.938 0.212 8.07 63.28 0.01
4/24/2023 6:00:00 PM 14.44 57.992 0.216 8.19 62.58 0.01
4/24/2023 6:15:00 PM 14.46 58.028 0.213 8.18 61.97 0.01
4/24/2023 6:30:00 PM 14.49 58.082 0.215 8.27 71.13 0.01
4/24/2023 6:45:00 PM 14.45 58.01 0.217 8.18 70.92 0.01
4/24/2023 7:00:00 PM 14.45 58.01 0.213 8.17 80.63 0.01
4/24/2023 7:15:00 PM 14.44 57.992 0.207 8.26 79.92 0.01
4/24/2023 7:30:00 PM 14.41 57.938 0.211 8.28 75.9 0.01
4/24/2023 7:45:00 PM 14.37 57.866 0.219 8.23 75.46 0.01
4/24/2023 8:00:00 PM 14.33 57.794 0.212 8.21 74.04 0.01
4/24/2023 8:15:00 PM 14.29 57.722 0.218 8.16 67.46 0.01
4/24/2023 8:30:00 PM 14.25 57.65 0.212 8.19 71.27 0.01
4/24/2023 8:45:00 PM 14.19 57.542 0.219 8.15 70.57 0.01
4/24/2023 9:00:00 PM 14.15 57.47 0.217 8.11 70.34 0.01
4/24/2023 9:15:00 PM 14.08 57.344 0.216 8.09 67.88 0.01
4/24/2023 9:30:00 PM 14.06 57.308 0.222 8.06 274.5 0.01
4/24/2023 9:45:00 PM 14.03 57.254 0.229 8 215.1 0.01
4/24/2023 10:00:00 PM 13.97 57.146 0.224 7.97 198 0.01
4/24/2023 10:15:00 PM 13.94 57.092 0.228 7.9 195.7 0.01
4/24/2023 10:30:00 PM 13.91 57.038 0.217 7.87 183.1 0.01
4/24/2023 10:45:00 PM 13.86 56.948 0.222 7.82 186.4 0.01
4/24/2023 11:00:00 PM 13.81 56.858 0.218 7.81 182.1 0.01
4/24/2023 11:15:00 PM 13.79 56.822 0.224 7.77 163.1 0.01
4/24/2023 11:30:00 PM 13.73 56.714 0.223 7.76 141.3 0.01
4/24/2023 11:45:00 PM 13.66 56.588 0.219 7.75 134.3 0.01
4/25/2023 12:00:00 AM 13.63 56.534 0.221 7.69 133.3 0.01
4/25/2023 12:15:00 AM 13.58 56.444 0.23 7.65 124.5 0.01
4/25/2023 12:30:00 AM 13.52 56.336 0.221 7.66 133.9 0.01
4/25/2023 12:45:00 AM 13.49 56.282 0.224 7.65 124.1 0.01
4/25/2023 1:00:00 AM 13.46 56.228 0.224 7.69 121.2 0.01
4/25/2023 1:15:00 AM 13.39 56.102 0.218 7.65 114.3 0.01
4/25/2023 1:30:00 AM 13.33 55.994 0.224 7.62 59.76 0.01
4/25/2023 1:45:00 AM 13.29 55.922 0.228 7.65 58.61 0.01
4/25/2023 2:00:00 AM 13.24 55.832 0.226 7.67 66.67 0.01
4/25/2023 2:15:00 AM 13.12 55.616 0.216 7.66 56.36 0.01
4/25/2023 2:30:00 AM 13.11 55.598 0.218 7.68 58.85 0.01
4/25/2023 2:45:00 AM 13.06 55.508 0.222 7.64 66.85 0.01
4/25/2023 3:00:00 AM 12.96 55.328 0.218 7.66 72.98 0.01
4/25/2023 3:15:00 AM 12.89 55.202 0.217 7.68 56.72 0.01
4/25/2023 3:30:00 AM 12.93 55.274 0.218 7.69 55.8 0.01
4/25/2023 3:45:00 AM 12.85 55.13 0.222 7.7 54.94 0.01
4/25/2023 4:00:00 AM 12.81 55.058 0.222 7.69 54.13 0.01
4/25/2023 4:15:00 AM 12.77 54.986 0.219 7.67 53.6 0.01
4/25/2023 4:30:00 AM 12.73 54.914 0.218 7.65 56.73 0.01
4/25/2023 4:45:00 AM 12.67 54.806 0.22 7.64 54.86 0.01
4/25/2023 5:00:00 AM 12.59 54.662 0.217 7.64 56 0.01
4/25/2023 5:15:00 AM 12.51 54.518 0.216 7.65 63.98 0.01
4/25/2023 5:30:00 AM 12.4 54.32 0.22 7.63 55.34 0.01
4/25/2023 5:45:00 AM 12.26 54.068 0.219 7.64 57.74 0.02
4/25/2023 6:00:00 AM 12.14 53.852 0.223 7.65 56.19 0.01
4/25/2023 6:15:00 AM 12.14 53.852 0.217 7.66 62.83 0.02
4/25/2023 6:30:00 AM 12.03 53.654 0.22 7.69 60.75 0.01
4/25/2023 6:45:00 AM 12 53.6 0.218 7.69 58.28 0.01
4/25/2023 7:00:00 AM 12.03 53.654 0.22 7.7 55.44 0.01
4/25/2023 7:15:00 AM 11.99 53.582 0.22 7.7 62.61 0.02
4/25/2023 7:30:00 AM 11.92 53.456 0.218 7.69 59.02 0.02
4/25/2023 7:45:00 AM 11.62 52.916 0.222 7.69 56.96 0.02
4/25/2023 8:00:00 AM 11.47 52.646 0.22 7.69 60.16 0.02
4/25/2023 8:15:00 AM 11.42 52.556 0.22 7.7 63.79 0.02
4/25/2023 8:30:00 AM 11.42 52.556 0.219 7.71 59.97 0.02
4/25/2023 8:45:00 AM 11.42 52.556 0.224 7.72 60.84 0.02
4/25/2023 9:00:00 AM 11.57 52.826 0.22 7.71 59.78 0.02
4/25/2023 9:15:00 AM 11.7 53.06 0.222 7.72 58.3 0.02
4/25/2023 9:30:00 AM 11.8 53.24 0.225 7.74 69.63 0.01
4/25/2023 9:45:00 AM 11.9 53.42 0.224 7.76 70.95 0.01
4/25/2023 10:00:00 AM 12.03 53.654 0.224 7.78 72 0.01
4/25/2023 10:15:00 AM 12 53.6 0.224 7.78 71.91 0.01
4/25/2023 10:30:00 AM 12.14 53.852 0.226 7.8 73.19 0.01
4/25/2023 10:45:00 AM 12.22 53.996 0.223 7.79 75.67 0.01
4/25/2023 11:00:00 AM 12.31 54.158 0.222 7.84 73.22 0.01
4/25/2023 11:15:00 AM 12.36 54.248 0.223 7.85 77.97 0.01
4/25/2023 11:30:00 AM 12.43 54.374 0.224 7.86 76.24 0.01
4/25/2023 11:45:00 AM 12.61 54.698 0.221 7.91 75.29 0.01
4/25/2023 12:00:00 PM 12.65 54.77 0.22 7.96 75.51 0.01
4/25/2023 12:15:00 PM 12.77 54.986 0.221 7.99 78.17 0.01
4/25/2023 12:30:00 PM 12.82 55.076 0.223 8.01 73.05 0.01
4/25/2023 12:45:00 PM 12.92 55.256 0.224 8.03 66.12 0.01
4/25/2023 1:00:00 PM 12.93 55.274 0.228 8.02 68.44 0.01
4/25/2023 1:15:00 PM 13.01 55.418 0.225 8.04 66.22 0.01
4/25/2023 1:30:00 PM 13.11 55.598 0.225 8.09 65.63 0.01
4/25/2023 1:45:00 PM 13.16 55.688 0.222 8.13 65.74 0.01
4/25/2023 2:00:00 PM 13.16 55.688 0.222 8.14 69.85 0.01
4/25/2023 2:15:00 PM 13.18 55.724 0.222 8.11 83.46 0.01
4/25/2023 2:30:00 PM 13.21 55.778 0.224 8.11 84.2 0.01
4/25/2023 2:45:00 PM 13.24 55.832 0.225 8.11 98.73 0.01
4/25/2023 3:00:00 PM 13.27 55.886 0.226 8.09 85.69 0.01
4/25/2023 3:15:00 PM 13.29 55.922 0.23 8.08 88.07 0.01
4/25/2023 3:30:00 PM 13.32 55.976 0.23 8.07 82.68 0.01
4/25/2023 3:45:00 PM 13.33 55.994 0.227 8.05 83.87 0.01
4/25/2023 4:00:00 PM 13.39 56.102 0.233 8.07 90.44 0.01
4/25/2023 4:15:00 PM 13.39 56.102 0.242 8.03 1237 0.01
4/25/2023 4:30:00 PM 13.41 56.138 0.233 7.99 1275 0.01
4/25/2023 4:45:00 PM 13.43 56.174 0.224 7.98 1271 0.01
4/25/2023 5:00:00 PM 13.45 56.21 0.223 7.97 1283 0.01
4/25/2023 5:15:00 PM 13.49 56.282 0.258 8.05 1263 0.01
4/25/2023 5:30:00 PM 13.52 56.336 0.225 8.03 1255 0.01
4/25/2023 5:45:00 PM 13.56 56.408 0.236 8.04 1223 0.01
4/25/2023 6:00:00 PM 13.59 56.462 0.231 8.04 1194 0.01
4/25/2023 6:15:00 PM 13.62 56.516 0.279 7.98 1158 0.01
4/25/2023 6:30:00 PM 13.66 56.588 0.251 8.06 1137 0.01
4/25/2023 6:45:00 PM 13.69 56.642 0.233 8.03 1122 0.01
4/25/2023 7:00:00 PM 13.72 56.696 0.267 8.08 1114 0.01
4/25/2023 7:15:00 PM 13.74 56.732 0.236 8.03 998.2 0.01
4/25/2023 7:30:00 PM 13.76 56.768 0.239 7.96 972.4 0.01
4/25/2023 7:45:00 PM 13.77 56.786 0.227 8.03 972.7 0.01
4/25/2023 8:00:00 PM 13.79 56.822 0.236 7.99 963.9 0.01
4/25/2023 8:15:00 PM 13.78 56.804 0.257 7.81 962.1 0.01
4/25/2023 8:30:00 PM 13.77 56.786 0.221 7.93 952.8 0.01
4/25/2023 8:45:00 PM 13.78 56.804 0.221 8.06 953.1 0.01
4/25/2023 9:00:00 PM 13.8 56.84 0.227 8.08 939.5 0.01
4/25/2023 9:15:00 PM 13.79 56.822 0.223 8.09 934 0.01
4/25/2023 9:30:00 PM 13.72 56.696 0.23 8.01 913.2 0.01
4/25/2023 9:45:00 PM 13.68 56.624 0.227 7.94 920.9 0.01
4/25/2023 10:00:00 PM 13.62 56.516 0.229 7.95 920.9 0.01
4/25/2023 10:15:00 PM 13.57 56.426 0.227 7.88 898 0.01
4/25/2023 10:30:00 PM 13.51 56.318 0.225 7.9 896.9 0.01
4/25/2023 10:45:00 PM 13.42 56.156 0.231 7.91 861.9 0.01
4/25/2023 11:00:00 PM 13.35 56.03 0.224 7.88 864.9 0.01
4/25/2023 11:15:00 PM 13.31 55.958 0.233 7.88 845.2 0.01
4/25/2023 11:30:00 PM 13.28 55.904 0.228 7.81 817.5 0.01
4/25/2023 11:45:00 PM 13.26 55.868 0.23 7.68 1085 0.01
4/26/2023 12:00:00 AM 13.15 55.67 0.223 7.77 813.7 0.01
4/26/2023 12:15:00 AM 13.12 55.616 0.225 7.72 802.4 0.01
4/26/2023 12:30:00 AM 13.05 55.49 0.223 7.73 799 0.01
4/26/2023 12:45:00 AM 13.03 55.454 0.225 7.71 837.3 0.01
4/26/2023 1:00:00 AM 12.95 55.31 0.223 7.77 773.2 0.01
4/26/2023 1:15:00 AM 12.88 55.184 0.222 7.81 745.1 0.01
4/26/2023 1:30:00 AM 12.85 55.13 0.222 7.81 722.3 0.01
4/26/2023 1:45:00 AM 12.85 55.13 0.224 7.81 709.3 0.01
4/26/2023 2:00:00 AM 12.78 55.004 0.22 7.81 697.6 0.01
4/26/2023 2:15:00 AM 12.76 54.968 0.219 7.81 674.8 0.01
4/26/2023 2:30:00 AM 12.74 54.932 0.22 7.8 667.7 0.01
4/26/2023 2:45:00 AM 12.74 54.932 0.22 7.8 654 0.01
4/26/2023 3:00:00 AM 12.71 54.878 0.22 7.8 627.6 0.01
4/26/2023 3:15:00 AM 12.69 54.842 0.221 7.78 611.8 0.01
4/26/2023 3:30:00 AM 12.68 54.824 0.223 7.77 609.7 0.01
4/26/2023 3:45:00 AM 12.68 54.824 0.222 7.74 605.6 0.01
4/26/2023 4:00:00 AM 12.65 54.77 0.222 7.75 602.1 0.01
4/26/2023 4:15:00 AM 12.62 54.716 0.223 7.74 588.1 0.01
4/26/2023 4:30:00 AM 12.62 54.716 0.221 7.74 655.9 0.01
4/26/2023 4:45:00 AM 12.58 54.644 0.221 7.74 651 0.01
4/26/2023 5:00:00 AM 12.59 54.662 0.223 7.75 647.9 0.01
4/26/2023 5:15:00 AM 12.53 54.554 0.219 7.75 668.8 0.01
4/26/2023 5:30:00 AM 12.5 54.5 0.219 7.74 698.3 0.01
4/26/2023 5:45:00 AM 12.47 54.446 0.219 7.74 767.7 0.01
4/26/2023 6:00:00 AM 12.44 54.392 0.221 7.74 729.1 0.01
4/26/2023 6:15:00 AM 12.4 54.32 0.221 7.73 737.6 0.01
4/26/2023 6:30:00 AM 12.41 54.338 0.221 7.74 726.9 0.01
4/26/2023 6:45:00 AM 12.35 54.23 0.224 7.72 707.3 0.02
4/26/2023 7:00:00 AM 12.31 54.158 0.225 7.73 717.8 0.01
4/26/2023 7:15:00 AM 12.3 54.14 0.224 7.7 689.7 0.01
4/26/2023 7:30:00 AM 12.28 54.104 0.222 7.72 675.6 0.01
4/26/2023 7:45:00 AM 12.23 54.014 0.221 7.72 657.2 0.01
4/26/2023 8:00:00 AM 12.23 54.014 0.22 7.73 651.9 0.01
4/26/2023 8:15:00 AM 12.22 53.996 0.221 7.74 647.2 0.01
4/26/2023 8:30:00 AM 12.22 53.996 0.221 7.73 633.3 0.01
4/26/2023 8:45:00 AM 12.21 53.978 0.22 7.75 622.4 0.01
4/26/2023 9:00:00 AM 12.22 53.996 0.221 7.77 608.3 0.01
4/26/2023 9:15:00 AM 12.26 54.068 0.222 7.8 606.3 0.01
4/26/2023 9:30:00 AM 12.32 54.176 0.224 7.8 592.2 0.01
4/26/2023 9:45:00 AM 12.45 54.41 0.224 7.83 582 0.01
4/26/2023 10:00:00 AM 12.51 54.518 0.225 7.86 583 0.01
4/26/2023 10:15:00 AM 12.58 54.644 0.225 7.87 572 0.01
4/26/2023 10:30:00 AM 12.65 54.77 0.225 7.88 575.5 0.01
4/26/2023 10:45:00 AM 12.72 54.896 0.224 7.9 568.6 0.01
4/26/2023 11:00:00 AM 12.78 55.004 0.224 7.92 564.8 0.01
4/26/2023 11:15:00 AM 12.9 55.22 0.224 7.93 477.9 0.01
4/26/2023 11:30:00 AM 12.96 55.328 0.222 7.97 479.8 0.01
4/26/2023 11:45:00 AM 13.01 55.418 0.223 8 473.1 0.01
4/26/2023 12:00:00 PM 13.04 55.472 0.223 8.01 450.9 0.01
4/26/2023 12:15:00 PM 13.06 55.508 0.225 8.06 381.3 0.01
4/26/2023 12:30:00 PM 13.23 55.814 0.224 8.05 367.2 0.01
4/26/2023 12:45:00 PM 13.21 55.778 0.224 8.1 359.4 0.01
4/26/2023 1:00:00 PM 13.23 55.814 0.23 8.1 347.9 0.01
4/26/2023 1:15:00 PM 13.26 55.868 0.226 8.11 344.1 0.01
4/26/2023 1:30:00 PM 13.27 55.886 0.227 8.13 340.8 0.01
4/26/2023 1:45:00 PM 13.35 56.03 0.224 8.15 334.6 0.01
4/26/2023 2:00:00 PM 13.33 55.994 0.224 8.15 314.5 0.01
4/26/2023 2:15:00 PM 13.44 56.192 0.217 8.16 307.5 0.01
4/26/2023 2:30:00 PM 13.4 56.12 0.229 8.18 310.9 0.01
4/26/2023 2:45:00 PM 13.5 56.3 0.225 8.19 283.9 0.01
4/26/2023 3:00:00 PM 13.51 56.318 0.226 8.21 280.2 0.01
4/26/2023 3:15:00 PM 13.58 56.444 0.23 8.22 275.7 0.02
4/26/2023 3:30:00 PM 13.62 56.516 0.231 8.24 272.4 0.01
4/26/2023 3:45:00 PM 13.67 56.606 0.227 8.24 263.4 0.01
4/26/2023 4:00:00 PM 13.72 56.696 0.231 8.26 260.1 0.01
4/26/2023 4:15:00 PM 13.73 56.714 0.228 8.23 254.3 0.01
4/26/2023 4:30:00 PM 13.71 56.678 0.228 8.24 249.9 0.01
4/26/2023 4:45:00 PM 13.79 56.822 0.232 8.25 245.8 0.01
4/26/2023 5:00:00 PM 13.86 56.948 0.231 8.3 242.3 0.01
4/26/2023 5:15:00 PM 13.79 56.822 0.225 8.29 239.9 0.01
4/26/2023 5:30:00 PM 13.85 56.93 0.226 8.3 236.7 0.01
4/26/2023 5:45:00 PM 13.87 56.966 0.227 8.32 232.9 0.01
4/26/2023 6:00:00 PM 13.89 57.002 0.233 8.33 227.8 0.01
4/26/2023 6:15:00 PM 13.84 56.912 0.226 8.27 223.1 0.01
4/26/2023 6:30:00 PM 13.86 56.948 0.224 8.3 179.6 0.01
4/26/2023 6:45:00 PM 13.87 56.966 0.238 8.31 84.4 0.01
4/26/2023 7:00:00 PM 14.03 57.254 0.236 8.27 81.06 0.01
4/26/2023 7:15:00 PM 14.06 57.308 0.226 8.3 80.34 0.01
4/26/2023 7:30:00 PM 14.02 57.236 0.229 8.32 80.6 0.01
4/26/2023 7:45:00 PM 13.94 57.092 0.23 8.28 77.57 0.01
4/26/2023 8:00:00 PM 13.99 57.182 0.233 8.19 76.26 0.01
4/26/2023 8:15:00 PM 14.05 57.29 0.226 8.22 76.63 0.01
4/26/2023 8:30:00 PM 14.1 57.38 0.227 8.23 74.13 0.01
4/26/2023 8:45:00 PM 14.15 57.47 0.224 8.22 73 0.01
4/26/2023 9:00:00 PM 14.04 57.272 0.243 8.14 72.13 0.01
4/26/2023 9:15:00 PM 14.09 57.362 0.229 8.03 74.34 0.01
4/26/2023 9:30:00 PM 14.04 57.272 0.231 8.11 73.64 0.01
4/26/2023 9:45:00 PM 14 57.2 0.243 7.98 71.72 0.01
4/26/2023 10:00:00 PM 14.01 57.218 0.236 7.95 70.81 0.01
4/26/2023 10:15:00 PM 13.98 57.164 0.234 7.9 71.4 0.01
4/26/2023 10:30:00 PM 13.96 57.128 0.233 7.88 69.81 0.01
4/26/2023 10:45:00 PM 13.93 57.074 0.237 7.87 68.17 0.01
4/26/2023 11:00:00 PM 13.92 57.056 0.23 7.87 67.39 0.01
4/26/2023 11:15:00 PM 13.88 56.984 0.23 7.89 67.21 0.01
4/26/2023 11:30:00 PM 13.85 56.93 0.233 7.89 66.39 0.01
4/26/2023 11:45:00 PM 13.81 56.858 0.228 7.88 66.57 0.01
4/27/2023 12:00:00 AM 13.77 56.786 0.23 7.88 65.77 0.01
4/27/2023 12:15:00 AM 13.72 56.696 0.232 7.85 65.89 0.01
4/27/2023 12:30:00 AM 13.7 56.66 0.232 7.84 66.75 0.01
4/27/2023 12:45:00 AM 13.66 56.588 0.237 7.83 64.88 0.01
4/27/2023 1:00:00 AM 13.65 56.57 0.236 7.79 70.15 0.01
4/27/2023 1:15:00 AM 13.61 56.498 0.232 7.79 66.22 0.01
4/27/2023 1:30:00 AM 13.58 56.444 0.23 7.78 65.29 0.01
4/27/2023 1:45:00 AM 13.55 56.39 0.23 7.75 65.47 0.01
4/27/2023 2:00:00 AM 13.51 56.318 0.231 7.74 64.51 0.01
4/27/2023 2:15:00 AM 13.49 56.282 0.23 7.68 63.2 0.01
4/27/2023 2:30:00 AM 13.45 56.21 0.228 7.67 66.61 0.01
4/27/2023 2:45:00 AM 13.42 56.156 0.228 7.61 63.45 0.01
4/27/2023 3:00:00 AM 13.4 56.12 0.239 7.59 660.3 0.01
4/27/2023 3:15:00 AM 13.36 56.048 0.232 7.65 676.3 0.01
4/27/2023 3:30:00 AM 13.32 55.976 0.231 7.65 651.1 0.01
4/27/2023 3:45:00 AM 13.28 55.904 0.237 7.63 1828 0.01
4/27/2023 4:00:00 AM 13.24 55.832 0.231 7.63 1614 0.01
4/27/2023 4:15:00 AM 13.21 55.778 0.229 7.66 1537 0.01
4/27/2023 4:30:00 AM 13.19 55.742 0.229 7.66 1502 0.01
4/27/2023 4:45:00 AM 13.15 55.67 0.229 7.67 1476 0.01
4/27/2023 5:00:00 AM 13.12 55.616 0.232 7.63 1471 0.01
4/27/2023 5:15:00 AM 13.1 55.58 0.229 7.62 2625 0.01
4/27/2023 5:30:00 AM 13.06 55.508 0.227 7.62 2454 0.01
4/27/2023 5:45:00 AM 13.03 55.454 0.227 7.63 2326 0.01
4/27/2023 6:00:00 AM 13.01 55.418 0.227 7.62 3404 0.01
4/27/2023 6:15:00 AM 12.98 55.364 0.23 7.6 3258 0.01
4/27/2023 6:30:00 AM 12.95 55.31 0.231 7.58 3122 0.01
4/27/2023 6:45:00 AM 12.86 55.148 0.228 7.61 3031 0.01
4/27/2023 7:00:00 AM 12.87 55.166 0.228 7.64 2963 0.01
4/27/2023 7:15:00 AM 12.87 55.166 0.228 7.65 2881 0.01
4/27/2023 7:30:00 AM 12.8 55.04 0.228 7.66 2823 0.01
4/27/2023 7:45:00 AM 12.79 55.022 0.229 7.66 2884 0.01
4/27/2023 8:00:00 AM 12.76 54.968 0.228 7.64 2807 0.01
4/27/2023 8:15:00 AM 12.77 54.986 0.228 7.65 2758 0.01
4/27/2023 8:30:00 AM 12.78 55.004 0.228 7.65 2715 0.01
4/27/2023 8:45:00 AM 12.83 55.094 0.226 7.68 2695 0.01
4/27/2023 9:00:00 AM 12.85 55.13 0.225 7.72 2662 0.01
4/27/2023 9:15:00 AM 12.93 55.274 0.225 7.76 2663 0.01
4/27/2023 9:30:00 AM 12.95 55.31 0.226 7.8 2640 0.01
4/27/2023 9:45:00 AM 12.98 55.364 0.23 7.8 2618 0.01
4/27/2023 10:00:00 AM 12.95 55.31 0.228 7.83 2596 0.01
4/27/2023 10:15:00 AM 12.96 55.328 0.228 7.86 2533 0.01
4/27/2023 10:30:00 AM 13.06 55.508 0.227 7.84 2502 0.01
4/27/2023 10:45:00 AM 13.08 55.544 0.227 7.87 2472 0.01
4/27/2023 11:00:00 AM 13.08 55.544 0.226 7.91 2423 0.01
4/27/2023 11:15:00 AM 13.18 55.724 0.227 7.92 2369 0.01
4/27/2023 11:30:00 AM 13.36 56.048 0.225 7.94 2338 0.01
4/27/2023 11:45:00 AM 13.4 56.12 0.224 7.95 2307 0.01
4/27/2023 12:00:00 PM 13.39 56.102 0.225 8 2282 0.01
4/27/2023 12:15:00 PM 13.43 56.174 0.224 8.02 2243 0.01
4/27/2023 12:30:00 PM 13.43 56.174 0.224 8.08 2216 0.01
4/27/2023 12:45:00 PM 13.48 56.264 0.224 8.11 2197 0.01
4/27/2023 1:00:00 PM 13.65 56.57 0.226 8.14 2156 0.01
4/27/2023 1:15:00 PM 13.67 56.606 0.224 8.18 2138 0.01
4/27/2023 1:30:00 PM 13.86 56.948 0.226 8.21 2100 0.01
4/27/2023 1:45:00 PM 13.77 56.786 0.224 8.23 2066 0.01
4/27/2023 2:00:00 PM 13.83 56.894 0.225 8.24 2053 0.01
4/27/2023 2:15:00 PM 13.89 57.002 0.224 8.27 2016 0.01
4/27/2023 2:30:00 PM 14.03 57.254 0.225 8.29 1983 0.01
4/27/2023 2:45:00 PM 14.02 57.236 0.222 8.36 1933 0.01
4/27/2023 3:00:00 PM 14.36 57.848 0.224 8.36 1889 0.01
4/27/2023 3:15:00 PM 14.33 57.794 0.221 8.4 1829 0.01
4/27/2023 3:30:00 PM 14.7 58.46 0.223 8.39 1797 0.01
4/27/2023 3:45:00 PM 14.44 57.992 0.222 8.47 1762 0.01
4/27/2023 4:00:00 PM 14.64 58.352 0.223 8.48 2560 0.01
4/27/2023 4:15:00 PM 14.54 58.172 0.22 8.51 2808 0.01
4/27/2023 4:30:00 PM 14.61 58.298 0.22 8.53 3367 0.01
4/27/2023 4:45:00 PM 14.62 58.316 0.224 8.55 3492 0.01
4/27/2023 5:00:00 PM 14.6 58.28 0.22 8.53 3716 0.01
4/27/2023 5:15:00 PM 14.75 58.55 0.221 8.56 3752 0.01
4/27/2023 5:30:00 PM 14.71 58.478 0.216 8.59 3982 0.01
4/27/2023 5:45:00 PM 14.69 58.442 0.224 8.55 3978 0.01
4/27/2023 6:00:00 PM 14.61 58.298 0.22 8.59 3947 0.01
4/27/2023 6:15:00 PM 14.58 58.244 0.22 8.59 3884 0.01
4/27/2023 6:30:00 PM 14.71 58.478 0.221 8.57 3884 0.01
4/27/2023 6:45:00 PM 14.82 58.676 0.223 8.54 3878 0.01
4/27/2023 7:00:00 PM 14.62 58.316 0.221 8.54 3860 0.01
4/27/2023 7:15:00 PM 14.59 58.262 0.22 8.56 3872 0.01
4/27/2023 7:30:00 PM 14.59 58.262 0.222 8.56 3819 0.01
4/27/2023 7:45:00 PM 14.54 58.172 0.22 8.53 3825 0.01
4/27/2023 8:00:00 PM 14.53 58.154 0.22 8.52 3799 0.01
4/27/2023 8:15:00 PM 14.71 58.478 0.221 8.48 3781 0.01
4/27/2023 8:30:00 PM 14.76 58.568 0.221 8.48 3747 0.01
4/27/2023 8:45:00 PM 14.68 58.424 0.22 8.47 3752 0.01
4/27/2023 9:00:00 PM 14.67 58.406 0.219 8.47 3669 0.01
4/27/2023 9:15:00 PM 14.65 58.37 0.221 8.45 3796 0.01
4/27/2023 9:30:00 PM 14.59 58.262 0.224 8.4 3695 0.01
4/27/2023 9:45:00 PM 14.58 58.244 0.224 8.35 3601 0.01
4/27/2023 10:00:00 PM 14.55 58.19 0.225 8.32 3628 0.01
4/27/2023 10:15:00 PM 14.55 58.19 0.225 8.29 3685 0.01
4/27/2023 10:30:00 PM 14.55 58.19 0.224 8.26 3617 0.01
4/27/2023 10:45:00 PM 14.51 58.118 0.225 8.23 3630 0.01
4/27/2023 11:00:00 PM 14.49 58.082 0.226 8.17 3647 0.01
4/27/2023 11:15:00 PM 14.5 58.1 0.224 8.17 3686 0.01
4/27/2023 11:30:00 PM 14.52 58.136 0.222 8.09 3771 0.01
4/27/2023 11:45:00 PM 14.49 58.082 0.222 8.07 3752 0.01
4/28/2023 12:00:00 AM 14.51 58.118 0.223 8.04 3923 0.01
4/28/2023 12:15:00 AM 14.53 58.154 0.223 8.02 3962 0.01
4/28/2023 12:30:00 AM 14.54 58.172 0.224 8.01 3933 0.01
4/28/2023 12:45:00 AM 14.49 58.082 0.225 8 3907 0.01
4/28/2023 1:00:00 AM 14.55 58.19 0.225 7.97 3892 0.01
4/28/2023 1:15:00 AM 14.51 58.118 0.226 7.95 3887 0.01
4/28/2023 1:30:00 AM 14.48 58.064 0.229 7.93 3876 0.01
4/28/2023 1:45:00 AM 14.47 58.046 0.228 7.9 3872 0.01
4/28/2023 2:00:00 AM 14.47 58.046 0.225 7.88 3865 0.01
4/28/2023 2:15:00 AM 14.45 58.01 0.223 7.87 3853 0.01
4/28/2023 2:30:00 AM 14.47 58.046 0.223 7.86 3870 0.01
4/28/2023 2:45:00 AM 14.44 57.992 0.224 7.87 3866 0.01
4/28/2023 3:00:00 AM 14.42 57.956 0.224 7.84 3877 0.01
4/28/2023 3:15:00 AM 14.42 57.956 0.224 7.85 3889 0.01
4/28/2023 3:30:00 AM 14.33 57.794 0.224 7.86 4106 0.01
4/28/2023 3:45:00 AM 14.33 57.794 0.226 7.83 4210 0.01
4/28/2023 4:00:00 AM 14.33 57.794 0.226 7.81 4226 0.01
4/28/2023 4:15:00 AM 14.32 57.776 0.226 7.8 4264 0.01
4/28/2023 4:30:00 AM 14.28 57.704 0.226 7.79 4299 0.01
4/28/2023 4:45:00 AM 14.26 57.668 0.226 7.79 4272 0.01
4/28/2023 5:00:00 AM 14.23 57.614 0.225 7.79 4267 0.01
4/28/2023 5:15:00 AM 14.17 57.506 0.228 7.79 4268 0.01
4/28/2023 5:30:00 AM 14.17 57.506 0.225 7.74 4210 0.01
4/28/2023 5:45:00 AM 14.13 57.434 0.225 7.76 4241 0.01
4/28/2023 6:00:00 AM 14.08 57.344 0.225 7.75 4237 0.01
4/28/2023 6:15:00 AM 14.04 57.272 0.227 7.74 4204 0.01
4/28/2023 6:30:00 AM 14 57.2 0.229 7.76 4194 0.01
4/28/2023 6:45:00 AM 13.98 57.164 0.228 7.73 4264 0.01
4/28/2023 7:00:00 AM 13.95 57.11 0.23 7.74 4295 0.01
4/28/2023 7:15:00 AM 13.93 57.074 0.228 7.72 4368 0.01
4/28/2023 7:30:00 AM 13.9 57.02 0.228 7.74 4404 0.01
4/28/2023 7:45:00 AM 13.87 56.966 0.23 7.71 4446 0.01
4/28/2023 8:00:00 AM 13.85 56.93 0.226 7.73 4528 0.01
4/28/2023 8:15:00 AM 13.82 56.876 0.226 7.76 4558 0.01
4/28/2023 8:30:00 AM 13.79 56.822 0.226 7.75 4602 0.01
4/28/2023 8:45:00 AM 13.76 56.768 0.23 7.74 4474 0.01
4/28/2023 9:00:00 AM 13.74 56.732 0.232 7.72 4562 0.01
4/28/2023 9:15:00 AM 13.71 56.678 0.229 7.69 4714 0.01
4/28/2023 9:30:00 AM 13.68 56.624 0.231 7.72 4758 0.01
4/28/2023 9:45:00 AM 13.66 56.588 0.229 7.74 4699 0.01
4/28/2023 10:00:00 AM 13.63 56.534 0.23 7.74 4696 0.01
4/28/2023 10:15:00 AM 13.61 56.498 0.229 7.74 4963 0.01
4/28/2023 10:30:00 AM 13.58 56.444 0.23 7.74 4876 0.01
4/28/2023 10:45:00 AM 13.57 56.426 0.229 7.75 4653 0.01
4/28/2023 11:00:00 AM 13.54 56.372 0.227 7.78 4556 0.01
4/28/2023 11:15:00 AM 13.54 56.372 0.228 7.78 4382 0.01
4/28/2023 11:30:00 AM 13.52 56.336 0.226 7.78 4206 0.01
4/28/2023 11:45:00 AM 13.51 56.318 0.227 7.81 4151 0.01
4/28/2023 12:00:00 PM 13.5 56.3 0.226 7.82 4132 0.01
4/28/2023 12:15:00 PM 13.49 56.282 0.226 7.84 4094 0.01
4/28/2023 12:30:00 PM 13.48 56.264 0.227 7.86 4050 0.01
4/28/2023 12:45:00 PM 13.48 56.264 0.229 7.84 3947 0.01
4/28/2023 1:00:00 PM 13.48 56.264 0.228 7.85 3997 0.01
4/28/2023 1:15:00 PM 13.48 56.264 0.23 7.88 4104 0.01
4/28/2023 1:30:00 PM 13.48 56.264 0.23 7.9 4120 0.01
4/28/2023 1:45:00 PM 13.48 56.264 0.227 7.92 4111 0.01
4/28/2023 2:00:00 PM 13.48 56.264 0.228 7.93 4226 0.01
4/28/2023 2:15:00 PM 13.49 56.282 0.227 7.95 4300 0.01
4/28/2023 2:30:00 PM 13.5 56.3 0.223 7.98 4285 0.01
4/28/2023 2:45:00 PM 13.49 56.282 0.224 7.99 4259 0.01
4/28/2023 3:00:00 PM 13.5 56.3 0.224 8.01 4224 0.02
4/28/2023 3:15:00 PM 13.48 56.264 0.224 8.04 4185 0.01
4/28/2023 3:30:00 PM 13.47 56.246 0.227 8.07 4194 0.01
4/28/2023 3:45:00 PM 13.47 56.246 0.223 8.08 4244 0.01
4/28/2023 4:00:00 PM 13.45 56.21 0.223 8.1 4246 0.01
4/28/2023 4:15:00 PM 13.43 56.174 0.225 8.09 4315 0.01
4/28/2023 4:30:00 PM 13.4 56.12 0.225 8.07 4312 0.01
4/28/2023 4:45:00 PM 13.39 56.102 0.226 8.09 4363 0.01
4/28/2023 5:00:00 PM 13.37 56.066 0.226 8.09 4323 0.01
4/28/2023 5:15:00 PM 13.36 56.048 0.226 8.11 4276 0.01
4/28/2023 5:30:00 PM 13.34 56.012 0.229 8.08 3990 0.01
4/28/2023 5:45:00 PM 13.31 55.958 0.225 8.09 3684 0.01
4/28/2023 6:00:00 PM 13.3 55.94 0.229 8.09 3577 0.01
4/28/2023 6:15:00 PM 13.27 55.886 0.224 8.07 3534 0.01
4/28/2023 6:30:00 PM 13.26 55.868 0.227 8.07 3435 0.01
4/28/2023 6:45:00 PM 13.22 55.796 0.224 8.05 3329 0.01
4/28/2023 7:00:00 PM 13.19 55.742 0.228 8.05 3378 0.01
4/28/2023 7:15:00 PM 13.09 55.562 0.221 8.05 3390 0.01
4/28/2023 7:30:00 PM 13.12 55.616 0.225 8.03 3465 0.01
4/28/2023 7:45:00 PM 13.02 55.436 0.223 8.02 3694 0.01
4/28/2023 8:00:00 PM 13.01 55.418 0.224 7.98 3678 0.01
4/28/2023 8:15:00 PM 12.99 55.382 0.223 7.96 3649 0.01
4/28/2023 8:30:00 PM 12.95 55.31 0.224 7.94 3663 0.01
4/28/2023 8:45:00 PM 12.91 55.238 0.224 7.92 2727 0.01
4/28/2023 9:00:00 PM 12.9 55.22 0.225 7.92 2630 0.01
4/28/2023 9:15:00 PM 12.88 55.184 0.23 7.91 2388 0.01
4/28/2023 9:30:00 PM 12.84 55.112 0.23 7.89 2413 0.01
4/28/2023 9:45:00 PM 12.83 55.094 0.231 7.85 2251 0.02
4/28/2023 10:00:00 PM 12.81 55.058 0.227 7.85 2278 0.01
4/28/2023 10:15:00 PM 12.79 55.022 0.226 7.85 2356 0.01
4/28/2023 10:30:00 PM 12.78 55.004 0.224 7.83 2367 0.01
4/28/2023 10:45:00 PM 12.75 54.95 0.226 7.8 2378 0.01
4/28/2023 11:00:00 PM 12.74 54.932 0.221 7.81 2362 0.01
4/28/2023 11:15:00 PM 12.68 54.824 0.22 7.81 2354 0.01
4/28/2023 11:30:00 PM 12.61 54.698 0.221 7.82 2369 0.01
4/28/2023 11:45:00 PM 12.59 54.662 0.226 7.81 2374 0.01
4/29/2023 12:00:00 AM 12.56 54.608 0.223 7.79 2396 0.02
4/29/2023 12:15:00 AM 12.55 54.59 0.223 7.78 2390 0.01
4/29/2023 12:30:00 AM 12.55 54.59 0.223 7.78 2396 0.01
4/29/2023 12:45:00 AM 12.52 54.536 0.22 7.77 2451 0.01
4/29/2023 1:00:00 AM 12.5 54.5 0.218 7.78 2450 0.01
4/29/2023 1:15:00 AM 12.49 54.482 0.218 7.77 2459 0.01
4/29/2023 1:30:00 AM 12.46 54.428 0.218 7.76 2475 0.01
4/29/2023 1:45:00 AM 12.46 54.428 0.219 7.75 2496 0.01
4/29/2023 2:00:00 AM 12.44 54.392 0.219 7.75 2485 0.01
4/29/2023 2:15:00 AM 12.43 54.374 0.216 7.75 2471 0.01
4/29/2023 2:30:00 AM 12.4 54.32 0.215 7.75 2565 0.01
4/29/2023 2:45:00 AM 12.37 54.266 0.214 7.75 2580 0.01
4/29/2023 3:00:00 AM 12.36 54.248 0.213 7.74 2589 0.01
4/29/2023 3:15:00 AM 12.35 54.23 0.212 7.72 2591 0.01
4/29/2023 3:30:00 AM 12.32 54.176 0.215 7.7 2570 0.01
4/29/2023 3:45:00 AM 12.29 54.122 0.212 7.71 2571 0.01
4/29/2023 4:00:00 AM 12.27 54.086 0.214 7.7 2581 0.01
4/29/2023 4:15:00 AM 12.24 54.032 0.215 7.65 2589 0.01
4/29/2023 4:30:00 AM 12.23 54.014 0.216 7.62 2564 0.01
4/29/2023 4:45:00 AM 12.21 53.978 0.216 7.66 2585 0.01
4/29/2023 5:00:00 AM 12.18 53.924 0.216 7.67 2597 0.01
4/29/2023 5:15:00 AM 12.17 53.906 0.218 7.66 2618 0.01
4/29/2023 5:30:00 AM 12.15 53.87 0.217 7.61 2621 0.01
4/29/2023 5:45:00 AM 12.15 53.87 0.218 7.58 2572 0.02
4/29/2023 6:00:00 AM 12.13 53.834 0.216 7.57 2600 0.02
4/29/2023 6:15:00 AM 12.11 53.798 0.22 7.55 2582 0.02
4/29/2023 6:30:00 AM 12.09 53.762 0.221 7.54 2580 0.03
4/29/2023 6:45:00 AM 12.09 53.762 0.227 7.53 2596 0.03
4/29/2023 7:00:00 AM 12.08 53.744 0.225 7.53 2618 0.02
4/29/2023 7:15:00 AM 12.07 53.726 0.232 7.53 2635 0.02
4/29/2023 7:30:00 AM 12.07 53.726 0.24 7.51 2618 0.01
4/29/2023 7:45:00 AM 12.06 53.708 0.237 7.53 2599 0.02
4/29/2023 8:00:00 AM 12 53.6 0.218 7.53 2606 0.02
4/29/2023 8:15:00 AM 11.95 53.51 0.217 7.53 2595 0.02
4/29/2023 8:30:00 AM 11.97 53.546 0.216 7.53 2595 0.02
4/29/2023 8:45:00 AM 11.99 53.582 0.222 7.52 2597 0.01
4/29/2023 9:00:00 AM 11.93 53.474 0.212 7.59 2607 0.01
4/29/2023 9:15:00 AM 11.93 53.474 0.209 7.66 2586 0.01
4/29/2023 9:30:00 AM 11.93 53.474 0.211 7.69 2585 0.02
4/29/2023 9:45:00 AM 11.95 53.51 0.213 7.68 2592 0.01
4/29/2023 10:00:00 AM 11.96 53.528 0.214 7.68 2604 0.02
4/29/2023 10:15:00 AM 11.99 53.582 0.212 7.67 2592 0.01
4/29/2023 10:30:00 AM 11.99 53.582 0.215 7.68 2592 0.01
4/29/2023 10:45:00 AM 12 53.6 0.21 7.71 2550 0.01
4/29/2023 11:00:00 AM 12.02 53.636 0.205 7.72 2499 0.01
4/29/2023 11:15:00 AM 12.05 53.69 0.207 7.72 2554 0.01
4/29/2023 11:30:00 AM 12.08 53.744 0.204 7.72 2430 0.01
4/29/2023 11:45:00 AM 12.11 53.798 0.202 7.73 2402 0.01
4/29/2023 12:00:00 PM 12.15 53.87 0.203 7.74 2247 0.01
4/29/2023 12:15:00 PM 12.18 53.924 0.205 7.76 2255 0.01
4/29/2023 12:30:00 PM 12.22 53.996 0.204 7.76 2250 0.01
4/29/2023 12:45:00 PM 12.26 54.068 0.202 7.76 1784 0.01
4/29/2023 1:00:00 PM 12.28 54.104 0.2 7.77 1819 0.01
4/29/2023 1:15:00 PM 12.31 54.158 0.199 7.78 1738 0.01
4/29/2023 1:30:00 PM 12.33 54.194 0.196 7.8 1492 0.01
4/29/2023 1:45:00 PM 12.36 54.248 0.195 7.8 1626 0.01
4/29/2023 2:00:00 PM 12.4 54.32 0.195 7.8 1608 0.01
4/29/2023 2:15:00 PM 12.42 54.356 0.192 7.82 1601 0.01
4/29/2023 2:30:00 PM 12.43 54.374 0.193 7.81 1343 0.01
4/29/2023 2:45:00 PM 12.45 54.41 0.192 7.82 1347 0.01
4/29/2023 3:00:00 PM 12.46 54.428 0.208 7.83 1088 0.01
4/29/2023 3:15:00 PM 12.49 54.482 0.205 7.84 1083 0.01
4/29/2023 3:30:00 PM 12.51 54.518 0.193 7.82 1075 0.01
4/29/2023 3:45:00 PM 12.55 54.59 0.192 7.81 1086 0.01
4/29/2023 4:00:00 PM 12.59 54.662 0.188 7.81 1224 0.01
4/29/2023 4:15:00 PM 12.63 54.734 0.182 7.82 1360 0.01
4/29/2023 4:30:00 PM 12.67 54.806 0.179 7.83 1365 0.01
4/29/2023 4:45:00 PM 12.72 54.896 0.178 7.84 1303 0.01
4/29/2023 5:00:00 PM 12.72 54.896 0.177 7.84 1372 0.01
4/29/2023 5:15:00 PM 12.83 55.094 0.175 7.85 1236 0.01
4/29/2023 5:30:00 PM 12.85 55.13 0.175 7.85 1237 0.01
4/29/2023 5:45:00 PM 12.87 55.166 0.174 7.86 994.5 0.01
4/29/2023 6:00:00 PM 12.87 55.166 0.175 7.85 903.6 0.01
4/29/2023 6:15:00 PM 12.86 55.148 0.175 7.85 918.7 0.01
4/29/2023 6:30:00 PM 12.84 55.112 0.179 7.84 911.2 0.01
4/29/2023 6:45:00 PM 12.84 55.112 0.173 7.83 884.2 0.01
4/29/2023 7:00:00 PM 12.85 55.13 0.164 7.81 882.7 0.01
4/29/2023 7:15:00 PM 12.84 55.112 0.168 7.79 870 0.01
4/29/2023 7:30:00 PM 12.83 55.094 0.166 7.8 869.5 0.01
4/29/2023 7:45:00 PM 12.82 55.076 0.163 7.78 877.6 0.01
4/29/2023 8:00:00 PM 12.79 55.022 0.174 7.72 900.5 0.01
4/29/2023 8:15:00 PM 12.78 55.004 0.166 7.72 906.8 0.01
4/29/2023 8:30:00 PM 12.76 54.968 0.163 7.68 898.7 0.01
4/29/2023 8:45:00 PM 12.75 54.95 0.161 7.62 899.3 0.01
4/29/2023 9:00:00 PM 12.74 54.932 0.16 7.5 898.3 0.01
4/29/2023 9:15:00 PM 12.74 54.932 0.178 7.45 884.4 0.01
4/29/2023 9:30:00 PM 12.73 54.914 0.174 7.38 934.7 0.01
4/29/2023 9:45:00 PM 12.72 54.896 0.184 7.35 948.2 0.01
4/29/2023 10:00:00 PM 12.72 54.896 0.173 7.44 954.3 0.01
4/29/2023 10:15:00 PM 12.71 54.878 0.169 7.5 963.3 0.01
4/29/2023 10:30:00 PM 12.7 54.86 0.18 7.48 817 0.01
4/29/2023 10:45:00 PM 12.69 54.842 0.185 7.46 812.8 0.01
4/29/2023 11:00:00 PM 12.68 54.824 0.175 7.48 807.6 0.01
4/29/2023 11:15:00 PM 12.68 54.824 0.172 7.46 795.5 0.01
4/29/2023 11:30:00 PM 12.67 54.806 0.17 7.49 768.3 0.01
4/29/2023 11:45:00 PM 12.67 54.806 0.171 7.49 771.8 0.01
4/30/2023 12:00:00 AM 12.67 54.806 0.164 7.47 760.8 0.01
4/30/2023 12:15:00 AM 12.67 54.806 0.169 7.45 666.9 0.01
4/30/2023 12:30:00 AM 12.67 54.806 0.167 7.44 558.9 0.01
4/30/2023 12:45:00 AM 12.67 54.806 0.172 7.42 502.9 0.01
4/30/2023 1:00:00 AM 12.67 54.806 0.174 7.42 177 0.01
4/30/2023 1:15:00 AM 12.67 54.806 0.155 7.39 173.8 0.01
4/30/2023 1:30:00 AM 12.66 54.788 0.162 7.44 151.9 0.01
4/30/2023 1:45:00 AM 12.66 54.788 0.151 7.46 187.3 0.01
4/30/2023 2:00:00 AM 12.66 54.788 0.161 7.43 178.2 0.01
4/30/2023 2:15:00 AM 12.66 54.788 0.162 7.43 182.7 0.01
4/30/2023 2:30:00 AM 12.65 54.77 0.167 7.41 153.2 0.01
4/30/2023 2:45:00 AM 12.65 54.77 0.16 7.43 148.5 0.01
4/30/2023 3:00:00 AM 12.64 54.752 0.164 7.37 128.7 0.01
4/30/2023 3:15:00 AM 12.64 54.752 0.157 7.4 111.8 0.01
4/30/2023 3:30:00 AM 12.64 54.752 0.157 7.42 110.6 0.01
4/30/2023 3:45:00 AM 12.63 54.734 0.163 7.4 107.4 0.01
4/30/2023 4:00:00 AM 12.63 54.734 0.167 7.36 108.6 0.01
4/30/2023 4:15:00 AM 12.63 54.734 0.157 7.39 105.7 0.01
4/30/2023 4:30:00 AM 12.62 54.716 0.155 7.45 835.7 0.01
4/30/2023 4:45:00 AM 12.61 54.698 0.16 7.46 779.8 0.01
4/30/2023 5:00:00 AM 12.6 54.68 0.157 7.43 774.7 0.01
4/30/2023 5:15:00 AM 12.59 54.662 0.163 7.36 781.6 0.01
4/30/2023 5:30:00 AM 12.58 54.644 0.157 7.35 777.4 0.01
4/30/2023 5:45:00 AM 12.57 54.626 0.158 7.34 774.9 0.01
4/30/2023 6:00:00 AM 12.57 54.626 0.159 7.33 789.1 0.01
4/30/2023 6:15:00 AM 12.56 54.608 0.16 7.32 810.3 0.01
4/30/2023 6:30:00 AM 12.56 54.608 0.162 7.32 802.7 0.01
4/30/2023 6:45:00 AM 12.55 54.59 0.168 7.31 810.1 0.01
4/30/2023 7:00:00 AM 12.55 54.59 0.171 7.29 812.6 0.01
4/30/2023 7:15:00 AM 12.55 54.59 0.173 7.26 811.1 0.01
4/30/2023 7:30:00 AM 12.54 54.572 0.177 7.24 810.9 0.01
4/30/2023 7:45:00 AM 12.54 54.572 0.168 7.22 808.1 0.01
4/30/2023 8:00:00 AM 12.53 54.554 0.168 7.21 809.5 0.01
4/30/2023 8:15:00 AM 12.52 54.536 0.176 7.22 807.3 0.01
4/30/2023 8:30:00 AM 12.51 54.518 0.18 7.23 809.8 0.01
4/30/2023 8:45:00 AM 12.5 54.5 0.169 7.24 810.3 0.01
4/30/2023 9:00:00 AM 12.48 54.464 0.17 7.25 815.7 0.01
4/30/2023 9:15:00 AM 12.43 54.374 0.141 7.38 788.9 0.01
4/30/2023 9:30:00 AM 12.36 54.248 0.132 7.43 789.4 0.01
4/30/2023 9:45:00 AM 12.31 54.158 0.127 7.43 782.8 0.01
4/30/2023 10:00:00 AM 12.28 54.104 0.127 7.44 785 0.01
4/30/2023 10:15:00 AM 12.27 54.086 0.125 7.42 795.8 0.01
4/30/2023 10:30:00 AM 12.26 54.068 0.116 7.42 796.7 0.01
4/30/2023 10:45:00 AM 12.25 54.05 0.123 7.41 803.6 0.01
4/30/2023 11:00:00 AM 12.24 54.032 0.12 7.42 790.2 0.01
4/30/2023 11:15:00 AM 12.23 54.014 0.121 7.41 780.4 0.01
4/30/2023 11:30:00 AM 12.22 53.996 0.111 7.4 798.5 0.01
4/30/2023 11:45:00 AM 12.21 53.978 0.118 7.4 811.5 0.01
4/30/2023 12:00:00 PM 12.21 53.978 0.122 7.36 803.5 0.01
4/30/2023 12:15:00 PM 12.2 53.96 0.122 7.37 798.2 0.02
4/30/2023 12:30:00 PM 12.2 53.96 0.121 7.37 782.6 0.01
4/30/2023 12:45:00 PM 12.19 53.942 0.12 7.36 784.8 0.01
4/30/2023 1:00:00 PM 12.17 53.906 0.121 7.37 783.4 0.01
4/30/2023 1:15:00 PM 12.16 53.888 0.12 7.37 787.2 0.01
4/30/2023 1:30:00 PM 12.17 53.906 0.123 7.38 778.1 0.01
4/30/2023 1:45:00 PM 12.16 53.888 0.123 7.37 791.7 0.01
4/30/2023 2:00:00 PM 12.16 53.888 0.123 7.38 825.7 0.01
4/30/2023 2:15:00 PM 12.18 53.924 0.124 7.37 837.2 0.01
4/30/2023 2:30:00 PM 12.19 53.942 0.123 7.37 839 0.01
4/30/2023 2:45:00 PM 12.19 53.942 0.123 7.36 890.6 0.01
4/30/2023 3:00:00 PM 12.19 53.942 0.127 7.35 891 0.01
4/30/2023 3:15:00 PM 12.19 53.942 0.128 7.35 907.8 0.01
4/30/2023 3:30:00 PM 12.21 53.978 0.132 7.35 924.7 0.01
4/30/2023 3:45:00 PM 12.22 53.996 0.128 7.34 953.9 0.01
4/30/2023 4:00:00 PM 12.24 54.032 0.124 7.33 975.9 0.01
4/30/2023 4:15:00 PM 12.25 54.05 0.127 7.32 987 0.01
4/30/2023 4:30:00 PM 12.27 54.086 0.132 7.3 996.5 0.01
4/30/2023 4:45:00 PM 12.28 54.104 0.133 7.29 998.5 0.01
4/30/2023 5:00:00 PM 12.28 54.104 0.141 7.26 1058 0.01
4/30/2023 5:15:00 PM 12.29 54.122 0.143 7.25 1059 0.01
4/30/2023 5:30:00 PM 12.3 54.14 0.143 7.25 1046 0.01
4/30/2023 5:45:00 PM 12.31 54.158 0.147 7.27 1056 0.01
4/30/2023 6:00:00 PM 12.32 54.176 0.137 7.26 1054 0.01
4/30/2023 6:15:00 PM 12.33 54.194 0.125 7.26 1060 0.01
4/30/2023 6:30:00 PM 12.34 54.212 0.123 7.27 1068 0.01
4/30/2023 6:45:00 PM 12.35 54.23 0.122 7.28 1074 0.01
4/30/2023 7:00:00 PM 12.36 54.248 0.123 7.28 1072 0.01
4/30/2023 7:15:00 PM 12.37 54.266 0.124 7.27 1047 0.01
4/30/2023 7:30:00 PM 12.37 54.266 0.123 7.27 830.7 0.01
4/30/2023 7:45:00 PM 12.37 54.266 0.121 7.26 1104 0.01
4/30/2023 8:00:00 PM 12.37 54.266 0.117 7.25 1154 0.01
4/30/2023 8:15:00 PM 12.37 54.266 0.121 7.27 1131 0.01
4/30/2023 8:30:00 PM 12.37 54.266 0.122 7.27 1130 0.01
4/30/2023 8:45:00 PM 12.37 54.266 0.117 7.27 1121 0.01
4/30/2023 9:00:00 PM 12.37 54.266 0.118 7.25 1115 0.01
4/30/2023 9:15:00 PM 12.37 54.266 0.113 7.26 1133 0.01
4/30/2023 9:30:00 PM 12.36 54.248 0.118 7.25 1140 0.01
4/30/2023 9:45:00 PM 12.36 54.248 0.118 7.25 1144 0.01
4/30/2023 10:00:00 PM 12.36 54.248 0.12 7.25 1153 0.01
4/30/2023 10:15:00 PM 12.35 54.23 0.12 7.24 1157 0.01
4/30/2023 10:30:00 PM 12.34 54.212 0.119 7.25 1152 0.01
4/30/2023 10:45:00 PM 12.33 54.194 0.116 7.24 1147 0.01
4/30/2023 11:00:00 PM 12.32 54.176 0.115 7.24 1147 0.01
4/30/2023 11:15:00 PM 12.31 54.158 0.117 7.24 1146 0.01
4/30/2023 11:30:00 PM 12.3 54.14 0.118 7.23 1154 0.01
4/30/2023 11:45:00 PM 12.29 54.122 0.109 7.22 1165 0.01
5/1/2023 12:00:00 AM 12.27 54.086 0.11 7.22 1166 0.01
5/1/2023 12:15:00 AM 12.25 54.05 0.112 7.22 1181 0.01
5/1/2023 12:30:00 AM 12.23 54.014 0.113 7.22 1215 0.01
5/1/2023 12:45:00 AM 12.21 53.978 0.113 7.21 1204 0.01
5/1/2023 1:00:00 AM 12.2 53.96 0.113 7.2 1249 0.01
5/1/2023 1:15:00 AM 12.18 53.924 0.112 7.2 1318 0.01
5/1/2023 1:30:00 AM 12.16 53.888 0.109 7.2 1356 0.01
5/1/2023 1:45:00 AM 12.12 53.816 0.109 7.19 1378 0.01
5/1/2023 2:00:00 AM 12.09 53.762 0.112 7.23 1393 0.01
5/1/2023 2:15:00 AM 12.06 53.708 0.111 7.23 1406 0.01
5/1/2023 2:30:00 AM 12.04 53.672 0.113 7.23 1431 0.01
5/1/2023 2:45:00 AM 12 53.6 0.113 7.24 1458 0.01
5/1/2023 3:00:00 AM 11.97 53.546 0.109 7.23 1469 0.01
5/1/2023 3:15:00 AM 11.93 53.474 0.113 7.23 1477 0.01
5/1/2023 3:30:00 AM 11.91 53.438 0.106 7.23 1499 0.01
5/1/2023 3:45:00 AM 11.86 53.348 0.107 7.22 1507 0.01
5/1/2023 4:00:00 AM 11.87 53.366 0.106 7.23 1515 0.01
5/1/2023 4:15:00 AM 11.86 53.348 0.105 7.23 1525 0.01
5/1/2023 4:30:00 AM 11.83 53.294 0.104 7.22 1531 0.01
5/1/2023 4:45:00 AM 11.8 53.24 0.104 7.23 1550 0.01
5/1/2023 5:00:00 AM 11.79 53.222 0.104 7.23 1544 0.01
5/1/2023 5:15:00 AM 11.78 53.204 0.104 7.23 1548 0.01
5/1/2023 5:30:00 AM 11.75 53.15 0.104 7.24 1560 0.01
5/1/2023 5:45:00 AM 11.72 53.096 0.104 7.23 1577 0.02
5/1/2023 6:00:00 AM 11.69 53.042 0.114 7.24 1585 0.01
5/1/2023 6:15:00 AM 11.65 52.97 0.109 7.24 1618 0.01
5/1/2023 6:30:00 AM 11.64 52.952 0.111 7.25 1615 0.01
5/1/2023 6:45:00 AM 11.62 52.916 0.108 7.25 1619 0.02
5/1/2023 7:00:00 AM 11.59 52.862 0.117 7.25 1611 0.01
5/1/2023 7:15:00 AM 11.58 52.844 0.116 7.25 1624 0.01
5/1/2023 7:30:00 AM 11.55 52.79 0.124 7.26 1632 0.01
5/1/2023 7:45:00 AM 11.55 52.79 0.121 7.26 1637 0.01
5/1/2023 8:00:00 AM 11.54 52.772 0.13 7.25 1639 0.02
5/1/2023 8:15:00 AM 11.52 52.736 0.136 7.25 1629 0.01
5/1/2023 8:30:00 AM 11.5 52.7 0.14 7.25 1634 0.02
5/1/2023 8:45:00 AM 11.49 52.682 0.137 7.25 1638 0.01
5/1/2023 9:00:00 AM 11.48 52.664 0.135 7.25 1639 0.01
5/1/2023 9:15:00 AM 11.47 52.646 0.137 7.24 1656 0.01
5/1/2023 9:30:00 AM 11.46 52.628 0.135 7.24 1702 0.01
5/1/2023 9:45:00 AM 11.46 52.628 0.137 7.19 1702 0.01
5/1/2023 10:00:00 AM 11.43 52.574 0.144 7.22 1710 0.01
5/1/2023 10:15:00 AM 11.43 52.574 0.146 7.22 1712 0.01
5/1/2023 10:30:00 AM 11.46 52.628 0.148 7.23 1714 0.01
5/1/2023 10:45:00 AM 11.49 52.682 0.149 7.23 1721 0.02
5/1/2023 11:00:00 AM 11.51 52.718 0.146 7.24 1717 0.01
5/1/2023 11:15:00 AM 11.53 52.754 0.147 7.21 1725 0.01
5/1/2023 11:30:00 AM 11.55 52.79 0.145 7.23 1730 0.01
5/1/2023 11:45:00 AM 11.56 52.808 0.134 7.23 1725 0.02
5/1/2023 12:00:00 PM 11.58 52.844 0.122 7.21 1751 0.01
5/1/2023 12:15:00 PM 11.59 52.862 0.128 7.18 1821 0.01
5/1/2023 12:30:00 PM 11.6 52.88 0.124 7.16 1848 0.01
5/1/2023 12:45:00 PM 11.6 52.88 0.123 7.18 1813 0.01
5/1/2023 1:00:00 PM 11.62 52.916 0.123 7.19 1860 0.01
5/1/2023 1:15:00 PM 11.63 52.934 0.117 7.2 1866 0.01
5/1/2023 1:30:00 PM 11.64 52.952 0.113 7.2 1848 0.01
5/1/2023 1:45:00 PM 11.65 52.97 0.115 7.18 1838 0.02
5/1/2023 2:00:00 PM 11.66 52.988 0.122 7.16 1877 0.02
5/1/2023 2:15:00 PM 11.66 52.988 0.124 7.12 1858 0.01
5/1/2023 2:30:00 PM 11.67 53.006 0.127 7.04 1868 0.01
5/1/2023 2:45:00 PM 11.69 53.042 0.144 7.1 1862 0.01
5/1/2023 3:00:00 PM 11.7 53.06 0.154 7.03 1868 0.01
5/1/2023 3:15:00 PM 11.71 53.078 0.158 7.06 1865 0.02
5/1/2023 3:30:00 PM 11.71 53.078 0.164 7.09 1866 0.01
5/1/2023 3:45:00 PM 11.71 53.078 0.167 7.11 1849 0.01
5/1/2023 4:00:00 PM 11.72 53.096 0.174 7.11 1837 0.01
5/1/2023 4:15:00 PM 11.71 53.078 0.17 7.14 1827 0.02
5/1/2023 4:30:00 PM 11.72 53.096 0.163 7.17 1806 0.01
5/1/2023 4:45:00 PM 11.73 53.114 0.157 7.16 1799 0.01
5/1/2023 5:00:00 PM 11.74 53.132 0.158 7.09 1803 0.01
5/1/2023 5:15:00 PM 11.76 53.168 0.148 7.06 1799 0.01
5/1/2023 5:30:00 PM 11.77 53.186 0.155 7.09 1804 0.01
5/1/2023 5:45:00 PM 11.8 53.24 0.153 7.11 1799 0.01
5/1/2023 6:00:00 PM 11.83 53.294 0.142 7.13 1781 0.02
5/1/2023 6:15:00 PM 11.9 53.42 0.134 7.16 1781 0.01
5/1/2023 6:30:00 PM 11.91 53.438 0.128 7.16 1790 0.01
5/1/2023 6:45:00 PM 11.91 53.438 0.13 7.18 1784 0.01
5/1/2023 7:00:00 PM 11.91 53.438 0.129 7.16 1766 0.01
5/1/2023 7:15:00 PM 11.91 53.438 0.125 7.17 1764 0.01
5/1/2023 7:30:00 PM 11.93 53.474 0.126 7.18 1755 0.01
5/1/2023 7:45:00 PM 11.94 53.492 0.121 7.18 1747 0.01
5/1/2023 8:00:00 PM 11.93 53.474 0.127 7.19 1743 0.01
5/1/2023 8:15:00 PM 11.93 53.474 0.13 7.17 1734 0.01
5/1/2023 8:30:00 PM 11.93 53.474 0.129 7.18 1742 0.01
5/1/2023 8:45:00 PM 11.93 53.474 0.134 7.19 1732 0.01
5/1/2023 9:00:00 PM 11.92 53.456 0.133 7.18 1737 0.01
5/1/2023 9:15:00 PM 11.91 53.438 0.13 7.13 1736 0.01
5/1/2023 9:30:00 PM 11.9 53.42 0.126 7.15 1726 0.01
5/1/2023 9:45:00 PM 11.87 53.366 0.127 7.13 1736 0.01
5/1/2023 10:00:00 PM 11.87 53.366 0.131 7.15 1717 0.01
5/1/2023 10:15:00 PM 11.87 53.366 0.129 7.16 1718 0.01
5/1/2023 10:30:00 PM 11.87 53.366 0.128 7.2 1729 0.01
5/1/2023 10:45:00 PM 11.87 53.366 0.125 7.23 1719 0.01
5/1/2023 11:00:00 PM 11.86 53.348 0.124 7.2 1719 0.01
5/1/2023 11:15:00 PM 11.84 53.312 0.127 7.26 1704 0.01
5/1/2023 11:30:00 PM 11.82 53.276 0.129 7.22 1702 0.01
5/1/2023 11:45:00 PM 11.79 53.222 0.131 7.21 1690 0.01
5/2/2023 12:00:00 AM 11.8 53.24 0.13 7.24 1692 0.01
5/2/2023 12:15:00 AM 11.8 53.24 0.128 7.27 1680 0.01
5/2/2023 12:30:00 AM 11.78 53.204 0.125 7.25 1678 0.01
5/2/2023 12:45:00 AM 11.76 53.168 0.128 7.23 1682 0.01
5/2/2023 1:00:00 AM 11.76 53.168 0.13 7.24 1675 0.01
5/2/2023 1:15:00 AM 11.75 53.15 0.131 7.28 1662 0.01
5/2/2023 1:30:00 AM 11.74 53.132 0.133 7.19 1658 0.01
5/2/2023 1:45:00 AM 11.74 53.132 0.137 7.16 1650 0.01
5/2/2023 2:00:00 AM 11.73 53.114 0.137 7.09 1652 0.01
5/2/2023 2:15:00 AM 11.72 53.096 0.138 7.17 1645 0.01
5/2/2023 2:30:00 AM 11.71 53.078 0.143 7.09 1631 0.01
5/2/2023 2:45:00 AM 11.7 53.06 0.144 7.14 1623 0.01
5/2/2023 3:00:00 AM 11.7 53.06 0.145 7.13 1616 0.01
5/2/2023 3:15:00 AM 11.69 53.042 0.144 7.07 1609 0.01
5/2/2023 3:30:00 AM 11.68 53.024 0.142 7.15 1590 0.01
5/2/2023 3:45:00 AM 11.67 53.006 0.139 7.1 1587 0.01
5/2/2023 4:00:00 AM 11.66 52.988 0.139 7.14 1579 0.01
5/2/2023 4:15:00 AM 11.64 52.952 0.134 7.22 1538 0.01
5/2/2023 4:30:00 AM 11.63 52.934 0.135 7.19 1537 0.02
5/2/2023 4:45:00 AM 11.61 52.898 0.133 7.2 1520 0.01
5/2/2023 5:00:00 AM 11.6 52.88 0.139 7.22 1510 0.01
5/2/2023 5:15:00 AM 11.58 52.844 0.134 7.2 1502 0.02
5/2/2023 5:30:00 AM 11.57 52.826 0.141 7.11 1493 0.01
5/2/2023 5:45:00 AM 11.56 52.808 0.147 7.08 1500 0.01
5/2/2023 6:00:00 AM 11.56 52.808 0.151 7.13 1479 0.01
5/2/2023 6:15:00 AM 11.54 52.772 0.152 7.13 1466 0.01
5/2/2023 6:30:00 AM 11.54 52.772 0.158 7.09 1459 0.01
5/2/2023 6:45:00 AM 11.52 52.736 0.161 7.1 1448 0.01
5/2/2023 7:00:00 AM 11.51 52.718 0.161 7.09 1439 0.01
5/2/2023 7:15:00 AM 11.5 52.7 0.167 7.1 1428 0.01
5/2/2023 7:30:00 AM 11.48 52.664 0.171 7.09 1423 0.01
5/2/2023 7:45:00 AM 11.47 52.646 0.17 7.12 1415 0.02
5/2/2023 8:00:00 AM 11.44 52.592 0.166 7.16 1409 0.02
5/2/2023 8:15:00 AM 11.43 52.574 0.166 7.14 1399 0.01
5/2/2023 8:30:00 AM 11.41 52.538 0.162 7.19 1396 0.02
5/2/2023 8:45:00 AM 11.39 52.502 0.161 7.17 1383 0.02
5/2/2023 9:00:00 AM 11.38 52.484 0.161 7.12 1376 0.01
5/2/2023 9:15:00 AM 11.37 52.466 0.16 7.12 1370 0.01
5/2/2023 9:30:00 AM 11.36 52.448 0.162 7.12 1366 0.01
5/2/2023 9:45:00 AM 11.36 52.448 0.164 7.12 1359 0.02
5/2/2023 10:00:00 AM 11.35 52.43 0.168 7.15 1350 0.01
5/2/2023 10:15:00 AM 11.34 52.412 0.169 7.18 1341 0.02
5/2/2023 10:30:00 AM 11.33 52.394 0.17 7.16 1333 0.01
5/2/2023 10:45:00 AM 11.33 52.394 0.173 7.16 1324 0.01
5/2/2023 11:00:00 AM 11.32 52.376 0.174 7.25 1303 0.02
5/2/2023 11:15:00 AM 11.32 52.376 0.179 7.15 1271 0.02
5/2/2023 11:30:00 AM 11.31 52.358 0.178 7.15 1266 0.01
5/2/2023 11:45:00 AM 11.31 52.358 0.179 7.19 1255 0.02
5/2/2023 12:00:00 PM 11.31 52.358 0.178 7.2 1246 0.01
5/2/2023 12:15:00 PM 11.32 52.376 0.179 7.21 1237 0.02
5/2/2023 12:30:00 PM 11.32 52.376 0.176 7.2 1238 0.02
5/2/2023 12:45:00 PM 11.32 52.376 0.175 7.21 1214 0.01
5/2/2023 1:00:00 PM 11.33 52.394 0.176 7.23 1218 0.01
5/2/2023 1:15:00 PM 11.33 52.394 0.178 7.22 1197 0.01
5/2/2023 1:30:00 PM 11.34 52.412 0.179 7.22 1191 0.01
5/2/2023 1:45:00 PM 11.35 52.43 0.176 7.26 1185 0.01
5/2/2023 2:00:00 PM 11.35 52.43 0.18 7.23 1177 0.01
5/2/2023 2:15:00 PM 11.36 52.448 0.181 7.21 1171 0.01
5/2/2023 2:30:00 PM 11.37 52.466 0.181 7.17 1161 0.01
5/2/2023 2:45:00 PM 11.38 52.484 0.182 7.16 1171 0.01
5/2/2023 3:00:00 PM 11.39 52.502 0.183 7.17 1148 0.02
5/2/2023 3:15:00 PM 11.4 52.52 0.182 7.17 1148 0.01
5/2/2023 3:30:00 PM 11.41 52.538 0.18 7.17 1133 0.02
5/2/2023 3:45:00 PM 11.42 52.556 0.184 7.17 1131 0.01
5/2/2023 4:00:00 PM 11.43 52.574 0.185 7.16 1124 0.01
5/2/2023 4:15:00 PM 11.44 52.592 0.184 7.19 1116 0.01
5/2/2023 4:30:00 PM 11.45 52.61 0.183 7.16 1109 0.01
5/2/2023 4:45:00 PM 11.46 52.628 0.186 7.18 1073 0.01
5/2/2023 5:00:00 PM 11.46 52.628 0.186 7.17 1026 0.01
5/2/2023 5:15:00 PM 11.47 52.646 0.186 7.18 1001 0.01
5/2/2023 5:30:00 PM 11.47 52.646 0.183 7.2 985.4 0.02
5/2/2023 5:45:00 PM 11.48 52.664 0.184 7.19 968.2 0.01
5/2/2023 6:00:00 PM 11.49 52.682 0.186 7.2 952.3 0.02
5/2/2023 6:15:00 PM 11.49 52.682 0.186 7.2 936.2 0.01
5/2/2023 6:30:00 PM 11.49 52.682 0.186 7.19 921.9 0.01
5/2/2023 6:45:00 PM 11.49 52.682 0.184 7.18 910.6 0.01
5/2/2023 7:00:00 PM 11.49 52.682 0.185 7.19 903 0.01
5/2/2023 7:15:00 PM 11.49 52.682 0.181 7.21 894.2 0.01
5/2/2023 7:30:00 PM 11.49 52.682 0.183 7.21 885.9 0.01
5/2/2023 7:45:00 PM 11.49 52.682 0.182 7.21 877.5 0.01
5/2/2023 8:00:00 PM 11.49 52.682 0.18 7.2 868.7 0.02
5/2/2023 8:15:00 PM 11.49 52.682 0.182 7.19 861.5 0.01
5/2/2023 8:30:00 PM 11.48 52.664 0.184 7.2 853.9 0.01
5/2/2023 8:45:00 PM 11.48 52.664 0.182 7.21 843.8 0.02
5/2/2023 9:00:00 PM 11.48 52.664 0.181 7.21 863.3 0.01
5/2/2023 9:15:00 PM 11.47 52.646 0.184 7.22 936.5 0.01
5/2/2023 9:30:00 PM 11.47 52.646 0.181 7.21 826.9 0.01
5/2/2023 9:45:00 PM 11.46 52.628 0.18 7.2 918.8 0.01
5/2/2023 10:00:00 PM 11.45 52.61 0.186 7.19 819.4 0.01
5/2/2023 10:15:00 PM 11.45 52.61 0.192 7.2 812.5 0.02
5/2/2023 10:30:00 PM 11.44 52.592 0.192 7.2 804.2 0.01
5/2/2023 10:45:00 PM 11.43 52.574 0.192 7.21 799.3 0.01
5/2/2023 11:00:00 PM 11.42 52.556 0.192 7.22 796.5 0.01
5/2/2023 11:15:00 PM 11.41 52.538 0.191 7.21 797.2 0.01
5/2/2023 11:30:00 PM 11.4 52.52 0.175 7.2 794.9 0.01
5/2/2023 11:45:00 PM 11.39 52.502 0.183 7.2 783.5 0.02
5/3/2023 12:00:00 AM 11.38 52.484 0.186 7.22 767.7 0.01
5/3/2023 12:15:00 AM 11.37 52.466 0.185 7.22 759.3 0.01
5/3/2023 12:30:00 AM 11.36 52.448 0.188 7.22 748.3 0.02
5/3/2023 12:45:00 AM 11.34 52.412 0.189 7.24 737.3 0.01
5/3/2023 1:00:00 AM 11.33 52.394 0.191 7.23 733.1 0.01
5/3/2023 1:15:00 AM 11.32 52.376 0.188 7.24 724.7 0.02
5/3/2023 1:30:00 AM 11.31 52.358 0.191 7.25 720.5 0.02
5/3/2023 1:45:00 AM 11.29 52.322 0.187 7.25 730.1 0.02
5/3/2023 2:00:00 AM 11.28 52.304 0.188 7.25 710.4 0.01
5/3/2023 2:15:00 AM 11.27 52.286 0.188 7.26 703.9 0.01
5/3/2023 2:30:00 AM 11.26 52.268 0.193 7.25 698.4 0.01
5/3/2023 2:45:00 AM 11.24 52.232 0.19 7.27 692.6 0.01
5/3/2023 3:00:00 AM 11.23 52.214 0.189 7.27 678.2 0.02
5/3/2023 3:15:00 AM 11.22 52.196 0.187 7.28 674.7 0.01
5/3/2023 3:30:00 AM 11.21 52.178 0.192 7.28 669.5 0.02
5/3/2023 3:45:00 AM 11.19 52.142 0.191 7.26 702.3 0.02
5/3/2023 4:00:00 AM 11.18 52.124 0.19 7.27 668.9 0.01
5/3/2023 4:15:00 AM 11.16 52.088 0.189 7.27 684.8 0.01
5/3/2023 4:30:00 AM 11.15 52.07 0.189 7.26 653.4 0.01
5/3/2023 4:45:00 AM 11.14 52.052 0.186 7.27 648.9 0.02
5/3/2023 5:00:00 AM 11.12 52.016 0.188 7.28 647.2 0.02
5/3/2023 5:15:00 AM 11.11 51.998 0.191 7.28 658.3 0.01
5/3/2023 5:30:00 AM 11.09 51.962 0.185 7.28 640.5 0.01
5/3/2023 5:45:00 AM 11.08 51.944 0.192 7.28 637.7 0.01
5/3/2023 6:00:00 AM 11.07 51.926 0.188 7.28 627.8 0.02
5/3/2023 6:15:00 AM 11.06 51.908 0.19 7.29 625.8 0.02
5/3/2023 6:30:00 AM 11.04 51.872 0.191 7.28 622.7 0.01
5/3/2023 6:45:00 AM 11.03 51.854 0.19 7.29 620.5 0.02
5/3/2023 7:00:00 AM 11.01 51.818 0.196 7.29 614.4 0.02
5/3/2023 7:15:00 AM 10.99 51.782 0.192 7.27 610.8 0.02
5/3/2023 7:30:00 AM 10.98 51.764 0.195 7.28 613 0.01
5/3/2023 7:45:00 AM 10.96 51.728 0.194 7.28 608.9 0.01
5/3/2023 8:00:00 AM 10.95 51.71 0.197 7.28 644.6 0.02
5/3/2023 8:15:00 AM 10.93 51.674 0.201 7.28 638.7 0.01
5/3/2023 8:30:00 AM 10.92 51.656 0.2 7.29 660 0.01
5/3/2023 8:45:00 AM 10.9 51.62 0.2 7.3 640.3 0.02
5/3/2023 9:00:00 AM 10.89 51.602 0.203 7.3 632 0.02
5/3/2023 9:15:00 AM 10.89 51.602 0.205 7.3 626.5 0.02
5/3/2023 9:30:00 AM 10.88 51.584 0.204 7.29 619.1 0.02
5/3/2023 9:45:00 AM 10.87 51.566 0.205 7.28 617.3 0.01
5/3/2023 10:00:00 AM 10.86 51.548 0.206 7.29 609.8 0.02
5/3/2023 10:15:00 AM 10.85 51.53 0.205 7.31 607.2 0.02
5/3/2023 10:30:00 AM 10.86 51.548 0.208 7.29 601.1 0.02
5/3/2023 10:45:00 AM 10.86 51.548 0.206 7.29 601.1 0.02
5/3/2023 11:00:00 AM 10.85 51.53 0.206 7.3 597.1 0.02
5/3/2023 11:15:00 AM 10.85 51.53 0.207 7.3 595.5 0.02
5/3/2023 11:30:00 AM 10.85 51.53 0.209 7.3 595.1 0.01
5/3/2023 11:45:00 AM 10.85 51.53 0.211 7.3 592.7 0.01
5/3/2023 12:00:00 PM 10.85 51.53 0.215 7.3 591 0.02
5/3/2023 12:15:00 PM 10.85 51.53 0.217 7.3 594.8 0.02
5/3/2023 12:30:00 PM 10.85 51.53 0.218 7.3 587.7 0.01
5/3/2023 12:45:00 PM 10.85 51.53 0.219 7.3 586.8 0.01
5/3/2023 1:00:00 PM 10.85 51.53 0.222 7.3 592.8 0.01
5/3/2023 1:15:00 PM 10.86 51.548 0.219 7.31 591.8 0.02
5/3/2023 1:30:00 PM 10.87 51.566 0.216 7.31 583.4 0.01
5/3/2023 1:45:00 PM 10.89 51.602 0.216 7.3 580.3 0.01
5/3/2023 2:00:00 PM 10.9 51.62 0.219 7.32 578.8 0.02
5/3/2023 2:15:00 PM 10.91 51.638 0.216 7.32 577.3 0.01
5/3/2023 2:30:00 PM 10.93 51.674 0.217 7.31 575.3 0.02
5/3/2023 2:45:00 PM 10.95 51.71 0.217 7.31 573.8 0.01
5/3/2023 3:00:00 PM 10.97 51.746 0.217 7.31 570.9 0.02
5/3/2023 3:15:00 PM 11 51.8 0.218 7.3 568.6 0.02
5/3/2023 3:30:00 PM 11.02 51.836 0.219 7.29 567.7 0.01
5/3/2023 3:45:00 PM 11.04 51.872 0.222 7.29 566.9 0.01
5/3/2023 4:00:00 PM 11.06 51.908 0.221 7.29 562.6 0.01
5/3/2023 4:15:00 PM 11.07 51.926 0.223 7.3 564.1 0.01
5/3/2023 4:30:00 PM 11.09 51.962 0.224 7.3 566.8 0.02
5/3/2023 4:45:00 PM 11.1 51.98 0.223 7.3 564.1 0.02
5/3/2023 5:00:00 PM 11.11 51.998 0.223 7.3 563.4 0.01
5/3/2023 5:15:00 PM 11.13 52.034 0.224 7.3 562.3 0.01
5/3/2023 5:30:00 PM 11.14 52.052 0.224 7.3 562 0.02
5/3/2023 5:45:00 PM 11.16 52.088 0.224 7.31 558.1 0.01
5/3/2023 6:00:00 PM 11.17 52.106 0.223 7.31 555.2 0.01
5/3/2023 6:15:00 PM 11.19 52.142 0.222 7.31 556.3 0.01
5/3/2023 6:30:00 PM 11.2 52.16 0.223 7.3 557.3 0.01
5/3/2023 6:45:00 PM 11.22 52.196 0.223 7.3 552.3 0.01
5/3/2023 7:00:00 PM 11.23 52.214 0.225 7.3 543.1 0.01
5/3/2023 7:15:00 PM 11.24 52.232 0.225 7.29 541.4 0.01
5/3/2023 7:30:00 PM 11.25 52.25 0.222 7.29 537.5 0.01
5/3/2023 7:45:00 PM 11.26 52.268 0.224 7.28 538.6 0.02
5/3/2023 8:00:00 PM 11.26 52.268 0.226 7.27 546.2 0.01
5/3/2023 8:15:00 PM 11.27 52.286 0.223 7.27 541.4 0.01
5/3/2023 8:30:00 PM 11.27 52.286 0.223 7.27 535.8 0.01
5/3/2023 8:45:00 PM 11.26 52.268 0.223 7.27 537 0.01
5/3/2023 9:00:00 PM 11.26 52.268 0.221 7.27 526.5 0.01
5/3/2023 9:15:00 PM 11.26 52.268 0.219 7.28 527.6 0.02
5/3/2023 9:30:00 PM 11.25 52.25 0.218 7.29 528.8 0.01
5/3/2023 9:45:00 PM 11.25 52.25 0.217 7.33 558.9 0.02
5/3/2023 10:00:00 PM 11.24 52.232 0.216 7.29 583 0.01
5/3/2023 10:15:00 PM 11.22 52.196 0.215 7.3 564 0.01
5/3/2023 10:30:00 PM 11.21 52.178 0.214 7.31 553.1 0.02
5/3/2023 10:45:00 PM 11.19 52.142 0.212 7.31 546.8 0.01
5/3/2023 11:00:00 PM 11.18 52.124 0.21 7.32 579.6 0.01
5/3/2023 11:15:00 PM 11.16 52.088 0.208 7.34 561 0.01
5/3/2023 11:30:00 PM 11.15 52.07 0.206 7.34 542.2 0.02
5/3/2023 11:45:00 PM 11.13 52.034 0.202 7.34 569.7 0.02
5/4/2023 12:00:00 AM 11.11 51.998 0.199 7.35 595.4 0.02
5/4/2023 12:15:00 AM 11.1 51.98 0.198 7.33 640.6 0.01
5/4/2023 12:30:00 AM 11.08 51.944 0.196 7.32 607.7 0.02
5/4/2023 12:45:00 AM 11.06 51.908 0.196 7.33 596.6 0.01
5/4/2023 1:00:00 AM 11.04 51.872 0.197 7.31 597.2 0.02
5/4/2023 1:15:00 AM 11.03 51.854 0.198 7.31 593.3 0.02
5/4/2023 1:30:00 AM 11.01 51.818 0.196 7.31 592.6 0.02
5/4/2023 1:45:00 AM 10.99 51.782 0.197 7.3 583.7 0.02
5/4/2023 2:00:00 AM 10.96 51.728 0.196 7.3 570.6 0.01
5/4/2023 2:15:00 AM 10.93 51.674 0.196 7.31 557.5 0.01
5/4/2023 2:30:00 AM 10.91 51.638 0.193 7.32 556 0.02
5/4/2023 2:45:00 AM 10.88 51.584 0.192 7.31 546.5 0.02
5/4/2023 3:00:00 AM 10.87 51.566 0.192 7.3 541.2 0.01
5/4/2023 3:15:00 AM 10.85 51.53 0.191 7.31 557.4 0.02
5/4/2023 3:30:00 AM 10.82 51.476 0.19 7.32 529.1 0.02
5/4/2023 3:45:00 AM 10.8 51.44 0.189 7.33 541.6 0.02
5/4/2023 4:00:00 AM 10.78 51.404 0.187 7.3 536.7 0.02
5/4/2023 4:15:00 AM 10.76 51.368 0.185 7.28 534.3 0.01
5/4/2023 4:30:00 AM 10.74 51.332 0.186 7.25 515.9 0.02
5/4/2023 4:45:00 AM 10.71 51.278 0.185 7.21 508.3 0.02
5/4/2023 5:00:00 AM 10.69 51.242 0.184 7.23 508.5 0.02
5/4/2023 5:15:00 AM 10.67 51.206 0.183 7.24 507.7 0.02
5/4/2023 5:30:00 AM 10.64 51.152 0.182 7.2 508.8 0.02
5/4/2023 5:45:00 AM 10.6 51.08 0.181 7.25 506.4 0.02
5/4/2023 6:00:00 AM 10.58 51.044 0.179 7.25 505.8 0.02
5/4/2023 6:15:00 AM 10.55 50.99 0.178 7.21 506.2 0.02
5/4/2023 6:30:00 AM 10.52 50.936 0.176 7.25 505.2 0.02
5/4/2023 6:45:00 AM 10.5 50.9 0.175 7.25 505.8 0.02
5/4/2023 7:00:00 AM 10.47 50.846 0.175 7.24 508.3 0.02
5/4/2023 7:15:00 AM 10.45 50.81 0.174 7.22 507.3 0.02
5/4/2023 7:30:00 AM 10.44 50.792 0.172 7.22 508.4 0.02
5/4/2023 7:45:00 AM 10.41 50.738 0.169 7.23 506.3 0.02
5/4/2023 8:00:00 AM 10.4 50.72 0.17 7.23 506.4 0.02
5/4/2023 8:15:00 AM 10.37 50.666 0.172 7.21 508.3 0.02
5/4/2023 8:30:00 AM 10.37 50.666 0.171 7.2 506.7 0.02
5/4/2023 8:45:00 AM 10.35 50.63 0.171 7.22 506.1 0.02
5/4/2023 9:00:00 AM 10.34 50.612 0.169 7.2 510 0.02
5/4/2023 9:15:00 AM 10.34 50.612 0.169 7.2 506.2 0.02
5/4/2023 9:30:00 AM 10.35 50.63 0.17 7.19 505.9 0.02
5/4/2023 9:45:00 AM 10.37 50.666 0.17 7.19 507.6 0.02
5/4/2023 10:00:00 AM 10.39 50.702 0.171 7.19 506.1 0.01
5/4/2023 10:15:00 AM 10.41 50.738 0.171 7.19 507.4 0.02
5/4/2023 10:30:00 AM 10.44 50.792 0.171 7.21 507.4 0.02
5/4/2023 10:45:00 AM 10.45 50.81 0.172 7.21 509.7 0.02
5/4/2023 11:00:00 AM 10.47 50.846 0.173 7.18 509.9 0.02
5/4/2023 11:15:00 AM 10.49 50.882 0.172 7.19 511.9 0.01
5/4/2023 11:30:00 AM 10.51 50.918 0.172 7.18 510.8 0.02
5/4/2023 11:45:00 AM 10.54 50.972 0.172 7.18 510.9 0.02
5/4/2023 12:00:00 PM 10.58 51.044 0.172 7.21 511.3 0.02
5/4/2023 12:15:00 PM 10.62 51.116 0.171 7.2 512.2 0.02
5/4/2023 12:30:00 PM 10.67 51.206 0.171 7.17 502.8 0.02
5/4/2023 12:45:00 PM 10.7 51.26 0.172 7.17 486.9 0.01
5/4/2023 1:00:00 PM 10.73 51.314 0.173 7.18 480.8 0.01
5/4/2023 1:15:00 PM 10.76 51.368 0.172 7.18 470 0.01
5/4/2023 1:30:00 PM 10.78 51.404 0.171 7.19 467.6 0.01
5/4/2023 1:45:00 PM 10.8 51.44 0.17 7.21 467.9 0.01
5/4/2023 2:00:00 PM 10.82 51.476 0.17 7.22 469.4 0.01
5/4/2023 2:15:00 PM 10.84 51.512 0.171 7.22 470.7 0.01
5/4/2023 2:30:00 PM 10.86 51.548 0.172 7.2 465.8 0.01
5/4/2023 2:45:00 PM 10.89 51.602 0.172 7.2 464.9 0.02
5/4/2023 3:00:00 PM 10.91 51.638 0.172 7.22 465.4 0.01
5/4/2023 3:15:00 PM 10.94 51.692 0.171 7.21 465.4 0.01
5/4/2023 3:30:00 PM 10.98 51.764 0.17 7.19 466.4 0.01
5/4/2023 3:45:00 PM 11.02 51.836 0.17 7.19 466.5 0.01
5/4/2023 4:00:00 PM 11.06 51.908 0.171 7.21 472.6 0.01
5/4/2023 4:15:00 PM 11.12 52.016 0.171 7.22 474.3 0.01
5/4/2023 4:30:00 PM 11.17 52.106 0.18 7.21 471.5 0.01
5/4/2023 4:45:00 PM 11.21 52.178 0.183 7.21 476.5 0.01
5/4/2023 5:00:00 PM 11.25 52.25 0.186 7.2 474.4 0.01
5/4/2023 5:15:00 PM 11.3 52.34 0.188 7.21 476.7 0.01
5/4/2023 5:30:00 PM 11.33 52.394 0.189 7.18 475.1 0.01
5/4/2023 5:45:00 PM 11.36 52.448 0.19 7.3 475.1 0.01
5/4/2023 6:00:00 PM 11.41 52.538 0.191 7.2 477.9 0.01
5/4/2023 6:15:00 PM 11.43 52.574 0.193 7.22 478 0.01
5/4/2023 6:30:00 PM 11.49 52.682 0.194 7.21 479.4 0.01
5/4/2023 6:45:00 PM 11.51 52.718 0.195 7.23 480.9 0.01
5/4/2023 7:00:00 PM 11.53 52.754 0.195 7.22 479.4 0.01
5/4/2023 7:15:00 PM 11.52 52.736 0.198 7.21 479.8 0.01
5/4/2023 7:30:00 PM 11.53 52.754 0.199 7.19 481.2 0.01
5/4/2023 7:45:00 PM 11.54 52.772 0.199 7.17 480.9 0.01
5/4/2023 8:00:00 PM 11.56 52.808 0.2 7.16 480.9 0.01
5/4/2023 8:15:00 PM 11.57 52.826 0.201 7.17 481.9 0.01
5/4/2023 8:30:00 PM 11.58 52.844 0.202 7.14 485.5 0.01
5/4/2023 8:45:00 PM 11.59 52.862 0.201 7.17 485.2 0.01
5/4/2023 9:00:00 PM 11.61 52.898 0.202 7.17 506.2 0.01
5/4/2023 9:15:00 PM 11.62 52.916 0.203 7.18 485.9 0.01
5/4/2023 9:30:00 PM 11.63 52.934 0.203 7.2 486.8 0.01
5/4/2023 9:45:00 PM 11.65 52.97 0.204 7.18 487.3 0.01
5/4/2023 10:00:00 PM 11.66 52.988 0.206 7.17 489.1 0.01
5/4/2023 10:15:00 PM 11.67 53.006 0.206 7.18 490 0.01
5/4/2023 10:30:00 PM 11.68 53.024 0.206 7.17 490.3 0.01
5/4/2023 10:45:00 PM 11.7 53.06 0.208 7.17 490 0.01
5/4/2023 11:00:00 PM 11.7 53.06 0.209 7.17 490.7 0.01
5/4/2023 11:15:00 PM 11.71 53.078 0.211 7.18 490.6 0.01
5/4/2023 11:30:00 PM 11.71 53.078 0.213 7.17 506 0.01
5/4/2023 11:45:00 PM 11.71 53.078 0.216 7.19 492.1 0.01
5/5/2023 12:00:00 AM 11.72 53.096 0.216 7.2 510.8 0.01
5/5/2023 12:15:00 AM 11.72 53.096 0.216 7.19 498.5 0.02
5/5/2023 12:30:00 AM 11.72 53.096 0.219 7.2 497 0.01
5/5/2023 12:45:00 AM 11.72 53.096 0.221 7.21 493.1 0.02
5/5/2023 1:00:00 AM 11.72 53.096 0.223 7.22 493.2 0.01
5/5/2023 1:15:00 AM 11.72 53.096 0.224 7.22 492.2 0.01
5/5/2023 1:30:00 AM 11.72 53.096 0.226 7.22 497.1 0.01
5/5/2023 1:45:00 AM 11.72 53.096 0.225 7.24 494.9 0.01
5/5/2023 2:00:00 AM 11.72 53.096 0.227 7.23 499.2 0.01
5/5/2023 2:15:00 AM 11.72 53.096 0.226 7.24 495.6 0.01
5/5/2023 2:30:00 AM 11.71 53.078 0.227 7.23 278.4 0.01
5/5/2023 2:45:00 AM 11.71 53.078 0.227 7.24 278.7 0.01
5/5/2023 3:00:00 AM 11.71 53.078 0.222 7.24 277.5 0.02
5/5/2023 3:15:00 AM 11.7 53.06 0.232 7.24 277.6 0.01
5/5/2023 3:30:00 AM 11.7 53.06 0.233 7.23 276.8 0.01
5/5/2023 3:45:00 AM 11.7 53.06 0.233 7.23 277.6 0.01
5/5/2023 4:00:00 AM 11.69 53.042 0.234 7.23 280.9 0.01
5/5/2023 4:15:00 AM 11.68 53.024 0.231 7.23 278 0.02
5/5/2023 4:30:00 AM 11.67 53.006 0.23 7.22 279 0.01
5/5/2023 4:45:00 AM 11.66 52.988 0.23 7.23 278.3 0.01
5/5/2023 5:00:00 AM 11.65 52.97 0.238 7.23 277 0.01
5/5/2023 5:15:00 AM 11.64 52.952 0.24 7.22 276.8 0.01
5/5/2023 5:30:00 AM 11.63 52.934 0.244 7.23 278.5 0.01
5/5/2023 5:45:00 AM 11.61 52.898 0.246 7.23 279.9 0.01
5/5/2023 6:00:00 AM 11.6 52.88 0.248 7.23 278.4 0.01
5/5/2023 6:15:00 AM 11.58 52.844 0.25 7.23 278.5 0.01
5/5/2023 6:30:00 AM 11.56 52.808 0.258 7.24 283.2 0.01
5/5/2023 6:45:00 AM 11.55 52.79 0.259 7.24 278 0.01
5/5/2023 7:00:00 AM 11.53 52.754 0.26 7.24 278.5 0.01
5/5/2023 7:15:00 AM 11.52 52.736 0.261 7.23 278 0.01
5/5/2023 7:30:00 AM 11.5 52.7 0.26 7.24 277.6 0.02
5/5/2023 7:45:00 AM 11.49 52.682 0.262 7.24 277.9 0.01
5/5/2023 8:00:00 AM 11.47 52.646 0.262 7.24 277.2 0.01
5/5/2023 8:15:00 AM 11.46 52.628 0.262 7.24 276.6 0.01
5/5/2023 8:30:00 AM 11.44 52.592 0.264 7.24 259.3 0.01
5/5/2023 8:45:00 AM 11.44 52.592 0.261 7.25 261.9 0.02
5/5/2023 9:00:00 AM 11.43 52.574 0.262 7.24 260.1 0.01
5/5/2023 9:15:00 AM 11.43 52.574 0.261 7.23 263.1 0.01
5/5/2023 9:30:00 AM 11.44 52.592 0.264 7.22 260.1 0.01
5/5/2023 9:45:00 AM 11.46 52.628 0.269 7.22 260.6 0.01
5/5/2023 10:00:00 AM 11.49 52.682 0.268 7.23 258.4 0.01
5/5/2023 10:15:00 AM 11.52 52.736 0.266 7.23 257.5 0.01
5/5/2023 10:30:00 AM 11.55 52.79 0.27 7.23 258.8 0.01
5/5/2023 10:45:00 AM 11.59 52.862 0.269 7.22 256.5 0.01
5/5/2023 11:00:00 AM 11.64 52.952 0.272 7.23 257.2 0.01
5/5/2023 11:15:00 AM 11.68 53.024 0.271 7.23 271.8 0.01
5/5/2023 11:30:00 AM 11.73 53.114 0.265 7.24 275.2 0.01
5/5/2023 11:45:00 AM 11.77 53.186 0.265 7.24 261.2 0.01
5/5/2023 12:00:00 PM 11.81 53.258 0.264 7.24 255.2 0.01
5/5/2023 12:15:00 PM 11.85 53.33 0.258 7.23 252 0.01
5/5/2023 12:30:00 PM 11.89 53.402 0.254 7.24 253.4 0.01
5/5/2023 12:45:00 PM 11.94 53.492 0.254 7.24 250.9 0.01
5/5/2023 1:00:00 PM 11.99 53.582 0.256 7.24 231.4 0.01
5/5/2023 1:15:00 PM 12.04 53.672 0.252 7.23 231.1 0.01
5/5/2023 1:30:00 PM 12.1 53.78 0.258 7.24 232 0.01
5/5/2023 1:45:00 PM 12.14 53.852 0.258 7.24 232.7 0.01
5/5/2023 2:00:00 PM 12.19 53.942 0.26 7.24 238 0.01
5/5/2023 2:15:00 PM 12.22 53.996 0.263 7.25 238.6 0.01
5/5/2023 2:30:00 PM 12.25 54.05 0.266 7.24 233.8 0.01
5/5/2023 2:45:00 PM 12.29 54.122 0.267 7.23 235.3 0.01
5/5/2023 3:00:00 PM 12.33 54.194 0.269 7.23 233.6 0.01
5/5/2023 3:15:00 PM 12.37 54.266 0.27 7.22 233.9 0.01
5/5/2023 3:30:00 PM 12.41 54.338 0.272 7.22 234.1 0.01
5/5/2023 3:45:00 PM 12.45 54.41 0.273 7.22 235.9 0.01
5/5/2023 4:00:00 PM 12.49 54.482 0.273 7.22 234.6 0.01
5/5/2023 4:15:00 PM 12.52 54.536 0.263 7.25 236.1 0.01
5/5/2023 4:30:00 PM 12.56 54.608 0.271 7.25 236.8 0.01
5/5/2023 4:45:00 PM 12.61 54.698 0.272 7.25 236.6 0.01
5/5/2023 5:00:00 PM 12.65 54.77 0.274 7.25 241.2 0.01
5/5/2023 5:15:00 PM 12.7 54.86 0.275 7.25 244.6 0.01
5/5/2023 5:30:00 PM 12.74 54.932 0.277 7.24 247 0.01
5/5/2023 5:45:00 PM 12.78 55.004 0.281 7.23 242.9 0.01
5/5/2023 6:00:00 PM 12.82 55.076 0.282 7.23 249.7 0.01
5/5/2023 6:15:00 PM 12.86 55.148 0.282 7.22 252.2 0.01
5/5/2023 6:30:00 PM 12.9 55.22 0.281 7.22 257.7 0.01
5/5/2023 6:45:00 PM 12.94 55.292 0.282 7.23 256.6 0.01
5/5/2023 7:00:00 PM 12.97 55.346 0.283 7.23 256 0.01
5/5/2023 7:15:00 PM 13 55.4 0.281 7.23 255.7 0.01
5/5/2023 7:30:00 PM 13.03 55.454 0.28 7.23 258.8 0.01
5/5/2023 7:45:00 PM 13.05 55.49 0.282 7.23 260.5 0.01
5/5/2023 8:00:00 PM 13.06 55.508 0.28 7.24 263.2 0.01
5/5/2023 8:15:00 PM 13.08 55.544 0.278 7.24 259.9 0.01
5/5/2023 8:30:00 PM 13.09 55.562 0.279 7.25 265.7 0.01
5/5/2023 8:45:00 PM 13.09 55.562 0.276 7.24 261 0.01
5/5/2023 9:00:00 PM 13.09 55.562 0.278 7.24 262.1 0.01
5/5/2023 9:15:00 PM 13.09 55.562 0.28 7.25 262.7 0.01
5/5/2023 9:30:00 PM 13.08 55.544 0.279 7.25 265.7 0.01
5/5/2023 9:45:00 PM 13.08 55.544 0.283 7.25 274 0.01
5/5/2023 10:00:00 PM 13.07 55.526 0.282 7.25 306.1 0.01
5/5/2023 10:15:00 PM 13.06 55.508 0.286 7.25 311.7 0.01
5/5/2023 10:30:00 PM 13.05 55.49 0.287 7.26 319.2 0.01
5/5/2023 10:45:00 PM 13.03 55.454 0.289 7.26 327.2 0.01
5/5/2023 11:00:00 PM 13.01 55.418 0.29 7.26 331.7 0.01
5/5/2023 11:15:00 PM 12.99 55.382 0.29 7.27 337.3 0.01
5/5/2023 11:30:00 PM 12.96 55.328 0.291 7.26 343.9 0.01
5/5/2023 11:45:00 PM 12.94 55.292 0.291 7.27 347.3 0.01
5/6/2023 12:00:00 AM 12.91 55.238 0.294 7.27 348.9 0.01
5/6/2023 12:15:00 AM 12.89 55.202 0.293 7.28 374 0.01
5/6/2023 12:30:00 AM 12.87 55.166 0.29 7.28 484.4 0.01
5/6/2023 12:45:00 AM 12.84 55.112 0.295 7.28 388 0.01
5/6/2023 1:00:00 AM 12.81 55.058 0.292 7.28 387.7 0.01
5/6/2023 1:15:00 AM 12.78 55.004 0.29 7.28 375.4 0.01
5/6/2023 1:30:00 AM 12.75 54.95 0.287 7.28 371.6 0.01
5/6/2023 1:45:00 AM 12.73 54.914 0.287 7.29 371.5 0.01
5/6/2023 2:00:00 AM 12.7 54.86 0.287 7.29 370 0.01
5/6/2023 2:15:00 AM 12.67 54.806 0.291 7.29 370.2 0.01
5/6/2023 2:30:00 AM 12.64 54.752 0.289 7.29 366.1 0.01
5/6/2023 2:45:00 AM 12.61 54.698 0.289 7.28 358 0.01
5/6/2023 3:00:00 AM 12.58 54.644 0.291 7.29 357.9 0.01
5/6/2023 3:15:00 AM 12.55 54.59 0.287 7.28 354.2 0.01
5/6/2023 3:30:00 AM 12.52 54.536 0.291 7.27 357.6 0.01
5/6/2023 3:45:00 AM 12.49 54.482 0.29 7.27 345.7 0.01
5/6/2023 4:00:00 AM 12.46 54.428 0.289 7.27 348 0.01
5/6/2023 4:15:00 AM 12.43 54.374 0.291 7.26 356.9 0.01
5/6/2023 4:30:00 AM 12.39 54.302 0.289 7.24 363.6 0.01
5/6/2023 4:45:00 AM 12.36 54.248 0.288 7.24 367.2 0.01
5/6/2023 5:00:00 AM 12.33 54.194 0.287 7.23 354.4 0.01
5/6/2023 5:15:00 AM 12.3 54.14 0.286 7.22 359 0.01
5/6/2023 5:30:00 AM 12.27 54.086 0.285 7.2 363 0.01
5/6/2023 5:45:00 AM 12.23 54.014 0.285 7.2 364.1 0.01
5/6/2023 6:00:00 AM 12.19 53.942 0.281 7.22 424.3 0.02
5/6/2023 6:15:00 AM 12.16 53.888 0.281 7.23 397.6 0.01
5/6/2023 6:30:00 AM 12.12 53.816 0.274 7.25 373.6 0.01
5/6/2023 6:45:00 AM 12.09 53.762 0.279 7.28 377.1 0.02
5/6/2023 7:00:00 AM 12.06 53.708 0.276 7.27 381 0.01
5/6/2023 7:15:00 AM 12.02 53.636 0.276 7.27 382.3 0.01
5/6/2023 7:30:00 AM 11.99 53.582 0.269 7.27 388.2 0.01
5/6/2023 7:45:00 AM 11.97 53.546 0.272 7.27 388.6 0.01
5/6/2023 8:00:00 AM 11.94 53.492 0.274 7.27 390.2 0.01
5/6/2023 8:15:00 AM 11.91 53.438 0.276 7.27 397.9 0.01
5/6/2023 8:30:00 AM 11.89 53.402 0.275 7.27 405.7 0.01
5/6/2023 8:45:00 AM 11.87 53.366 0.263 7.28 408.9 0.01
5/6/2023 9:00:00 AM 11.85 53.33 0.267 7.28 407.5 0.02
5/6/2023 9:15:00 AM 11.84 53.312 0.262 7.26 408.9 0.01
5/6/2023 9:30:00 AM 11.84 53.312 0.266 7.28 417.4 0.01
5/6/2023 9:45:00 AM 11.86 53.348 0.269 7.28 407.7 0.01
5/6/2023 10:00:00 AM 11.88 53.384 0.27 7.28 408 0.01
5/6/2023 10:15:00 AM 11.92 53.456 0.276 7.28 413.3 0.01
5/6/2023 10:30:00 AM 11.96 53.528 0.272 7.3 415 0.01
5/6/2023 10:45:00 AM 12.01 53.618 0.277 7.28 413.2 0.01
5/6/2023 11:00:00 AM 12.06 53.708 0.279 7.27 413.8 0.01
5/6/2023 11:15:00 AM 12.12 53.816 0.281 7.28 411.2 0.01
5/6/2023 11:30:00 AM 12.18 53.924 0.277 7.27 414.4 0.01
5/6/2023 11:45:00 AM 12.24 54.032 0.276 7.27 416.9 0.01
5/6/2023 12:00:00 PM 12.3 54.14 0.274 7.27 424.3 0.01
5/6/2023 12:15:00 PM 12.37 54.266 0.27 7.26 425.4 0.01
5/6/2023 12:30:00 PM 12.43 54.374 0.27 7.27 427.8 0.01
5/6/2023 12:45:00 PM 12.49 54.482 0.269 7.27 429.4 0.01
5/6/2023 1:00:00 PM 12.56 54.608 0.265 7.27 433.2 0.01
5/6/2023 1:15:00 PM 12.62 54.716 0.261 7.27 438 0.01
5/6/2023 1:30:00 PM 12.69 54.842 0.259 7.27 437.4 0.01
5/6/2023 1:45:00 PM 12.78 55.004 0.263 7.26 437.7 0.01
5/6/2023 2:00:00 PM 12.86 55.148 0.262 7.26 441.2 0.01
5/6/2023 2:15:00 PM 12.93 55.274 0.263 7.26 447 0.01
5/6/2023 2:30:00 PM 13.01 55.418 0.268 7.24 450.1 0.01
5/6/2023 2:45:00 PM 13.08 55.544 0.271 7.23 450.6 0.01
5/6/2023 3:00:00 PM 13.17 55.706 0.273 7.21 457.4 0.01
5/6/2023 3:15:00 PM 13.25 55.85 0.271 7.21 460 0.01
5/6/2023 3:30:00 PM 13.33 55.994 0.262 7.21 462.7 0.01
5/6/2023 3:45:00 PM 13.41 56.138 0.263 7.22 486 0.01
5/6/2023 4:00:00 PM 13.48 56.264 0.256 7.22 493.9 0.01
5/6/2023 4:15:00 PM 13.56 56.408 0.256 7.22 497.6 0.01
5/6/2023 4:30:00 PM 13.64 56.552 0.265 7.22 501.1 0.01
5/6/2023 4:45:00 PM 13.71 56.678 0.266 7.21 506.6 0.01
5/6/2023 5:00:00 PM 13.79 56.822 0.268 7.22 486.5 0.01
5/6/2023 5:15:00 PM 13.86 56.948 0.267 7.21 574.8 0.01
5/6/2023 5:30:00 PM 13.92 57.056 0.242 7.21 524.6 0.01
5/6/2023 5:45:00 PM 13.98 57.164 0.243 7.21 499.3 0.01
5/6/2023 6:00:00 PM 14.04 57.272 0.238 7.2 491.5 0.01
5/6/2023 6:15:00 PM 14.09 57.362 0.242 7.2 496.4 0.01
5/6/2023 6:30:00 PM 14.14 57.452 0.264 7.21 498.7 0.01
5/6/2023 6:45:00 PM 14.18 57.524 0.248 7.2 501.1 0.01
5/6/2023 7:00:00 PM 14.22 57.596 0.256 7.21 529.4 0.01
5/6/2023 7:15:00 PM 14.26 57.668 0.264 7.21 560.3 0.01
5/6/2023 7:30:00 PM 14.3 57.74 0.255 7.21 563.6 0.01
5/6/2023 7:45:00 PM 14.28 57.704 0.272 7.21 547.2 0.01
5/6/2023 8:00:00 PM 14.31 57.758 0.277 7.2 522.8 0.01
5/6/2023 8:15:00 PM 14.35 57.83 0.273 7.19 553.2 0.01
5/6/2023 8:30:00 PM 14.37 57.866 0.266 7.19 526.1 0.01
5/6/2023 8:45:00 PM 14.37 57.866 0.248 7.19 522.2 0.01
5/6/2023 9:00:00 PM 14.37 57.866 0.246 7.19 537.3 0.01
5/6/2023 9:15:00 PM 14.37 57.866 0.267 7.18 551.3 0.01
5/6/2023 9:30:00 PM 14.37 57.866 0.27 7.18 583.1 0.01
5/6/2023 9:45:00 PM 14.37 57.866 0.272 7.18 556.2 0.01
5/6/2023 10:00:00 PM 14.36 57.848 0.254 7.18 544.6 0.01
5/6/2023 10:15:00 PM 14.35 57.83 0.272 7.18 547.8 0.01
5/6/2023 10:30:00 PM 14.34 57.812 0.268 7.17 553.3 0.01
5/6/2023 10:45:00 PM 14.32 57.776 0.259 7.17 554.2 0.01
5/6/2023 11:00:00 PM 14.32 57.776 0.265 7.17 556.9 0.01
5/6/2023 11:15:00 PM 14.28 57.704 0.268 7.16 575 0.01
5/6/2023 11:30:00 PM 14.26 57.668 0.265 7.15 573 0.01
5/6/2023 11:45:00 PM 14.24 57.632 0.259 7.13 634.2 0.01
5/7/2023 12:00:00 AM 14.21 57.578 0.268 7.13 1118 0.01
5/7/2023 12:15:00 AM 14.19 57.542 0.269 7.13 1203 0.01
5/7/2023 12:30:00 AM 14.17 57.506 0.275 7.13 1183 0.01
5/7/2023 12:45:00 AM 14.14 57.452 0.271 7.13 1175 0.01
5/7/2023 1:00:00 AM 14.11 57.398 0.273 7.12 1187 0.01
5/7/2023 1:15:00 AM 14.07 57.326 0.285 7.13 1185 0.01
5/7/2023 1:30:00 AM 14.04 57.272 0.282 7.14 1178 0.01
5/7/2023 1:45:00 AM 14.01 57.218 0.286 7.12 1183 0.01
5/7/2023 2:00:00 AM 13.98 57.164 0.295 7.12 1235 0.01
5/7/2023 2:15:00 AM 13.94 57.092 0.288 7.12 1226 0.02
5/7/2023 2:30:00 AM 13.91 57.038 0.283 7.12 1242 0.01
5/7/2023 2:45:00 AM 13.87 56.966 0.296 7.13 1265 0.01
5/7/2023 3:00:00 AM 13.83 56.894 0.298 7.12 1250 0.01
5/7/2023 3:15:00 AM 13.78 56.804 0.3 7.12 1257 0.01
5/7/2023 3:30:00 AM 13.75 56.75 0.289 7.13 1255 0.01
5/7/2023 3:45:00 AM 13.71 56.678 0.292 7.12 1292 0.01
5/7/2023 4:00:00 AM 13.68 56.624 0.293 7.12 1290 0.01
5/7/2023 4:15:00 AM 13.65 56.57 0.295 7.12 1286 0.01
5/7/2023 4:30:00 AM 13.61 56.498 0.279 7.13 1281 0.01
5/7/2023 4:45:00 AM 13.58 56.444 0.288 7.13 1321 0.01
5/7/2023 5:00:00 AM 13.54 56.372 0.278 7.12 1314 0.01
5/7/2023 5:15:00 AM 13.51 56.318 0.255 7.13 1290 0.01
5/7/2023 5:30:00 AM 13.47 56.246 0.263 7.13 1289 0.01
5/7/2023 5:45:00 AM 13.44 56.192 0.248 7.13 1261 0.01
5/7/2023 6:00:00 AM 13.4 56.12 0.264 7.12 1247 0.01
5/7/2023 6:15:00 AM 13.37 56.066 0.234 7.11 1258 0.01
5/7/2023 6:30:00 AM 13.33 55.994 0.237 7.12 1231 0.01
5/7/2023 6:45:00 AM 13.3 55.94 0.243 7.12 1229 0.01
5/7/2023 7:00:00 AM 13.27 55.886 0.254 7.12 1241 0.01
5/7/2023 7:15:00 AM 13.25 55.85 0.258 7.1 1243 0.01
5/7/2023 7:30:00 AM 13.22 55.796 0.263 7.1 1243 0.01
5/7/2023 7:45:00 AM 13.2 55.76 0.229 7.1 1240 0.01
5/7/2023 8:00:00 AM 13.18 55.724 0.219 7.1 1247 0.01
5/7/2023 8:15:00 AM 13.16 55.688 0.219 7.1 1247 0.01
5/7/2023 8:30:00 AM 13.15 55.67 0.229 7.1 1266 0.01
5/7/2023 8:45:00 AM 13.13 55.634 0.237 7.11 1279 0.01
5/7/2023 9:00:00 AM 13.12 55.616 0.246 7.11 1269 0.01
5/7/2023 9:15:00 AM 13.11 55.598 0.262 7.11 1274 0.01
5/7/2023 9:30:00 AM 13.11 55.598 0.272 7.1 1273 0.01
5/7/2023 9:45:00 AM 13.1 55.58 0.271 7.11 1274 0.01
5/7/2023 10:00:00 AM 13.1 55.58 0.27 7.11 1276 0.01
5/7/2023 10:15:00 AM 13.11 55.598 0.269 7.1 1281 0.01
5/7/2023 10:30:00 AM 13.12 55.616 0.262 7.11 1282 0.01
5/7/2023 10:45:00 AM 13.14 55.652 0.263 7.1 1280 0.01
5/7/2023 11:00:00 AM 13.17 55.706 0.26 7.09 1275 0.01
5/7/2023 11:15:00 AM 13.21 55.778 0.259 7.09 1275 0.01
5/7/2023 11:30:00 AM 13.25 55.85 0.255 7.09 1292 0.01
5/7/2023 11:45:00 AM 13.29 55.922 0.261 7.09 1284 0.01
5/7/2023 12:00:00 PM 13.33 55.994 0.252 7.1 1288 0.03
5/7/2023 12:15:00 PM 13.36 56.048 0.262 7.1 1311 0.02
5/7/2023 12:30:00 PM 13.4 56.12 0.255 7.1 1309 0.01
5/7/2023 12:45:00 PM 13.43 56.174 0.259 7.1 1310 0.02
5/7/2023 1:00:00 PM 13.47 56.246 0.26 7.11 1310 0.02
5/7/2023 1:15:00 PM 13.5 56.3 0.265 7.11 1321 0.02
5/7/2023 1:30:00 PM 13.52 56.336 0.267 7.09 1333 0.02
5/7/2023 1:45:00 PM 13.55 56.39 0.267 7.1 1344 0.01
5/7/2023 2:00:00 PM 13.58 56.444 0.276 7.11 1340 0.02
5/7/2023 2:15:00 PM 13.61 56.498 0.261 7.11 1343 0.03
5/7/2023 2:30:00 PM 13.63 56.534 0.27 7.11 1341 0.02
5/7/2023 2:45:00 PM 13.66 56.588 0.261 7.1 1341 0.02
5/7/2023 3:00:00 PM 13.68 56.624 0.263 7.09 1348 0.02
5/7/2023 3:15:00 PM 13.7 56.66 0.263 7.09 1350 0.03
5/7/2023 3:30:00 PM 13.71 56.678 0.267 7.09 1374 0.02
5/7/2023 3:45:00 PM 13.73 56.714 0.267 7.08 1363 0.01
5/7/2023 4:00:00 PM 13.76 56.768 0.261 7.08 1359 0.02
5/7/2023 4:15:00 PM 13.77 56.786 0.264 7.08 1355 0.02
5/7/2023 4:30:00 PM 13.78 56.804 0.268 7.08 1363 0.02
5/7/2023 4:45:00 PM 13.79 56.822 0.268 7.08 1374 0.01
5/7/2023 5:00:00 PM 13.81 56.858 0.278 7.08 1397 0.02
5/7/2023 5:15:00 PM 13.82 56.876 0.275 7.07 1503 0.01
5/7/2023 5:30:00 PM 13.84 56.912 0.275 7.08 1517 0.01
5/7/2023 5:45:00 PM 13.85 56.93 0.269 7.07 1521 0.01
5/7/2023 6:00:00 PM 13.87 56.966 0.27 7.09 1522 0.02
5/7/2023 6:15:00 PM 13.88 56.984 0.273 7.08 1543 0.01
5/7/2023 6:30:00 PM 13.9 57.02 0.265 7.09 1542 0.01
5/7/2023 6:45:00 PM 13.92 57.056 0.262 7.09 1547 0.02
5/7/2023 7:00:00 PM 13.95 57.11 0.257 7.1 1558 0.01
5/7/2023 7:15:00 PM 13.96 57.128 0.258 7.1 1556 0.02
5/7/2023 7:30:00 PM 13.96 57.128 0.256 7.11 1565 0.02
5/7/2023 7:45:00 PM 14 57.2 0.261 7.11 1554 0.01
5/7/2023 8:00:00 PM 14.01 57.218 0.263 7.11 1542 0.02
5/7/2023 8:15:00 PM 14.01 57.218 0.259 7.11 1548 0.02
5/7/2023 8:30:00 PM 14.02 57.236 0.257 7.12 1569 0.01
5/7/2023 8:45:00 PM 14.01 57.218 0.26 7.12 1565 0.02
5/7/2023 9:00:00 PM 14.04 57.272 0.267 7.12 1532 0.01
5/7/2023 9:15:00 PM 14.05 57.29 0.27 7.11 1512 0.01
5/7/2023 9:30:00 PM 14.02 57.236 0.27 7.11 1498 0.01
5/7/2023 9:45:00 PM 14 57.2 0.274 7.12 1508 0.02
5/7/2023 10:00:00 PM 14 57.2 0.273 7.1 1532 0.03
5/7/2023 10:15:00 PM 13.99 57.182 0.276 7.11 1535 0.01
5/7/2023 10:30:00 PM 13.98 57.164 0.284 7.09 1531 0.02
5/7/2023 10:45:00 PM 13.99 57.182 0.275 7.11 1546 0.01
5/7/2023 11:00:00 PM 13.98 57.164 0.282 7.11 1528 0.02
5/7/2023 11:15:00 PM 13.98 57.164 0.279 7.11 1524 0.01
5/7/2023 11:30:00 PM 13.97 57.146 0.285 7.12 1533 0.01
5/7/2023 11:45:00 PM 13.96 57.128 0.29 7.12 1539 0.01
5/8/2023 12:00:00 AM 13.94 57.092 0.278 7.12 1548 0.01
5/8/2023 12:15:00 AM 13.93 57.074 0.287 7.12 1538 0.01
5/8/2023 12:30:00 AM 13.91 57.038 0.285 7.11 1537 0.01
5/8/2023 12:45:00 AM 13.9 57.02 0.292 7.12 1604 0.01
5/8/2023 1:00:00 AM 13.88 56.984 0.297 7.12 1574 0.02
5/8/2023 1:15:00 AM 13.87 56.966 0.288 7.12 1567 0.01
5/8/2023 1:30:00 AM 13.85 56.93 0.305 7.12 1563 0.01
5/8/2023 1:45:00 AM 13.85 56.93 0.29 7.12 1583 0.01
5/8/2023 2:00:00 AM 13.84 56.912 0.295 7.12 1572 0.01
5/8/2023 2:15:00 AM 13.82 56.876 0.292 7.12 1563 0.01
5/8/2023 2:30:00 AM 13.81 56.858 0.287 7.13 1589 0.01
5/8/2023 2:45:00 AM 13.79 56.822 0.281 7.13 1569 0.01
5/8/2023 3:00:00 AM 13.78 56.804 0.28 7.14 1581 0.01
5/8/2023 3:15:00 AM 13.76 56.768 0.275 7.13 1583 0.01
5/8/2023 3:30:00 AM 13.74 56.732 0.269 7.13 1566 0.01
5/8/2023 3:45:00 AM 13.73 56.714 0.266 7.13 1571 0.01
5/8/2023 4:00:00 AM 13.72 56.696 0.252 7.14 1569 0.01
5/8/2023 4:15:00 AM 13.7 56.66 0.256 7.15 1591 0.01
5/8/2023 4:30:00 AM 13.69 56.642 0.251 7.15 1583 0.01
5/8/2023 4:45:00 AM 13.67 56.606 0.253 7.14 1573 0.01
5/8/2023 5:00:00 AM 13.65 56.57 0.252 7.14 1597 0.01
5/8/2023 5:15:00 AM 13.63 56.534 0.257 7.13 1574 0.01
5/8/2023 5:30:00 AM 13.61 56.498 0.264 7.15 1580 0.01
5/8/2023 5:45:00 AM 13.59 56.462 0.262 7.15 1577 0.01
5/8/2023 6:00:00 AM 13.57 56.426 0.263 7.13 1577 0.01
5/8/2023 6:15:00 AM 13.55 56.39 0.27 7.15 1595 0.01
5/8/2023 6:30:00 AM 13.53 56.354 0.27 7.14 1592 0.01
5/8/2023 6:45:00 AM 13.51 56.318 0.272 7.15 1571 0.01
5/8/2023 7:00:00 AM 13.49 56.282 0.275 7.15 1595 0.01
5/8/2023 7:15:00 AM 13.47 56.246 0.273 7.13 1573 0.01
5/8/2023 7:30:00 AM 13.45 56.21 0.262 7.13 1577 0.01
5/8/2023 7:45:00 AM 13.44 56.192 0.277 7.14 1564 0.01
5/8/2023 8:00:00 AM 13.42 56.156 0.288 7.13 1575 0.01
5/8/2023 8:15:00 AM 13.41 56.138 0.271 7.11 1575 0.01
5/8/2023 8:30:00 AM 13.4 56.12 0.262 7.1 1579 0.01
5/8/2023 8:45:00 AM 13.4 56.12 0.269 7.1 1573 0.01
5/8/2023 9:00:00 AM 13.39 56.102 0.269 7.09 1562 0.01
5/8/2023 9:15:00 AM 13.39 56.102 0.27 7.12 1528 0.01
5/8/2023 9:30:00 AM 13.41 56.138 0.29 7.11 1536 0.01
5/8/2023 9:45:00 AM 13.43 56.174 0.279 7.27 1538 0.01
5/8/2023 10:00:00 AM 13.45 56.21 0.269 7.2 1531 0.01
5/8/2023 10:15:00 AM 13.48 56.264 0.236 7.3 1548 0.01
5/8/2023 10:30:00 AM 13.52 56.336 0.255 7.22 1540 0.01
5/8/2023 10:45:00 AM 13.54 56.372 0.265 7.13 1543 0.01
5/8/2023 11:00:00 AM 13.58 56.444 0.248 7.12 1546 0.01
5/8/2023 11:15:00 AM 13.64 56.552 0.27 7.21 1559 0.01
5/8/2023 11:30:00 AM 13.69 56.642 0.263 7.12 1554 0.01
5/8/2023 11:45:00 AM 13.75 56.75 0.27 7.16 1544 0.01
5/8/2023 12:00:00 PM 13.82 56.876 0.254 7.12 1546 0.01
5/8/2023 12:15:00 PM 13.87 56.966 0.266 7.13 1556 0.01
5/8/2023 12:30:00 PM 13.92 57.056 0.274 7.1 1558 0.01
5/8/2023 12:45:00 PM 13.98 57.164 0.277 7.06 1566 0.01
5/8/2023 1:00:00 PM 14.06 57.308 0.279 7.13 1555 0.01
5/8/2023 1:15:00 PM 14.14 57.452 0.283 7.14 1551 0.01
5/8/2023 1:30:00 PM 14.24 57.632 0.287 7.12 1549 0.01
5/8/2023 1:45:00 PM 14.34 57.812 0.286 7.12 1566 0.01
5/8/2023 2:00:00 PM 14.44 57.992 0.284 7.12 1558 0.01
5/8/2023 2:15:00 PM 14.53 58.154 0.279 7.12 1558 0.01
5/8/2023 2:30:00 PM 14.63 58.334 0.273 7.13 1585 0.01
5/8/2023 2:45:00 PM 14.72 58.496 0.264 7.13 1562 0.01
5/8/2023 3:00:00 PM 14.78 58.604 0.255 7.14 1578 0.01
5/8/2023 3:15:00 PM 14.83 58.694 0.247 7.19 1579 0.01
5/8/2023 3:30:00 PM 14.95 58.91 0.231 7.19 1579 0.01
5/8/2023 3:45:00 PM 15.02 59.036 0.228 7.17 1575 0.01
5/8/2023 4:00:00 PM 15.11 59.198 0.228 7.17 1574 0.01
5/8/2023 4:15:00 PM 15.15 59.27 0.222 7.17 1592 0.01
5/8/2023 4:30:00 PM 15.2 59.36 0.217 7.19 5036 0.01
5/8/2023 4:45:00 PM 15.27 59.486 0.219 7.18 4797 0.01
5/8/2023 5:00:00 PM 15.38 59.684 0.221 7.17 1808 0.01
5/8/2023 5:15:00 PM 15.46 59.828 0.225 7.18 1878 0.01
5/8/2023 5:30:00 PM 15.5 59.9 0.218 7.19 1896 0.01
5/8/2023 5:45:00 PM 15.56 60.008 0.217 7.2 1903 0.01
5/8/2023 6:00:00 PM 15.61 60.098 0.219 7.18 1938 0.01
5/8/2023 6:15:00 PM 15.67 60.206 0.218 7.2 2051 0.01
5/8/2023 6:30:00 PM 15.72 60.296 0.216 7.19 5036 0.01
5/8/2023 6:45:00 PM 15.83 60.494 0.213 7.19 5036 0.01
5/8/2023 7:00:00 PM 15.87 60.566 0.206 7.2 5036 0.01
5/8/2023 7:15:00 PM 15.91 60.638 0.209 7.19 5036 0.01
5/8/2023 7:30:00 PM 15.93 60.674 0.211 7.2 5036 0.01
5/8/2023 7:45:00 PM 16.02 60.836 0.215 7.2 5036 0.01
5/8/2023 8:00:00 PM 16.04 60.872 0.216 7.21 5036 0.01
5/8/2023 8:15:00 PM 16.07 60.926 0.22 7.2 5036 0.01
5/8/2023 8:30:00 PM 16.1 60.98 0.215 7.21 5036 0.01
5/8/2023 8:45:00 PM 16.08 60.944 0.209 7.21 1597 0.01
5/8/2023 9:00:00 PM 16.1 60.98 0.211 7.2 1582 0.01
5/8/2023 9:15:00 PM 16.06 60.908 0.207 7.21 2366 0.01
5/8/2023 9:30:00 PM 16.06 60.908 0.204 7.21 2425 2.85
5/8/2023 9:45:00 PM 16.06 60.908 0.201 7.21 2449 0.15
5/8/2023 10:00:00 PM 16.05 60.89 0.204 7.23 2462 0.01
5/8/2023 10:15:00 PM 15.99 60.782 0.199 7.23 2477 0.01
5/8/2023 10:30:00 PM 16.04 60.872 0.209 7.23 2491 0.01
5/8/2023 10:45:00 PM 16 60.8 0.207 7.24 2505 0.01
5/8/2023 11:00:00 PM 15.99 60.782 0.207 7.25 2559 0.01
5/8/2023 11:15:00 PM 15.97 60.746 0.215 7.25 2583 0.01
5/8/2023 11:30:00 PM 15.92 60.656 0.231 7.24 2593 0.01
5/8/2023 11:45:00 PM 15.92 60.656 0.226 7.24 2598 0.01
5/9/2023 12:00:00 AM 15.9 60.62 0.238 7.23 2604 0.01
5/9/2023 12:15:00 AM 15.88 60.584 0.241 7.23 2613 0.01
5/9/2023 12:30:00 AM 15.82 60.476 0.235 7.22 2617 0.01
5/9/2023 12:45:00 AM 15.78 60.404 0.237 7.22 2630 0.01
5/9/2023 1:00:00 AM 15.77 60.386 0.24 7.22 2651 0.01
5/9/2023 1:15:00 AM 15.73 60.314 0.231 7.22 2650 0.01
5/9/2023 1:30:00 AM 15.7 60.26 0.226 7.23 2659 0.01
5/9/2023 1:45:00 AM 15.67 60.206 0.223 7.23 2658 0.01
5/9/2023 2:00:00 AM 15.66 60.188 0.225 7.24 2665 0.01
5/9/2023 2:15:00 AM 15.64 60.152 0.231 7.24 2666 0.01
5/9/2023 2:30:00 AM 15.63 60.134 0.232 7.24 2671 0.01
5/9/2023 2:45:00 AM 15.6 60.08 0.229 7.24 2676 0.01
5/9/2023 3:00:00 AM 15.57 60.026 0.219 7.25 2678 0.01
5/9/2023 3:15:00 AM 15.55 59.99 0.219 7.26 2690 0.01
5/9/2023 3:30:00 AM 15.51 59.918 0.22 7.26 2714 0.01
5/9/2023 3:45:00 AM 15.49 59.882 0.217 7.27 2740 0.01
5/9/2023 4:00:00 AM 15.46 59.828 0.225 7.27 2772 0.01
5/9/2023 4:15:00 AM 15.44 59.792 0.223 7.27 2773 0.01
5/9/2023 4:30:00 AM 15.41 59.738 0.223 7.26 2781 0.01
5/9/2023 4:45:00 AM 15.38 59.684 0.213 7.27 2782 0.01
5/9/2023 5:00:00 AM 15.35 59.63 0.223 7.28 2793 0.01
5/9/2023 5:15:00 AM 15.31 59.558 0.226 7.27 2807 0.01
5/9/2023 5:30:00 AM 15.27 59.486 0.221 7.27 2809 0.01
5/9/2023 5:45:00 AM 15.25 59.45 0.218 7.27 2826 0.01
5/9/2023 6:00:00 AM 15.21 59.378 0.212 7.26 2835 0.01
5/9/2023 6:15:00 AM 15.19 59.342 0.211 7.27 2998 0.01
5/9/2023 6:30:00 AM 15.15 59.27 0.214 7.27 3045 0.01
5/9/2023 6:45:00 AM 15.13 59.234 0.216 7.28 3051 0.01
5/9/2023 7:00:00 AM 15.11 59.198 0.213 7.28 3047 0.01
5/9/2023 7:15:00 AM 15.09 59.162 0.213 7.29 3034 0.01
5/9/2023 7:30:00 AM 15.07 59.126 0.213 7.28 3037 0.01
5/9/2023 7:45:00 AM 15.06 59.108 0.216 7.29 3060 0.01
5/9/2023 8:00:00 AM 15.04 59.072 0.213 7.3 3044 0.01
5/9/2023 8:15:00 AM 14.99 58.982 0.218 7.28 3015 0.01
5/9/2023 8:30:00 AM 14.98 58.964 0.223 7.29 3013 0.01
5/9/2023 8:45:00 AM 14.98 58.964 0.225 7.29 3022 0.01
5/9/2023 9:00:00 AM 14.95 58.91 0.218 7.3 3026 0.01
5/9/2023 9:15:00 AM 14.92 58.856 0.217 7.3 3021 0.01
5/9/2023 9:30:00 AM 14.9 58.82 0.224 7.3 3046 0.01
5/9/2023 9:45:00 AM 14.88 58.784 0.225 7.29 3034 0.01
5/9/2023 10:00:00 AM 14.86 58.748 0.22 7.28 3005 0.01
5/9/2023 10:15:00 AM 14.85 58.73 0.228 7.28 3014 0.01
5/9/2023 10:30:00 AM 14.84 58.712 0.232 7.28 3004 0.01
5/9/2023 10:45:00 AM 14.82 58.676 0.234 7.28 3013 0.01
5/9/2023 11:00:00 AM 14.82 58.676 0.235 7.28 3022 0.01
5/9/2023 11:15:00 AM 14.81 58.658 0.239 7.27 3032 0.01
5/9/2023 11:30:00 AM 14.8 58.64 0.237 7.28 3035 0.01
5/9/2023 11:45:00 AM 14.78 58.604 0.233 7.28 3039 0.01
5/9/2023 12:00:00 PM 14.78 58.604 0.232 7.28 3042 0.01
5/9/2023 12:15:00 PM 14.77 58.586 0.235 7.28 3044 0.01
5/9/2023 12:30:00 PM 14.76 58.568 0.238 7.28 3054 0.01
5/9/2023 12:45:00 PM 14.76 58.568 0.243 7.28 3054 0.01
5/9/2023 1:00:00 PM 14.77 58.586 0.247 7.28 3055 0.01
5/9/2023 1:15:00 PM 14.77 58.586 0.258 7.28 3055 0.01
5/9/2023 1:30:00 PM 14.79 58.622 0.264 7.27 3069 0.01
5/9/2023 1:45:00 PM 14.81 58.658 0.262 7.27 3075 0.01
5/9/2023 2:00:00 PM 14.84 58.712 0.268 7.27 3104 0.01
5/9/2023 2:15:00 PM 14.86 58.748 0.273 7.27 3094 0.01
5/9/2023 2:30:00 PM 14.9 58.82 0.28 7.26 3105 0.01
5/9/2023 2:45:00 PM 14.94 58.892 0.282 7.26 1803 0.01
5/9/2023 3:00:00 PM 14.99 58.982 0.284 7.25 1808 0.01
5/9/2023 3:15:00 PM 15.04 59.072 0.281 7.26 1807 0.01
5/9/2023 3:30:00 PM 15.09 59.162 0.29 7.25 1823 0.01
5/9/2023 3:45:00 PM 15.14 59.252 0.286 7.25 1783 0.01
5/9/2023 4:00:00 PM 15.19 59.342 0.281 7.25 1752 0.01
5/9/2023 4:15:00 PM 15.25 59.45 0.285 7.26 1742 0.01
5/9/2023 4:30:00 PM 15.3 59.54 0.287 7.26 1738 0.01
5/9/2023 4:45:00 PM 15.35 59.63 0.297 7.26 1740 0.01
5/9/2023 5:00:00 PM 15.39 59.702 0.297 7.26 1742 0.01
5/9/2023 5:15:00 PM 15.44 59.792 0.299 7.27 1751 0.01
5/9/2023 5:30:00 PM 15.48 59.864 0.29 7.26 1744 0.01
5/9/2023 5:45:00 PM 15.52 59.936 0.29 7.27 1741 0.01
5/9/2023 6:00:00 PM 15.56 60.008 0.296 7.27 1733 0.01
5/9/2023 6:15:00 PM 15.59 60.062 0.3 7.27 1728 0.01
5/9/2023 6:30:00 PM 15.62 60.116 0.301 7.27 1722 0.01
5/9/2023 6:45:00 PM 15.64 60.152 0.305 7.27 1773 0.01
5/9/2023 7:00:00 PM 15.67 60.206 0.299 7.28 1715 0.01
5/9/2023 7:15:00 PM 15.68 60.224 0.303 7.28 1707 0.01
5/9/2023 7:30:00 PM 15.69 60.242 0.3 7.28 1712 0.01
5/9/2023 7:45:00 PM 15.7 60.26 0.304 7.28 1710 0.01
5/9/2023 8:00:00 PM 15.71 60.278 0.309 7.28 1706 0.01
5/9/2023 8:15:00 PM 15.7 60.26 0.307 7.29 1704 0.01
5/9/2023 8:30:00 PM 15.7 60.26 0.31 7.3 1701 0.01
5/9/2023 8:45:00 PM 15.69 60.242 0.308 7.29 1710 0.01
5/9/2023 9:00:00 PM 15.69 60.242 0.306 7.29 1698 0.01
5/9/2023 9:15:00 PM 15.68 60.224 0.286 7.29 1692 0.01
5/9/2023 9:30:00 PM 15.67 60.206 0.304 7.3 1686 0.01
5/9/2023 9:45:00 PM 15.65 60.17 0.298 7.3 1708 0.01
5/9/2023 10:00:00 PM 15.64 60.152 0.297 7.3 1718 0.01
5/9/2023 10:15:00 PM 15.62 60.116 0.3 7.31 1682 0.01
5/9/2023 10:30:00 PM 15.6 60.08 0.293 7.31 1681 0.01
5/9/2023 10:45:00 PM 15.58 60.044 0.309 7.31 1681 0.01
5/9/2023 11:00:00 PM 15.56 60.008 0.308 7.32 1681 0.01
5/9/2023 11:15:00 PM 15.54 59.972 0.308 7.31 1677 0.01
5/9/2023 11:30:00 PM 15.52 59.936 0.308 7.31 1678 0.01
5/9/2023 11:45:00 PM 15.5 59.9 0.313 7.31 1671 0.01
5/10/2023 12:00:00 AM 15.48 59.864 0.306 7.31 1677 0.01
5/10/2023 12:15:00 AM 15.45 59.81 0.299 7.31 1671 0.01
5/10/2023 12:30:00 AM 15.44 59.792 0.307 7.32 1673 0.01
5/10/2023 12:45:00 AM 15.42 59.756 0.289 7.32 1673 0.01
5/10/2023 1:00:00 AM 15.38 59.684 0.295 7.33 1677 0.01
5/10/2023 1:15:00 AM 15.35 59.63 0.284 7.33 1679 0.01
5/10/2023 1:30:00 AM 15.31 59.558 0.287 7.34 1686 0.01
5/10/2023 1:45:00 AM 15.27 59.486 0.287 7.34 1710 0.01
5/10/2023 2:00:00 AM 15.23 59.414 0.293 7.33 1697 0.01
5/10/2023 2:15:00 AM 15.2 59.36 0.288 7.33 1701 0.01
5/10/2023 2:30:00 AM 15.15 59.27 0.299 7.35 1700 0.01
5/10/2023 2:45:00 AM 15.12 59.216 0.288 7.34 1702 0.01
5/10/2023 3:00:00 AM 15.07 59.126 0.283 7.34 1714 0.01
5/10/2023 3:15:00 AM 15.03 59.054 0.279 7.35 1730 0.01
5/10/2023 3:30:00 AM 14.99 58.982 0.282 7.35 1755 0.01
5/10/2023 3:45:00 AM 14.95 58.91 0.273 7.35 1768 0.01
5/10/2023 4:00:00 AM 14.9 58.82 0.268 7.36 1776 0.01
5/10/2023 4:15:00 AM 14.85 58.73 0.268 7.36 1792 0.01
5/10/2023 4:30:00 AM 14.81 58.658 0.261 7.36 1800 0.01
5/10/2023 4:45:00 AM 14.76 58.568 0.263 7.35 1815 0.01
5/10/2023 5:00:00 AM 14.71 58.478 0.267 7.36 1826 0.01
5/10/2023 5:15:00 AM 14.66 58.388 0.267 7.37 1833 0.01
5/10/2023 5:30:00 AM 14.61 58.298 0.268 7.37 1843 0.01
5/10/2023 5:45:00 AM 14.56 58.208 0.266 7.36 1843 0.01
5/10/2023 6:00:00 AM 14.52 58.136 0.269 7.37 1849 0.01
5/10/2023 6:15:00 AM 14.46 58.028 0.272 7.37 1850 0.01
5/10/2023 6:30:00 AM 14.41 57.938 0.265 7.37 1852 0.01
5/10/2023 6:45:00 AM 14.36 57.848 0.256 7.38 1853 0.01
5/10/2023 7:00:00 AM 14.31 57.758 0.268 7.37 1858 0.01
5/10/2023 7:15:00 AM 14.26 57.668 0.267 7.37 1866 0.01
5/10/2023 7:30:00 AM 14.21 57.578 0.276 7.37 1870 0.01
5/10/2023 7:45:00 AM 14.17 57.506 0.28 7.37 1877 0.01
5/10/2023 8:00:00 AM 14.13 57.434 0.273 7.37 1876 0.01
5/10/2023 8:15:00 AM 14.1 57.38 0.284 7.37 1877 0.01
5/10/2023 8:30:00 AM 14.06 57.308 0.294 7.38 1881 0.01
5/10/2023 8:45:00 AM 14.03 57.254 0.285 7.37 1875 0.01
5/10/2023 9:00:00 AM 14.01 57.218 0.289 7.36 1876 0.01
5/10/2023 9:15:00 AM 13.99 57.182 0.292 7.36 1873 0.01
5/10/2023 9:30:00 AM 13.98 57.164 0.282 7.35 1877 0.01
5/10/2023 9:45:00 AM 13.98 57.164 0.279 7.35 1873 0.01
5/10/2023 10:00:00 AM 13.99 57.182 0.275 7.35 1873 0.01
5/10/2023 10:15:00 AM 14 57.2 0.276 7.35 1875 0.01
5/10/2023 10:30:00 AM 14.03 57.254 0.278 7.36 1875 0.01
5/10/2023 10:45:00 AM 14.05 57.29 0.287 7.36 1867 0.01
5/10/2023 11:00:00 AM 14.08 57.344 0.287 7.36 1874 0.01
5/10/2023 11:15:00 AM 14.12 57.416 0.282 7.36 1868 0.01
5/10/2023 11:30:00 AM 14.16 57.488 0.278 7.36 1868 0.01
5/10/2023 11:45:00 AM 14.2 57.56 0.282 7.35 1869 0.01
5/10/2023 12:00:00 PM 14.24 57.632 0.21 7.35 1868 0.01
5/10/2023 12:15:00 PM 14.3 57.74 0.273 7.35 1868 0.01
5/10/2023 12:30:00 PM 14.35 57.83 0.237 7.35 1869 0.01
5/10/2023 12:45:00 PM 14.4 57.92 0.218 7.35 1865 0.01
5/10/2023 1:00:00 PM 14.44 57.992 0.271 7.35 1868 0.01
5/10/2023 1:15:00 PM 14.48 58.064 0.267 7.35 1875 0.01
5/10/2023 1:30:00 PM 14.52 58.136 0.274 7.35 1873 0.01
5/10/2023 1:45:00 PM 14.6 58.28 0.207 7.34 1892 0.01
5/10/2023 2:00:00 PM 14.66 58.388 0.263 7.35 1883 0.01
5/10/2023 2:15:00 PM 14.69 58.442 0.223 7.34 1892 0.01
5/10/2023 2:30:00 PM 14.76 58.568 0.263 7.35 1899 0.01
5/10/2023 2:45:00 PM 14.81 58.658 0.205 7.34 1913 0.01
5/10/2023 3:00:00 PM 14.88 58.784 0.27 7.35 1922 0.01
5/10/2023 3:15:00 PM 14.92 58.856 0.271 7.35 1919 0.01
5/10/2023 3:30:00 PM 14.98 58.964 0.273 7.35 1929 0.01
5/10/2023 3:45:00 PM 15.04 59.072 0.273 7.35 1939 0.01
5/10/2023 4:00:00 PM 15.09 59.162 0.27 7.35 1945 0.01
5/10/2023 4:15:00 PM 15.14 59.252 0.267 7.35 1956 0.01
5/10/2023 4:30:00 PM 15.18 59.324 0.267 7.34 1958 0.01
5/10/2023 4:45:00 PM 15.23 59.414 0.273 7.35 1963 0.01
5/10/2023 5:00:00 PM 15.27 59.486 0.278 7.34 1967 0.01
5/10/2023 5:15:00 PM 15.32 59.576 0.276 7.34 1967 0.01
5/10/2023 5:30:00 PM 15.37 59.666 0.277 7.34 1979 0.01
5/10/2023 5:45:00 PM 15.42 59.756 0.275 7.35 1971 0.01
5/10/2023 6:00:00 PM 15.49 59.882 0.273 7.35 2000 0.01
5/10/2023 6:15:00 PM 15.54 59.972 0.271 7.34 1929 0.01
5/10/2023 6:30:00 PM 15.58 60.044 0.269 7.35 2061 0.01
5/10/2023 6:45:00 PM 15.63 60.134 0.27 7.34 2081 0.01
5/10/2023 7:00:00 PM 15.67 60.206 0.266 7.35 2091 0.01
5/10/2023 7:15:00 PM 15.69 60.242 0.258 7.35 2073 0.01
5/10/2023 7:30:00 PM 15.72 60.296 0.255 7.35 2081 0.01
5/10/2023 7:45:00 PM 15.74 60.332 0.252 7.36 2132 0.01
5/10/2023 8:00:00 PM 15.75 60.35 0.252 7.36 2173 0.01
5/10/2023 8:15:00 PM 15.76 60.368 0.254 7.36 2198 0.01
5/10/2023 8:30:00 PM 15.77 60.386 0.25 7.36 1926 0.01
5/10/2023 8:45:00 PM 15.77 60.386 0.253 7.37 2032 0.01
5/10/2023 9:00:00 PM 15.78 60.404 0.25 7.37 2038 0.01
5/10/2023 9:15:00 PM 15.76 60.368 0.253 7.37 2002 0.01
5/10/2023 9:30:00 PM 15.76 60.368 0.257 7.37 2011 0.01
5/10/2023 9:45:00 PM 15.74 60.332 0.264 7.38 1972 0.01
5/10/2023 10:00:00 PM 15.72 60.296 0.261 7.38 1941 0.01
5/10/2023 10:15:00 PM 15.7 60.26 0.265 7.38 1907 0.01
5/10/2023 10:30:00 PM 15.68 60.224 0.273 7.39 1852 0.01
5/10/2023 10:45:00 PM 15.65 60.17 0.276 7.39 1822 0.01
5/10/2023 11:00:00 PM 15.63 60.134 0.287 7.39 1797 0.01
5/10/2023 11:15:00 PM 15.61 60.098 0.286 7.39 1772 0.01
5/10/2023 11:30:00 PM 15.58 60.044 0.274 7.39 1740 0.01
5/10/2023 11:45:00 PM 15.56 60.008 0.286 7.39 1725 0.01
5/11/2023 12:00:00 AM 15.54 59.972 0.289 7.39 1710 0.01
5/11/2023 12:15:00 AM 15.51 59.918 0.289 7.4 1701 0.01
5/11/2023 12:30:00 AM 15.48 59.864 0.289 7.4 1684 0.01
5/11/2023 12:45:00 AM 15.43 59.774 0.292 7.39 1670 0.01
5/11/2023 1:00:00 AM 15.4 59.72 0.294 7.4 1671 0.01
5/11/2023 1:15:00 AM 15.36 59.648 0.291 7.4 1669 0.01
5/11/2023 1:30:00 AM 15.33 59.594 0.286 7.4 1669 0.01
5/11/2023 1:45:00 AM 15.29 59.522 0.287 7.4 1650 0.01
5/11/2023 2:00:00 AM 15.26 59.468 0.294 7.4 1638 0.01
5/11/2023 2:15:00 AM 15.23 59.414 0.297 7.39 1642 0.01
5/11/2023 2:30:00 AM 15.19 59.342 0.294 7.39 1615 0.01
5/11/2023 2:45:00 AM 15.16 59.288 0.292 7.4 1601 0.01
5/11/2023 3:00:00 AM 15.12 59.216 0.29 7.4 1602 0.01
5/11/2023 3:15:00 AM 15.08 59.144 0.292 7.4 1656 0.01
5/11/2023 3:30:00 AM 15.04 59.072 0.29 7.4 1729 0.01
5/11/2023 3:45:00 AM 15 59 0.292 7.4 5036 0.01
5/11/2023 4:00:00 AM 14.96 58.928 0.294 7.4 5036 0.01
5/11/2023 4:15:00 AM 14.92 58.856 0.289 7.41 462.5 0.01
5/11/2023 4:30:00 AM 14.88 58.784 0.287 7.41 476.3 0.01
5/11/2023 4:45:00 AM 14.83 58.694 0.29 7.41 837.1 0.01
5/11/2023 5:00:00 AM 14.79 58.622 0.283 7.41 1001 0.01
5/11/2023 5:15:00 AM 14.75 58.55 0.287 7.41 1148 0.01
5/11/2023 5:30:00 AM 14.7 58.46 0.287 7.4 1131 0.01
5/11/2023 5:45:00 AM 14.65 58.37 0.284 7.41 1013 0.01
5/11/2023 6:00:00 AM 14.61 58.298 0.281 7.4 1015 0.01
5/11/2023 6:15:00 AM 14.57 58.226 0.277 7.41 1017 0.01
5/11/2023 6:30:00 AM 14.52 58.136 0.285 7.41 1009 0.01
5/11/2023 6:45:00 AM 14.48 58.064 0.283 7.4 1017 0.01
5/11/2023 7:00:00 AM 14.43 57.974 0.288 7.41 1020 0.01
5/11/2023 7:15:00 AM 14.38 57.884 0.293 7.4 1017 0.01
5/11/2023 7:30:00 AM 14.34 57.812 0.298 7.41 1019 0.01
5/11/2023 7:45:00 AM 14.3 57.74 0.294 7.4 1018 0.01
5/11/2023 8:00:00 AM 14.26 57.668 0.293 7.41 1019 0.01
5/11/2023 8:15:00 AM 14.23 57.614 0.292 7.41 1019 0.01
5/11/2023 8:30:00 AM 14.2 57.56 0.297 7.42 1018 0.01
5/11/2023 8:45:00 AM 14.17 57.506 0.295 7.41 1017 0.01
5/11/2023 9:00:00 AM 14.14 57.452 0.292 7.41 1017 0.01
5/11/2023 9:15:00 AM 14.13 57.434 0.287 7.4 1016 0.01
5/11/2023 9:30:00 AM 14.12 57.416 0.269 7.4 1007 0.01
5/11/2023 9:45:00 AM 14.12 57.416 0.274 7.4 1007 0.01
5/11/2023 10:00:00 AM 14.13 57.434 0.275 7.4 1005 0.01
5/11/2023 10:15:00 AM 14.15 57.47 0.275 7.4 1008 0.01
5/11/2023 10:30:00 AM 14.17 57.506 0.277 7.4 1013 0.01
5/11/2023 10:45:00 AM 14.2 57.56 0.279 7.4 1017 0.01
5/11/2023 11:00:00 AM 14.24 57.632 0.283 7.4 1023 0.01
5/11/2023 11:15:00 AM 14.29 57.722 0.288 7.4 1023 0.01
5/11/2023 11:30:00 AM 14.34 57.812 0.291 7.4 1031 0.01
5/11/2023 11:45:00 AM 14.39 57.902 0.294 7.41 1033 0.01
5/11/2023 12:00:00 PM 14.44 57.992 0.291 7.4 1033 0.01
5/11/2023 12:15:00 PM 14.5 58.1 0.292 7.39 1040 0.01
5/11/2023 12:30:00 PM 14.56 58.208 0.297 7.39 1046 0.01
5/11/2023 12:45:00 PM 14.63 58.334 0.296 7.39 1060 0.01
5/11/2023 1:00:00 PM 14.69 58.442 0.297 7.4 1080 0.01
5/11/2023 1:15:00 PM 14.76 58.568 0.298 7.39 1073 0.01
5/11/2023 1:30:00 PM 14.82 58.676 0.293 7.41 1077 0.01
5/11/2023 1:45:00 PM 14.88 58.784 0.297 7.41 1075 0.01
5/11/2023 2:00:00 PM 14.95 58.91 0.295 7.41 1077 0.01
5/11/2023 2:15:00 PM 15.02 59.036 0.294 7.4 1085 0.01
5/11/2023 2:30:00 PM 15.08 59.144 0.294 7.41 1120 0.01
5/11/2023 2:45:00 PM 15.15 59.27 0.295 7.41 1124 0.01
5/11/2023 3:00:00 PM 15.23 59.414 0.293 7.4 1129 0.01
5/11/2023 3:15:00 PM 15.3 59.54 0.29 7.41 1134 0.01
5/11/2023 3:30:00 PM 15.38 59.684 0.288 7.4 1139 0.01
5/11/2023 3:45:00 PM 15.45 59.81 0.274 7.41 1142 0.01
5/11/2023 4:00:00 PM 15.5 59.9 0.27 7.4 1152 0.01
5/11/2023 4:15:00 PM 15.55 59.99 0.267 7.4 1196 0.01
5/11/2023 4:30:00 PM 15.62 60.116 0.264 7.41 1232 0.01
5/11/2023 4:45:00 PM 15.69 60.242 0.261 7.41 1247 0.01
5/11/2023 5:00:00 PM 15.75 60.35 0.274 7.4 1265 0.01
5/11/2023 5:15:00 PM 15.84 60.512 0.269 7.4 1276 0.01
5/11/2023 5:30:00 PM 15.91 60.638 0.258 7.41 1314 0.01
5/11/2023 5:45:00 PM 15.96 60.728 0.261 7.4 1299 0.01
5/11/2023 6:00:00 PM 15.98 60.764 0.276 7.42 1311 0.01
5/11/2023 6:15:00 PM 16.01 60.818 0.278 7.41 1322 0.01
5/11/2023 6:30:00 PM 16.04 60.872 0.283 7.41 1334 0.01
5/11/2023 6:45:00 PM 16.08 60.944 0.29 7.4 1333 0.01
5/11/2023 7:00:00 PM 16.12 61.016 0.292 7.4 1400 0.01
5/11/2023 7:15:00 PM 16.15 61.07 0.293 7.4 1420 0.01
5/11/2023 7:30:00 PM 16.17 61.106 0.297 7.4 1422 0.01
5/11/2023 7:45:00 PM 16.2 61.16 0.306 7.41 1431 0.01
5/11/2023 8:00:00 PM 16.21 61.178 0.327 7.4 1434 0.01
5/11/2023 8:15:00 PM 16.21 61.178 0.34 7.4 1464 0.01
5/11/2023 8:30:00 PM 16.22 61.196 0.354 7.39 1498 0.01
5/11/2023 8:45:00 PM 16.23 61.214 0.354 7.4 1508 0.01
5/11/2023 9:00:00 PM 16.24 61.232 0.357 7.4 1515 0.01
5/11/2023 9:15:00 PM 16.25 61.25 0.358 7.38 1527 0.01
5/11/2023 9:30:00 PM 16.25 61.25 0.357 7.39 1520 0.01
5/11/2023 9:45:00 PM 16.23 61.214 0.346 7.4 1512 0.01
5/11/2023 10:00:00 PM 16.23 61.214 0.354 7.41 1511 0.01
5/11/2023 10:15:00 PM 16.23 61.214 0.349 7.4 1510 0.01
5/11/2023 10:30:00 PM 16.25 61.25 0.338 7.4 1512 0.01
5/11/2023 10:45:00 PM 16.25 61.25 0.328 7.41 1515 0.01
5/11/2023 11:00:00 PM 16.24 61.232 0.312 7.41 1513 0.01
5/11/2023 11:15:00 PM 16.23 61.214 0.302 7.41 1522 0.01
5/11/2023 11:30:00 PM 16.21 61.178 0.288 7.41 1541 0.01
5/11/2023 11:45:00 PM 16.19 61.142 0.289 7.41 1537 0.01
5/12/2023 12:00:00 AM 16.17 61.106 0.284 7.41 1395 0.01
5/12/2023 12:15:00 AM 16.15 61.07 0.277 7.42 1399 0.01
5/12/2023 12:30:00 AM 16.13 61.034 0.282 7.43 1065 0.01
5/12/2023 12:45:00 AM 16.11 60.998 0.274 7.42 1074 0.01
5/12/2023 1:00:00 AM 16.08 60.944 0.273 7.42 1080 0.01
5/12/2023 1:15:00 AM 16.05 60.89 0.271 7.43 1082 0.01
5/12/2023 1:30:00 AM 16.03 60.854 0.273 7.43 1142 0.01
5/12/2023 1:45:00 AM 16 60.8 0.271 7.43 1096 0.01
5/12/2023 2:00:00 AM 15.96 60.728 0.278 7.42 1134 0.01
5/12/2023 2:15:00 AM 15.93 60.674 0.276 7.43 1096 0.01
5/12/2023 2:30:00 AM 15.9 60.62 0.282 7.44 1089 0.01
5/12/2023 2:45:00 AM 15.86 60.548 0.28 7.44 1083 0.01
5/12/2023 3:00:00 AM 15.83 60.494 0.275 7.43 1027 0.01
5/12/2023 3:15:00 AM 15.8 60.44 0.272 7.44 1027 0.01
5/12/2023 3:30:00 AM 15.76 60.368 0.267 7.43 1026 0.01
5/12/2023 3:45:00 AM 15.73 60.314 0.259 7.43 1026 0.01
5/12/2023 4:00:00 AM 15.69 60.242 0.253 7.44 1037 0.01
5/12/2023 4:15:00 AM 15.65 60.17 0.26 7.42 1029 0.01
5/12/2023 4:30:00 AM 15.61 60.098 0.258 7.44 1035 0.01
5/12/2023 4:45:00 AM 15.58 60.044 0.258 7.44 1016 0.01
5/12/2023 5:00:00 AM 15.54 59.972 0.255 7.43 1012 0.01
5/12/2023 5:15:00 AM 15.5 59.9 0.256 7.44 1084 0.01
5/12/2023 5:30:00 AM 15.45 59.81 0.265 7.43 1082 0.01
5/12/2023 5:45:00 AM 15.42 59.756 0.262 7.44 1082 0.01
5/12/2023 6:00:00 AM 15.38 59.684 0.258 7.44 1118 0.01
5/12/2023 6:15:00 AM 15.34 59.612 0.26 7.44 1119 0.01
5/12/2023 6:30:00 AM 15.3 59.54 0.256 7.43 1110 0.01
5/12/2023 6:45:00 AM 15.26 59.468 0.255 7.43 1097 0.01
5/12/2023 7:00:00 AM 15.22 59.396 0.257 7.42 1094 0.01
5/12/2023 7:15:00 AM 15.18 59.324 0.268 7.43 1103 0.01
5/12/2023 7:30:00 AM 15.15 59.27 0.275 7.43 1102 0.01
5/12/2023 7:45:00 AM 15.11 59.198 0.264 7.42 1102 0.01
5/12/2023 8:00:00 AM 15.08 59.144 0.273 7.41 1095 0.01
5/12/2023 8:15:00 AM 15.05 59.09 0.28 7.4 1096 0.01
5/12/2023 8:30:00 AM 15.03 59.054 0.289 7.41 1098 0.01
5/12/2023 8:45:00 AM 15.01 59.018 0.291 7.4 1068 0.01
5/12/2023 9:00:00 AM 15 59 0.302 7.4 1071 0.01
5/12/2023 9:15:00 AM 14.99 58.982 0.309 7.39 1047 0.01
5/12/2023 9:30:00 AM 14.99 58.982 0.313 7.39 1053 0.01
5/12/2023 9:45:00 AM 14.99 58.982 0.314 7.39 1053 0.01
5/12/2023 10:00:00 AM 15.01 59.018 0.316 7.39 935.5 0.01
5/12/2023 10:15:00 AM 15.03 59.054 0.317 7.38 937.5 0.01
5/12/2023 10:30:00 AM 15.06 59.108 0.318 7.38 941.2 0.01
5/12/2023 10:45:00 AM 15.09 59.162 0.318 7.38 950.1 0.01
5/12/2023 11:00:00 AM 15.13 59.234 0.306 7.38 935 0.01
5/12/2023 11:15:00 AM 15.18 59.324 0.321 7.38 927.9 0.01
5/12/2023 11:30:00 AM 15.23 59.414 0.327 7.38 946 0.01
5/12/2023 11:45:00 AM 15.28 59.504 0.325 7.38 943.3 0.01
5/12/2023 12:00:00 PM 15.32 59.576 0.322 7.37 949.7 0.01
5/12/2023 12:15:00 PM 15.37 59.666 0.322 7.37 951.5 0.01
5/12/2023 12:30:00 PM 15.42 59.756 0.324 7.37 913.8 0.01
5/12/2023 12:45:00 PM 15.49 59.882 0.307 7.35 918.5 0.01
5/12/2023 1:00:00 PM 15.54 59.972 0.316 7.35 918.6 0.01
5/12/2023 1:15:00 PM 15.61 60.098 0.317 7.35 911.7 0.01
5/12/2023 1:30:00 PM 15.68 60.224 0.318 7.35 911.8 0.01
5/12/2023 1:45:00 PM 15.74 60.332 0.323 7.35 899.7 0.01
5/12/2023 2:00:00 PM 15.81 60.458 0.319 7.35 925.1 0.01
5/12/2023 2:15:00 PM 15.88 60.584 0.321 7.35 922 0.01
5/12/2023 2:30:00 PM 15.96 60.728 0.318 7.35 906.8 0.01
5/12/2023 2:45:00 PM 16.03 60.854 0.315 7.35 901.7 0.01
5/12/2023 3:00:00 PM 16.11 60.998 0.312 7.34 899.5 0.01
5/12/2023 3:15:00 PM 16.19 61.142 0.311 7.35 898.5 0.01
5/12/2023 3:30:00 PM 16.26 61.268 0.311 7.35 894.5 0.01
5/12/2023 3:45:00 PM 16.33 61.394 0.309 7.35 891.8 0.01
5/12/2023 4:00:00 PM 16.4 61.52 0.308 7.35 912.3 0.01
5/12/2023 4:15:00 PM 16.46 61.628 0.307 7.35 888.7 0.01
5/12/2023 4:30:00 PM 16.54 61.772 0.303 7.36 886.6 0.01
5/12/2023 4:45:00 PM 16.59 61.862 0.301 7.35 890.8 0.01
5/12/2023 5:00:00 PM 16.65 61.97 0.3 7.35 876.3 0.01
5/12/2023 5:15:00 PM 16.72 62.096 0.292 7.35 879.9 0.01
5/12/2023 5:30:00 PM 16.77 62.186 0.295 7.35 873.3 0.01
5/12/2023 5:45:00 PM 16.83 62.294 0.294 7.35 870.4 0.01
5/12/2023 6:00:00 PM 16.88 62.384 0.298 7.34 859.7 0.01
5/12/2023 6:15:00 PM 16.94 62.492 0.305 7.35 860.7 0.01
5/12/2023 6:30:00 PM 16.98 62.564 0.312 7.35 857.8 0.01
5/12/2023 6:45:00 PM 17.03 62.654 0.301 7.37 854.4 0.01
5/12/2023 7:00:00 PM 17.08 62.744 0.294 7.35 854.9 0.01
5/12/2023 7:15:00 PM 17.12 62.816 0.289 7.35 850.9 0.01
5/12/2023 7:30:00 PM 17.15 62.87 0.287 7.36 844.9 0.01
5/12/2023 7:45:00 PM 17.16 62.888 0.286 7.34 841.8 0.01
5/12/2023 8:00:00 PM 17.18 62.924 0.282 7.36 843.6 0.01
5/12/2023 8:15:00 PM 17.19 62.942 0.272 7.36 845.7 0.01
5/12/2023 8:30:00 PM 17.18 62.924 0.273 7.36 836.2 0.01
5/12/2023 8:45:00 PM 17.19 62.942 0.28 7.37 836.6 0.01
5/12/2023 9:00:00 PM 17.2 62.96 0.276 7.36 838.1 0.01
5/12/2023 9:15:00 PM 17.21 62.978 0.276 7.36 837 0.01
5/12/2023 9:30:00 PM 17.21 62.978 0.276 7.36 831.6 0.01
5/12/2023 9:45:00 PM 17.2 62.96 0.275 7.36 838.9 0.01
5/12/2023 10:00:00 PM 17.2 62.96 0.275 7.36 832.4 0.01
5/12/2023 10:15:00 PM 17.2 62.96 0.273 7.36 835.7 0.01
5/12/2023 10:30:00 PM 17.2 62.96 0.267 7.37 845.6 0.01
5/12/2023 10:45:00 PM 17.21 62.978 0.258 7.37 842.6 0.01
5/12/2023 11:00:00 PM 17.21 62.978 0.271 7.37 832.7 0.01
5/12/2023 11:15:00 PM 17.21 62.978 0.274 7.37 826.8 0.01
5/12/2023 11:30:00 PM 17.21 62.978 0.273 7.38 831.3 0.01
5/12/2023 11:45:00 PM 17.2 62.96 0.267 7.37 825.8 0.01
5/13/2023 12:00:00 AM 17.2 62.96 0.267 7.37 834.3 0.01
5/13/2023 12:15:00 AM 17.2 62.96 0.265 7.37 837.8 0.01
5/13/2023 12:30:00 AM 17.19 62.942 0.249 7.37 831.3 0.01
5/13/2023 12:45:00 AM 17.19 62.942 0.268 7.38 829.5 0.01
5/13/2023 1:00:00 AM 17.16 62.888 0.27 7.38 756.8 0.01
5/13/2023 1:15:00 AM 17.16 62.888 0.275 7.38 755.1 0.01
5/13/2023 1:30:00 AM 17.16 62.888 0.271 7.37 762.9 0.01
5/13/2023 1:45:00 AM 17.14 62.852 0.268 7.37 769.5 0.01
5/13/2023 2:00:00 AM 17.14 62.852 0.267 7.37 802.1 0.01
5/13/2023 2:15:00 AM 17.12 62.816 0.267 7.37 1340 0.01
5/13/2023 2:30:00 AM 17.09 62.762 0.268 7.36 1265 0.01
5/13/2023 2:45:00 AM 17.07 62.726 0.275 7.36 1243 0.01
5/13/2023 3:00:00 AM 17.05 62.69 0.273 7.35 1206 0.01
5/13/2023 3:15:00 AM 17.03 62.654 0.274 7.35 1196 0.01
5/13/2023 3:30:00 AM 17 62.6 0.276 7.33 1178 0.01
5/13/2023 3:45:00 AM 16.98 62.564 0.275 7.33 1113 0.01
5/13/2023 4:00:00 AM 16.96 62.528 0.278 7.33 1108 0.01
5/13/2023 4:15:00 AM 16.94 62.492 0.277 7.32 1099 0.01
5/13/2023 4:30:00 AM 16.91 62.438 0.257 7.31 1092 0.01
5/13/2023 4:45:00 AM 16.89 62.402 0.262 7.31 1095 0.01
5/13/2023 5:00:00 AM 16.87 62.366 0.252 7.32 1107 0.01
5/13/2023 5:15:00 AM 16.85 62.33 0.259 7.31 1099 0.01
5/13/2023 5:30:00 AM 16.82 62.276 0.265 7.32 1090 0.01
5/13/2023 5:45:00 AM 16.8 62.24 0.263 7.31 177.2 0.01
5/13/2023 6:00:00 AM 16.77 62.186 0.261 7.31 1231 0.01
5/13/2023 6:15:00 AM 16.74 62.132 0.269 7.3 5036 0.01
5/13/2023 6:30:00 AM 16.72 62.096 0.267 7.31 5036 0.01
5/13/2023 6:45:00 AM 16.69 62.042 0.276 7.31 5036 0.01
5/13/2023 7:00:00 AM 16.67 62.006 0.276 7.31 5036 0.01
5/13/2023 7:15:00 AM 16.64 61.952 0.285 7.3 5036 0.01
5/13/2023 7:30:00 AM 16.63 61.934 0.279 7.31 5036 0.01
5/13/2023 7:45:00 AM 16.6 61.88 0.274 7.31 5036 0.01
5/13/2023 8:00:00 AM 16.58 61.844 0.259 7.31 5036 0.01
5/13/2023 8:15:00 AM 16.56 61.808 0.26 7.32 5036 0.01
5/13/2023 8:30:00 AM 16.54 61.772 0.267 7.32 5036 0.01
5/13/2023 8:45:00 AM 16.53 61.754 0.268 7.31 5036 0.01
5/13/2023 9:00:00 AM 16.51 61.718 0.274 7.31 5036 0.01
5/13/2023 9:15:00 AM 16.49 61.682 0.278 7.31 5036 0.01
5/13/2023 9:30:00 AM 16.48 61.664 0.281 7.3 5036 0.01
5/13/2023 9:45:00 AM 16.47 61.646 0.291 7.32 5036 0.01
5/13/2023 10:00:00 AM 16.45 61.61 0.277 7.31 5036 0.01
5/13/2023 10:15:00 AM 16.45 61.61 0.268 7.29 5036 0.01
5/13/2023 10:30:00 AM 16.45 61.61 0.258 7.33 5036 0.01
5/13/2023 10:45:00 AM 16.59 61.862 0.218 7.35 5036 0.01
5/13/2023 11:00:00 AM 16.66 61.988 0.214 7.32 5036 0.01
5/13/2023 11:15:00 AM 16.66 61.988 0.208 7.4 5036 0.01
5/13/2023 11:30:00 AM 16.77 62.186 0.206 7.43 5036 0.01
5/13/2023 11:45:00 AM 16.78 62.204 0.207 7.47 5036 0.01
5/13/2023 12:00:00 PM 16.6 61.88 0.208 7.48 5036 0.01
5/13/2023 12:15:00 PM 16.74 62.132 0.207 7.51 5036 0.01
5/13/2023 12:30:00 PM 16.65 61.97 0.206 7.58 5036 0.01
5/13/2023 12:45:00 PM 16.61 61.898 0.205 7.63 5036 0.01
5/13/2023 1:00:00 PM 16.54 61.772 0.206 7.63 5036 0.01
5/13/2023 1:15:00 PM 16.59 61.862 0.204 7.64 5036 0.01
5/13/2023 1:30:00 PM 16.55 61.79 0.204 7.69 5036 0.01
5/13/2023 1:45:00 PM 16.57 61.826 0.205 7.69 5036 0.01
5/13/2023 2:00:00 PM 16.59 61.862 0.205 7.67 5036 0.01
5/13/2023 2:15:00 PM 16.65 61.97 0.207 7.71 5036 0.01
5/13/2023 2:30:00 PM 16.56 61.808 0.206 7.76 5036 0.01
5/13/2023 2:45:00 PM 16.55 61.79 0.202 7.78 5036 0.01
5/13/2023 3:00:00 PM 16.58 61.844 0.207 7.75 5036 0.01
5/13/2023 3:15:00 PM 16.61 61.898 0.205 7.79 5036 0.01
5/13/2023 3:30:00 PM 16.6 61.88 0.203 7.83 5036 0.01
5/13/2023 3:45:00 PM 16.58 61.844 0.206 7.82 5036 0.01
5/13/2023 4:00:00 PM 16.55 61.79 0.204 7.78 5036 0.01
5/13/2023 4:15:00 PM 16.53 61.754 0.203 7.75 5036 0.01
5/13/2023 4:30:00 PM 16.53 61.754 0.204 7.74 5036 0.01
5/13/2023 4:45:00 PM 16.51 61.718 0.204 7.76 5036 0.01
5/13/2023 5:00:00 PM 16.49 61.682 0.199 7.78 5036 0.01
5/13/2023 5:15:00 PM 16.49 61.682 0.204 7.8 5036 0.01
5/13/2023 5:30:00 PM 16.49 61.682 0.205 7.81 5036 0.01
5/13/2023 5:45:00 PM 16.47 61.646 0.206 7.82 5036 0.01
5/13/2023 6:00:00 PM 16.46 61.628 0.208 7.75 5036 0.01
5/13/2023 6:15:00 PM 16.45 61.61 0.208 7.76 5036 0.01
5/13/2023 6:30:00 PM 16.44 61.592 0.206 7.72 5036 0.01
5/13/2023 6:45:00 PM 16.43 61.574 0.204 7.75 5036 0.01
5/13/2023 7:00:00 PM 16.43 61.574 0.203 7.78 5036 0.01
5/13/2023 7:15:00 PM 16.46 61.628 0.208 7.77 5036 0.01
5/13/2023 7:30:00 PM 16.44 61.592 0.209 7.84 5036 0.01
5/13/2023 7:45:00 PM 16.43 61.574 0.211 7.83 5036 0.01
5/13/2023 8:00:00 PM 16.41 61.538 0.21 7.84 5036 0.01
5/13/2023 8:15:00 PM 16.4 61.52 0.208 7.86 5031 0.01
5/13/2023 8:30:00 PM 16.39 61.502 0.212 7.84 5036 0.01
5/13/2023 8:45:00 PM 16.36 61.448 0.211 7.84 5035 0.01
5/13/2023 9:00:00 PM 16.34 61.412 0.212 7.79 5036 0.01
5/13/2023 9:15:00 PM 16.32 61.376 0.216 7.79 5036 0.01
5/13/2023 9:30:00 PM 16.3 61.34 0.192 7.79 5022 0.01
5/13/2023 9:45:00 PM 16.3 61.34 0.223 7.67 4968 0.01
5/13/2023 10:00:00 PM 16.27 61.286 0.246 7.63 5004 0.01
5/13/2023 10:15:00 PM 16.24 61.232 0.22 7.69 4961 0.01
5/13/2023 10:30:00 PM 16.22 61.196 0.218 7.71 4995 0.01
5/13/2023 10:45:00 PM 16.19 61.142 0.226 7.68 4956 0.01
5/13/2023 11:00:00 PM 16.17 61.106 0.221 7.62 4958 0.01
5/13/2023 11:15:00 PM 16.15 61.07 0.21 7.63 4921 0.01
5/13/2023 11:30:00 PM 16.13 61.034 0.197 7.68 4878 0.01
5/13/2023 11:45:00 PM 16.1 60.98 0.21 7.66 4871 0.01
5/14/2023 12:00:00 AM 16.07 60.926 0.214 7.65 4814 0.01
5/14/2023 12:15:00 AM 16.05 60.89 0.215 7.61 4777 0.01
5/14/2023 12:30:00 AM 16.02 60.836 0.213 7.6 4768 0.01
5/14/2023 12:45:00 AM 16 60.8 0.209 7.59 4758 0.01
5/14/2023 1:00:00 AM 15.96 60.728 0.208 7.64 4731 0.01
5/14/2023 1:15:00 AM 15.93 60.674 0.211 7.63 4712 0.01
5/14/2023 1:30:00 AM 15.9 60.62 0.214 7.63 4712 0.01
5/14/2023 1:45:00 AM 15.87 60.566 0.215 7.64 4664 0.01
5/14/2023 2:00:00 AM 15.83 60.494 0.215 7.65 4643 0.01
5/14/2023 2:15:00 AM 15.8 60.44 0.218 7.64 4654 0.01
5/14/2023 2:30:00 AM 15.77 60.386 0.215 7.64 4633 0.01
5/14/2023 2:45:00 AM 15.73 60.314 0.214 7.65 4654 0.01
5/14/2023 3:00:00 AM 15.7 60.26 0.209 7.65 4681 0.01
5/14/2023 3:15:00 AM 15.66 60.188 0.214 7.64 4639 0.01
5/14/2023 3:30:00 AM 15.63 60.134 0.214 7.63 4642 0.01
5/14/2023 3:45:00 AM 15.59 60.062 0.217 7.64 4637 0.01
5/14/2023 4:00:00 AM 15.56 60.008 0.204 7.63 4593 0.01
5/14/2023 4:15:00 AM 15.52 59.936 0.213 7.64 4613 0.01
5/14/2023 4:30:00 AM 15.48 59.864 0.212 7.62 4635 0.01
5/14/2023 4:45:00 AM 15.45 59.81 0.217 7.61 4669 0.01
5/14/2023 5:00:00 AM 15.41 59.738 0.217 7.62 4648 0.01
5/14/2023 5:15:00 AM 15.37 59.666 0.212 7.62 4652 0.01
5/14/2023 5:30:00 AM 15.34 59.612 0.218 7.62 4606 0.01
5/14/2023 5:45:00 AM 15.3 59.54 0.214 7.59 4608 0.01
5/14/2023 6:00:00 AM 15.27 59.486 0.215 7.58 4578 0.01
5/14/2023 6:15:00 AM 15.23 59.414 0.216 7.6 4537 0.01
5/14/2023 6:30:00 AM 15.19 59.342 0.215 7.61 4540 0.01
5/14/2023 6:45:00 AM 15.15 59.27 0.218 7.62 4540 0.01
5/14/2023 7:00:00 AM 15.11 59.198 0.209 7.62 4480 0.01
5/14/2023 7:15:00 AM 15.07 59.126 0.22 7.56 4491 0.01
5/14/2023 7:30:00 AM 15.04 59.072 0.219 7.58 4506 0.01
5/14/2023 7:45:00 AM 15.01 59.018 0.214 7.6 4481 0.01
5/14/2023 8:00:00 AM 14.98 58.964 0.225 7.51 4491 0.01
5/14/2023 8:15:00 AM 14.96 58.928 0.232 7.38 4423 0.01
5/14/2023 8:30:00 AM 14.94 58.892 0.238 7.35 4443 0.01
5/14/2023 8:45:00 AM 14.92 58.856 0.246 7.31 4429 0.01
5/14/2023 9:00:00 AM 14.91 58.838 0.244 7.31 4419 0.01
5/14/2023 9:15:00 AM 14.91 58.838 0.224 7.45 4357 0.01
5/14/2023 9:30:00 AM 14.92 58.856 0.215 7.54 4320 0.01
5/14/2023 9:45:00 AM 14.93 58.874 0.207 7.62 4307 0.01
5/14/2023 10:00:00 AM 14.95 58.91 0.208 7.68 4303 0.01
5/14/2023 10:15:00 AM 15.17 59.306 0.206 7.66 4288 0.01
5/14/2023 10:30:00 AM 15.14 59.252 0.206 7.73 4314 0.01
5/14/2023 10:45:00 AM 15.19 59.342 0.207 7.77 4289 0.01
5/14/2023 11:00:00 AM 15.21 59.378 0.208 7.79 4317 0.01
5/14/2023 11:15:00 AM 15.25 59.45 0.207 7.84 4275 0.01
5/14/2023 11:30:00 AM 15.3 59.54 0.209 7.89 4224 0.01
5/14/2023 11:45:00 AM 15.47 59.846 0.209 7.83 4195 0.01
5/14/2023 12:00:00 PM 15.48 59.864 0.208 7.9 4210 0.01
5/14/2023 12:15:00 PM 15.47 59.846 0.208 7.95 4165 0.01
5/14/2023 12:30:00 PM 15.51 59.918 0.209 8 4140 0.01
5/14/2023 12:45:00 PM 15.54 59.972 0.21 8.05 4153 0.01
5/14/2023 1:00:00 PM 15.58 60.044 0.209 8.1 4133 0.01
5/14/2023 1:15:00 PM 15.66 60.188 0.208 8.13 4144 0.01
5/14/2023 1:30:00 PM 15.74 60.332 0.209 8.15 4091 0.01
5/14/2023 1:45:00 PM 15.79 60.422 0.214 8.19 4108 0.01
5/14/2023 2:00:00 PM 15.84 60.512 0.215 8.24 4107 0.01
5/14/2023 2:15:00 PM 15.89 60.602 0.212 8.28 4108 0.01
5/14/2023 2:30:00 PM 15.94 60.692 0.217 8.32 4103 0.01
5/14/2023 2:45:00 PM 16 60.8 0.218 8.34 4069 0.01
5/14/2023 3:00:00 PM 16.05 60.89 0.214 8.38 4040 0.01
5/14/2023 3:15:00 PM 16.12 61.016 0.221 8.39 4035 0.01
5/14/2023 3:30:00 PM 16.18 61.124 0.212 8.4 4021 0.01
5/14/2023 3:45:00 PM 16.3 61.34 0.206 8.39 4033 0.01
5/14/2023 4:00:00 PM 16.41 61.538 0.207 8.43 3988 0.01
5/14/2023 4:15:00 PM 16.46 61.628 0.206 8.44 3956 0.01
5/14/2023 4:30:00 PM 16.51 61.718 0.22 8.47 3936 0.01
5/14/2023 4:45:00 PM 16.6 61.88 0.211 8.44 3949 0.01
5/14/2023 5:00:00 PM 16.65 61.97 0.21 8.44 3932 0.01
5/14/2023 5:15:00 PM 16.71 62.078 0.211 8.45 3959 0.01
5/14/2023 5:30:00 PM 16.76 62.168 0.207 8.36 3915 0.01
5/14/2023 5:45:00 PM 16.79 62.222 0.222 8.27 3888 0.01
5/14/2023 6:00:00 PM 16.85 62.33 0.213 8.06 3885 0.01
5/14/2023 6:15:00 PM 16.81 62.258 0.249 7.89 3872 0.01
5/14/2023 6:30:00 PM 16.84 62.312 0.239 7.71 3875 0.01
5/14/2023 6:45:00 PM 16.86 62.348 0.24 7.64 3858 0.01
5/14/2023 7:00:00 PM 16.87 62.366 0.245 7.55 3859 0.01
5/14/2023 7:15:00 PM 16.9 62.42 0.24 7.56 3847 0.01
5/14/2023 7:30:00 PM 16.91 62.438 0.246 7.52 3850 0.01
5/14/2023 7:45:00 PM 16.91 62.438 0.254 7.48 3837 0.01
5/14/2023 8:00:00 PM 16.92 62.456 0.265 7.39 3828 0.01
5/14/2023 8:15:00 PM 16.91 62.438 0.267 7.36 3799 0.01
5/14/2023 8:30:00 PM 16.91 62.438 0.268 7.32 3774 0.01
5/14/2023 8:45:00 PM 16.9 62.42 0.273 7.29 3760 0.01
5/14/2023 9:00:00 PM 16.89 62.402 0.265 7.28 3748 0.01
5/14/2023 9:15:00 PM 16.87 62.366 0.279 7.27 3739 0.01
5/14/2023 9:30:00 PM 16.86 62.348 0.274 7.28 4599 0.01
5/14/2023 9:45:00 PM 16.85 62.33 0.263 7.26 4081 0.01
5/14/2023 10:00:00 PM 16.83 62.294 0.255 7.27 4200 0.01
5/14/2023 10:15:00 PM 16.82 62.276 0.256 7.26 4429 0.09
5/14/2023 10:30:00 PM 16.81 62.258 0.251 7.29 4670 0.19
5/14/2023 10:45:00 PM 16.79 62.222 0.264 7.31 4861 0.03
5/14/2023 11:00:00 PM 16.77 62.186 0.258 7.27 5036 0.02
5/14/2023 11:15:00 PM 16.75 62.15 0.265 7.29 5036 0.01
5/14/2023 11:30:00 PM 16.72 62.096 0.28 7.27 5036 0.03
5/14/2023 11:45:00 PM 16.68 62.024 0.283 7.28 5036 0.11
5/15/2023 12:00:00 AM 16.65 61.97 0.279 7.27 5036 0.02
5/15/2023 12:15:00 AM 16.62 61.916 0.279 7.28 5036 0.03
5/15/2023 12:30:00 AM 16.58 61.844 0.281 7.28 5036 0.17
5/15/2023 12:45:00 AM 16.55 61.79 0.283 7.28 5036 0.01
5/15/2023 1:00:00 AM 16.52 61.736 0.292 7.28 5036 0.01
5/15/2023 1:15:00 AM 16.49 61.682 0.295 7.28 5036 0.01
5/15/2023 1:30:00 AM 16.45 61.61 0.294 7.27 5036 0.01
5/15/2023 1:45:00 AM 16.42 61.556 0.292 7.28 5036 0.01
5/15/2023 2:00:00 AM 16.38 61.484 0.286 7.29 5036 0.01
5/15/2023 2:15:00 AM 16.34 61.412 0.296 7.29 5036 0.01
5/15/2023 2:30:00 AM 16.3 61.34 0.302 7.29 5036 0.01
5/15/2023 2:45:00 AM 16.26 61.268 0.299 7.29 5036 0.01
5/15/2023 3:00:00 AM 16.22 61.196 0.299 7.3 5036 0.01
5/15/2023 3:15:00 AM 16.18 61.124 0.306 7.29 5036 0.01
5/15/2023 3:30:00 AM 16.13 61.034 0.311 7.29 5036 0.01
5/15/2023 3:45:00 AM 16.08 60.944 0.314 7.3 5036 0.01
5/15/2023 4:00:00 AM 16.04 60.872 0.325 7.29 5036 0.01
5/15/2023 4:15:00 AM 15.99 60.782 0.318 7.29 5036 0.01
5/15/2023 4:30:00 AM 15.94 60.692 0.305 7.3 1964 0.01
5/15/2023 4:45:00 AM 15.89 60.602 0.308 7.31 1986 0.01
5/15/2023 5:00:00 AM 15.84 60.512 0.303 7.31 2045 0.01
5/15/2023 5:15:00 AM 15.79 60.422 0.304 7.33 2073 0.01
5/15/2023 5:30:00 AM 15.74 60.332 0.314 7.32 2056 0.01
5/15/2023 5:45:00 AM 15.69 60.242 0.313 7.33 2339 0.01
5/15/2023 6:00:00 AM 15.64 60.152 0.306 7.34 2179 0.01
5/15/2023 6:15:00 AM 15.59 60.062 0.309 7.34 2219 0.01
5/15/2023 6:30:00 AM 15.54 59.972 0.309 7.35 2216 0.01
5/15/2023 6:45:00 AM 15.49 59.882 0.303 7.35 2259 0.01
5/15/2023 7:00:00 AM 15.44 59.792 0.3 7.34 2284 0.01
5/15/2023 7:15:00 AM 15.39 59.702 0.302 7.35 2313 0.01
5/15/2023 7:30:00 AM 15.34 59.612 0.298 7.35 2350 0.01
5/15/2023 7:45:00 AM 15.29 59.522 0.301 7.35 2417 0.01
5/15/2023 8:00:00 AM 15.25 59.45 0.3 7.35 2525 0.01
5/15/2023 8:15:00 AM 15.21 59.378 0.299 7.36 2589 0.01
5/15/2023 8:30:00 AM 15.18 59.324 0.301 7.3 2669 0.01
5/15/2023 8:45:00 AM 15.15 59.27 0.303 7.26 2638 0.01
5/15/2023 9:00:00 AM 15.13 59.234 0.304 7.25 2606 0.01
5/15/2023 9:15:00 AM 15.11 59.198 0.299 7.22 2604 0.01
5/15/2023 9:30:00 AM 15.11 59.198 0.299 7.25 2644 0.01
5/15/2023 9:45:00 AM 15.13 59.234 0.301 7.23 2673 0.01
5/15/2023 10:00:00 AM 15.15 59.27 0.292 7.23 2769 0.01
5/15/2023 10:15:00 AM 15.17 59.306 0.295 7.29 2728 0.01
5/15/2023 10:30:00 AM 15.2 59.36 0.287 7.25 2744 0.01
5/15/2023 10:45:00 AM 15.23 59.414 0.289 7.19 2850 0.01
5/15/2023 11:00:00 AM 15.26 59.468 0.289 7.21 2877 0.01
5/15/2023 11:15:00 AM 15.33 59.594 0.294 7.2 2945 0.01
5/15/2023 11:30:00 AM 15.37 59.666 0.297 7.22 2946 0.01
5/15/2023 11:45:00 AM 15.41 59.738 0.297 7.22 3143 0.01
5/15/2023 12:00:00 PM 15.44 59.792 0.294 7.22 3155 0.01
5/15/2023 12:15:00 PM 15.48 59.864 0.295 7.24 3184 0.01
5/15/2023 12:30:00 PM 15.52 59.936 0.276 7.25 3270 0.01
5/15/2023 12:45:00 PM 15.56 60.008 0.308 7.24 3266 0.01
5/15/2023 1:00:00 PM 15.61 60.098 0.309 7.24 3287 0.01
5/15/2023 1:15:00 PM 15.67 60.206 0.296 7.25 3369 0.01
5/15/2023 1:30:00 PM 15.74 60.332 0.297 7.47 3380 0.01
5/15/2023 1:45:00 PM 16.12 61.016 0.298 7.73 4079 0.01
5/15/2023 2:00:00 PM 16.28 61.304 0.26 7.9 4192 0.01
5/15/2023 2:15:00 PM 16.65 61.97 0.26 8.11 4248 0.01
5/15/2023 2:30:00 PM 16.45 61.61 0.249 8.19 4386 0.01
5/15/2023 2:45:00 PM 16.29 61.322 0.244 8.26 4523 0.01
5/15/2023 3:00:00 PM 16.36 61.448 0.243 8.25 4634 0.01
5/15/2023 3:15:00 PM 16.42 61.556 0.248 8.26 4725 0.01
5/15/2023 3:30:00 PM 16.56 61.808 0.257 8.33 4876 0.01
5/15/2023 3:45:00 PM 16.51 61.718 0.228 8.37 4931 0.01
5/15/2023 4:00:00 PM 16.57 61.826 0.254 8.4 4955 0.01
5/15/2023 4:15:00 PM 16.63 61.934 0.268 8.48 5032 0.01
5/15/2023 4:30:00 PM 16.64 61.952 0.271 8.51 5036 0.01
5/15/2023 4:45:00 PM 16.74 62.132 0.27 8.51 5036 0.01
5/15/2023 5:00:00 PM 16.74 62.132 0.282 8.54 5036 0.01
5/15/2023 5:15:00 PM 16.73 62.114 0.284 8.5 5036 0.01
5/15/2023 5:30:00 PM 16.77 62.186 0.284 8.51 5036 0.01
5/15/2023 5:45:00 PM 16.79 62.222 0.294 8.14 5036 0.01
5/15/2023 6:00:00 PM 16.81 62.258 0.294 7.76 5036 0.01
5/15/2023 6:15:00 PM 16.86 62.348 0.291 7.62 5036 0.01
5/15/2023 6:30:00 PM 16.9 62.42 0.292 7.4 5036 0.01
5/15/2023 6:45:00 PM 16.89 62.402 0.292 7.29 5036 0.01
5/15/2023 7:00:00 PM 16.94 62.492 0.295 7.31 5036 0.01
5/15/2023 7:15:00 PM 16.93 62.474 0.287 7.28 5036 0.01
5/15/2023 7:30:00 PM 16.95 62.51 0.298 7.26 5036 0.01
5/15/2023 7:45:00 PM 17.01 62.618 0.291 7.25 5036 0.01
5/15/2023 8:00:00 PM 17.03 62.654 0.282 7.24 5036 0.01
5/15/2023 8:15:00 PM 17.02 62.636 0.292 7.26 5036 0.01
5/15/2023 8:30:00 PM 17.03 62.654 0.287 7.26 5036 0.01
5/15/2023 8:45:00 PM 17.03 62.654 0.283 7.27 5036 0.01
5/15/2023 9:00:00 PM 17.01 62.618 0.282 7.27 5036 0.01
5/15/2023 9:15:00 PM 16.99 62.582 0.28 7.29 5036 0.01
5/15/2023 9:30:00 PM 16.96 62.528 0.286 7.3 5036 0.01
5/15/2023 9:45:00 PM 16.91 62.438 0.284 7.29 5036 0.01
5/15/2023 10:00:00 PM 16.88 62.384 0.285 7.29 5036 0.01
5/15/2023 10:15:00 PM 16.86 62.348 0.281 7.31 5036 0.01
5/15/2023 10:30:00 PM 16.83 62.294 0.28 7.31 5036 0.01
5/15/2023 10:45:00 PM 16.81 62.258 0.279 7.32 5036 0.01
5/15/2023 11:00:00 PM 16.78 62.204 0.279 7.31 5036 0.01
5/15/2023 11:15:00 PM 16.76 62.168 0.279 7.32 5036 0.01
5/15/2023 11:30:00 PM 16.73 62.114 0.276 7.33 5036 0.01
5/15/2023 11:45:00 PM 16.71 62.078 0.278 7.34 5036 0.01
5/16/2023 12:00:00 AM 16.69 62.042 0.286 7.34 5036 0.01
5/16/2023 12:15:00 AM 16.67 62.006 0.292 7.31 5036 0.01
5/16/2023 12:30:00 AM 16.65 61.97 0.282 7.35 5036 0.01
5/16/2023 12:45:00 AM 16.63 61.934 0.276 7.32 5036 0.01
5/16/2023 1:00:00 AM 16.6 61.88 0.282 7.27 5036 0.01
5/16/2023 1:15:00 AM 16.57 61.826 0.288 7.36 5036 0.01
5/16/2023 1:30:00 AM 16.54 61.772 0.287 7.27 5036 0.01
5/16/2023 1:45:00 AM 16.51 61.718 0.289 7.29 5036 0.01
5/16/2023 2:00:00 AM 16.47 61.646 0.295 7.3 5036 0.01
5/16/2023 2:15:00 AM 16.43 61.574 0.295 7.26 5036 0.01
5/16/2023 2:30:00 AM 16.4 61.52 0.305 7.23 5036 0.01
5/16/2023 2:45:00 AM 16.36 61.448 0.306 7.18 5036 0.01
5/16/2023 3:00:00 AM 16.32 61.376 0.303 7.17 5036 0.01
5/16/2023 3:15:00 AM 16.29 61.322 0.306 7.19 5036 0.01
5/16/2023 3:30:00 AM 16.24 61.232 0.306 7.18 5036 0.01
5/16/2023 3:45:00 AM 16.2 61.16 0.305 7.18 5036 0.01
5/16/2023 4:00:00 AM 16.16 61.088 0.307 7.18 5036 0.01
5/16/2023 4:15:00 AM 16.11 60.998 0.312 7.2 5036 0.01
5/16/2023 4:30:00 AM 16.06 60.908 0.309 7.2 5036 0.01
5/16/2023 4:45:00 AM 16.02 60.836 0.305 7.21 5036 0.01
5/16/2023 5:00:00 AM 15.97 60.746 0.308 7.23 5036 0.01
5/16/2023 5:15:00 AM 15.92 60.656 0.299 7.2 5036 0.01
5/16/2023 5:30:00 AM 15.87 60.566 0.291 7.2 5036 0.01
5/16/2023 5:45:00 AM 15.82 60.476 0.302 7.23 5036 0.01
5/16/2023 6:00:00 AM 15.77 60.386 0.305 7.21 5036 0.01
5/16/2023 6:15:00 AM 15.72 60.296 0.311 7.21 5036 0.01
5/16/2023 6:30:00 AM 15.67 60.206 0.316 7.2 5036 0.01
5/16/2023 6:45:00 AM 15.61 60.098 0.306 7.26 5036 0.01
5/16/2023 7:00:00 AM 15.56 60.008 0.283 7.35 5036 0.01
5/16/2023 7:15:00 AM 15.51 59.918 0.297 7.33 5036 0.01
5/16/2023 7:30:00 AM 15.47 59.846 0.304 7.29 5036 0.01
5/16/2023 7:45:00 AM 15.43 59.774 0.31 7.24 5036 0.01
5/16/2023 8:00:00 AM 15.39 59.702 0.314 7.22 5036 0.01
5/16/2023 8:15:00 AM 15.37 59.666 0.311 7.31 5036 0.01
5/16/2023 8:30:00 AM 15.34 59.612 0.301 7.27 5036 0.01
5/16/2023 8:45:00 AM 15.31 59.558 0.306 7.26 5036 0.01
5/16/2023 9:00:00 AM 15.3 59.54 0.3 7.26 5036 0.01
5/16/2023 9:15:00 AM 15.3 59.54 0.302 7.35 5036 0.01
5/16/2023 9:30:00 AM 15.3 59.54 0.301 7.39 5036 0.01
5/16/2023 9:45:00 AM 15.33 59.594 0.3 7.32 5036 0.01
5/16/2023 10:00:00 AM 15.36 59.648 0.296 7.36 5036 0.01
5/16/2023 10:15:00 AM 15.39 59.702 0.296 7.28 5036 0.01
5/16/2023 10:30:00 AM 15.42 59.756 0.292 7.28 5036 0.01
5/16/2023 10:45:00 AM 15.45 59.81 0.286 7.17 5036 0.01
5/16/2023 11:00:00 AM 15.49 59.882 0.299 7.15 5036 0.01
5/16/2023 11:15:00 AM 15.53 59.954 0.304 7.13 5036 0.01
5/16/2023 11:30:00 AM 15.58 60.044 0.3 7.15 5036 0.01
5/16/2023 11:45:00 AM 15.63 60.134 0.307 7.12 5036 0.01
5/16/2023 12:00:00 PM 15.68 60.224 0.296 7.14 5036 0.01
5/16/2023 12:15:00 PM 15.72 60.296 0.31 7.16 5036 0.01
5/16/2023 12:30:00 PM 15.78 60.404 0.318 7.13 5036 0.01
5/16/2023 12:45:00 PM 15.83 60.494 0.317 7.2 5036 0.01
5/16/2023 1:00:00 PM 15.88 60.584 0.31 7.2 5036 0.01
5/16/2023 1:15:00 PM 15.93 60.674 0.312 7.18 5036 0.01
5/16/2023 1:30:00 PM 16 60.8 0.318 7.17 5036 0.01
5/16/2023 1:45:00 PM 16.05 60.89 0.309 7.17 5036 0.01
5/16/2023 2:00:00 PM 16.1 60.98 0.301 7.16 5036 0.01
5/16/2023 2:15:00 PM 16.16 61.088 0.314 7.18 5036 0.01
5/16/2023 2:30:00 PM 16.22 61.196 0.311 7.21 5036 0.01
5/16/2023 2:45:00 PM 16.27 61.286 0.319 7.21 5036 0.01
5/16/2023 3:00:00 PM 16.33 61.394 0.332 7.22 5036 0.01
5/16/2023 3:15:00 PM 16.38 61.484 0.33 7.28 5036 0.01
5/16/2023 3:30:00 PM 16.42 61.556 0.323 7.31 5036 0.01
5/16/2023 3:45:00 PM 16.47 61.646 0.322 7.27 5036 0.01
5/16/2023 4:00:00 PM 16.51 61.718 0.314 7.31 5036 0.01
5/16/2023 4:15:00 PM 16.54 61.772 0.311 7.26 5036 0.01
5/16/2023 4:30:00 PM 16.58 61.844 0.318 7.2 5036 0.01
5/16/2023 4:45:00 PM 16.62 61.916 0.332 7.19 5036 0.01
5/16/2023 5:00:00 PM 16.65 61.97 0.32 7.18 5036 0.01
5/16/2023 5:15:00 PM 16.68 62.024 0.34 7.17 5036 0.01
5/16/2023 5:30:00 PM 16.71 62.078 0.326 7.18 5036 0.01
5/16/2023 5:45:00 PM 16.74 62.132 0.327 7.19 5036 0.01
5/16/2023 6:00:00 PM 16.76 62.168 0.319 7.19 5036 0.01
5/16/2023 6:15:00 PM 16.78 62.204 0.311 7.21 5036 0.01
5/16/2023 6:30:00 PM 16.8 62.24 0.31 7.25 5036 0.01
5/16/2023 6:45:00 PM 16.82 62.276 0.3 7.27 5036 0.01
5/16/2023 7:00:00 PM 16.84 62.312 0.312 7.26 5036 0.01
5/16/2023 7:15:00 PM 16.84 62.312 0.327 7.24 5036 0.01
5/16/2023 7:30:00 PM 16.84 62.312 0.337 7.24 5036 0.01
5/16/2023 7:45:00 PM 16.86 62.348 0.353 7.24 5036 0.01
5/16/2023 8:00:00 PM 16.87 62.366 0.345 7.24 5036 0.01
5/16/2023 8:15:00 PM 16.88 62.384 0.339 7.23 5036 0.01
5/16/2023 8:30:00 PM 16.88 62.384 0.341 7.24 5036 0.01
5/16/2023 8:45:00 PM 16.88 62.384 0.343 7.23 5036 0.01
5/16/2023 9:00:00 PM 16.88 62.384 0.342 7.26 5036 0.01
5/16/2023 9:15:00 PM 16.88 62.384 0.34 7.29 5036 0.01
5/16/2023 9:30:00 PM 16.87 62.366 0.336 7.3 5036 0.01
5/16/2023 9:45:00 PM 16.87 62.366 0.327 7.31 5036 0.01
5/16/2023 10:00:00 PM 16.87 62.366 0.345 7.32 5036 0.01
5/16/2023 10:15:00 PM 16.87 62.366 0.35 7.31 5036 0.01
5/16/2023 10:30:00 PM 16.86 62.348 0.349 7.32 5036 0.01
5/16/2023 10:45:00 PM 16.85 62.33 0.347 7.32 5036 0.01
5/16/2023 11:00:00 PM 16.84 62.312 0.352 7.32 5036 0.01
5/16/2023 11:15:00 PM 16.83 62.294 0.343 7.32 5036 0.01
5/16/2023 11:30:00 PM 16.81 62.258 0.348 7.32 5036 0.01
5/16/2023 11:45:00 PM 16.79 62.222 0.334 7.32 5036 0.01
5/17/2023 12:00:00 AM 16.77 62.186 0.334 7.33 5036 0.01
5/17/2023 12:15:00 AM 16.75 62.15 0.333 7.33 5036 0.01
5/17/2023 12:30:00 AM 16.73 62.114 0.335 7.33 5036 0.01
5/17/2023 12:45:00 AM 16.71 62.078 0.338 7.33 5036 0.01
5/17/2023 1:00:00 AM 16.69 62.042 0.324 7.33 5036 0.01
5/17/2023 1:15:00 AM 16.67 62.006 0.318 7.34 5036 0.01
5/17/2023 1:30:00 AM 16.63 61.934 0.324 7.34 5036 0.01
5/17/2023 1:45:00 AM 16.61 61.898 0.321 7.35 5036 0.01
5/17/2023 2:00:00 AM 16.59 61.862 0.33 7.35 5036 0.01
5/17/2023 2:15:00 AM 16.56 61.808 0.333 7.35 5036 0.01
5/17/2023 2:30:00 AM 16.53 61.754 0.344 7.36 5036 0.01
5/17/2023 2:45:00 AM 16.51 61.718 0.341 7.36 5036 0.01
5/17/2023 3:00:00 AM 16.48 61.664 0.34 7.37 5036 0.01
5/17/2023 3:15:00 AM 16.46 61.628 0.328 7.37 5036 0.01
5/17/2023 3:30:00 AM 16.43 61.574 0.321 7.37 5036 0.01
5/17/2023 3:45:00 AM 16.4 61.52 0.321 7.37 5036 0.01
5/17/2023 4:00:00 AM 16.36 61.448 0.324 7.37 5036 0.01
5/17/2023 4:15:00 AM 16.33 61.394 0.327 7.36 5036 0.01
5/17/2023 4:30:00 AM 16.3 61.34 0.318 7.36 5036 0.01
5/17/2023 4:45:00 AM 16.26 61.268 0.302 7.36 5036 0.01
5/17/2023 5:00:00 AM 16.23 61.214 0.305 7.37 5036 0.01
5/17/2023 5:15:00 AM 16.19 61.142 0.314 7.37 5036 0.01
5/17/2023 5:30:00 AM 16.16 61.088 0.308 7.37 5036 0.01
5/17/2023 5:45:00 AM 16.12 61.016 0.312 7.37 5036 0.01
5/17/2023 6:00:00 AM 16.08 60.944 0.317 7.37 5036 0.01
5/17/2023 6:15:00 AM 16.04 60.872 0.302 7.38 5036 0.01
5/17/2023 6:30:00 AM 16 60.8 0.306 7.38 5036 0.01
5/17/2023 6:45:00 AM 15.97 60.746 0.302 7.38 5036 0.01
5/17/2023 7:00:00 AM 15.94 60.692 0.314 7.38 5036 0.01
5/17/2023 7:15:00 AM 15.9 60.62 0.302 7.38 5036 0.01
5/17/2023 7:30:00 AM 15.86 60.548 0.275 7.38 5036 0.01
5/17/2023 7:45:00 AM 15.82 60.476 0.283 7.38 5036 0.01
5/17/2023 8:00:00 AM 15.79 60.422 0.292 7.38 5036 0.01
5/17/2023 8:15:00 AM 15.76 60.368 0.313 7.38 5036 0.01
5/17/2023 8:30:00 AM 15.72 60.296 0.295 7.39 5036 0.01
5/17/2023 8:45:00 AM 15.7 60.26 0.304 7.39 5036 0.01
5/17/2023 9:00:00 AM 15.69 60.242 0.304 7.38 5036 0.01
5/17/2023 9:15:00 AM 15.67 60.206 0.303 7.37 5036 0.01
5/17/2023 9:30:00 AM 15.68 60.224 0.299 7.36 5036 0.01
5/17/2023 9:45:00 AM 15.7 60.26 0.309 7.36 5036 0.01
5/17/2023 10:00:00 AM 15.67 60.206 0.322 7.35 5036 0.01
5/17/2023 10:15:00 AM 15.68 60.224 0.334 7.33 5036 0.01
5/17/2023 10:30:00 AM 15.7 60.26 0.327 7.35 5036 0.01
5/17/2023 10:45:00 AM 15.74 60.332 0.327 7.35 5036 0.01
5/17/2023 11:00:00 AM 15.78 60.404 0.332 7.36 5036 0.01
5/17/2023 11:15:00 AM 15.81 60.458 0.33 7.33 5036 0.01
5/17/2023 11:30:00 AM 15.85 60.53 0.337 7.32 5036 0.01
5/17/2023 11:45:00 AM 15.9 60.62 0.341 7.31 5036 0.01
5/17/2023 12:00:00 PM 15.97 60.746 0.329 7.32 5036 0.01
5/17/2023 12:15:00 PM 16.01 60.818 0.319 7.32 5036 0.01
5/17/2023 12:30:00 PM 16.06 60.908 0.318 7.3 5035 0.01
5/17/2023 12:45:00 PM 16.1 60.98 0.318 7.31 5023 0.01
5/17/2023 1:00:00 PM 16.14 61.052 0.307 7.32 4950 0.01
5/17/2023 1:15:00 PM 16.2 61.16 0.323 7.33 4760 0.01
5/17/2023 1:30:00 PM 16.25 61.25 0.333 7.33 4584 0.01
5/17/2023 1:45:00 PM 16.32 61.376 0.32 7.35 4319 0.01
5/17/2023 2:00:00 PM 16.38 61.484 0.329 7.35 4288 0.01
5/17/2023 2:15:00 PM 16.44 61.592 0.332 7.32 4212 0.01
5/17/2023 2:30:00 PM 16.49 61.682 0.311 7.3 4035 0.01
5/17/2023 2:45:00 PM 16.54 61.772 0.321 7.27 3968 0.01
5/17/2023 3:00:00 PM 16.59 61.862 0.316 7.28 3869 0.01
5/17/2023 3:15:00 PM 16.63 61.934 0.316 7.28 3808 0.01
5/17/2023 3:30:00 PM 16.68 62.024 0.315 7.28 3760 0.01
5/17/2023 3:45:00 PM 16.73 62.114 0.313 7.27 3703 0.01
5/17/2023 4:00:00 PM 16.77 62.186 0.306 7.37 3656 0.01
5/17/2023 4:15:00 PM 16.82 62.276 0.307 7.46 3611 0.01
5/17/2023 4:30:00 PM 16.87 62.366 0.317 7.36 3524 0.01
5/17/2023 4:45:00 PM 16.91 62.438 0.32 7.29 3524 0.01
5/17/2023 5:00:00 PM 16.97 62.546 0.321 7.28 3394 0.01
5/17/2023 5:15:00 PM 17 62.6 0.326 7.26 3254 0.01
5/17/2023 5:30:00 PM 17.04 62.672 0.321 7.26 3099 0.01
5/17/2023 5:45:00 PM 17.06 62.708 0.318 7.28 3017 0.01
5/17/2023 6:00:00 PM 17.1 62.78 0.324 7.29 2936 0.01
5/17/2023 6:15:00 PM 17.12 62.816 0.324 7.29 2871 0.01
5/17/2023 6:30:00 PM 17.15 62.87 0.33 7.29 2818 0.01
5/17/2023 6:45:00 PM 17.16 62.888 0.322 7.28 2767 0.01
5/17/2023 7:00:00 PM 17.17 62.906 0.322 7.28 2710 0.01
5/17/2023 7:15:00 PM 17.18 62.924 0.328 7.28 2646 0.01
5/17/2023 7:30:00 PM 17.18 62.924 0.329 7.29 2614 0.01
5/17/2023 7:45:00 PM 17.18 62.924 0.326 7.3 2561 0.01
5/17/2023 8:00:00 PM 17.17 62.906 0.33 7.3 2542 0.01
5/17/2023 8:15:00 PM 17.16 62.888 0.324 7.3 2499 0.01
5/17/2023 8:30:00 PM 17.15 62.87 0.316 7.31 2475 0.01
5/17/2023 8:45:00 PM 17.13 62.834 0.323 7.32 2449 0.01
5/17/2023 9:00:00 PM 17.1 62.78 0.315 7.32 2429 0.01
5/17/2023 9:15:00 PM 17.07 62.726 0.329 7.33 2401 0.01
5/17/2023 9:30:00 PM 17.03 62.654 0.322 7.33 2389 0.01
5/17/2023 9:45:00 PM 17 62.6 0.324 7.34 2336 0.01
5/17/2023 10:00:00 PM 16.96 62.528 0.314 7.33 2342 0.01
5/17/2023 10:15:00 PM 16.92 62.456 0.312 7.35 2313 0.01
5/17/2023 10:30:00 PM 16.88 62.384 0.319 7.35 2309 0.01
5/17/2023 10:45:00 PM 16.83 62.294 0.34 7.35 2309 0.01
5/17/2023 11:00:00 PM 16.8 62.24 0.328 7.35 2268 0.01
5/17/2023 11:15:00 PM 16.75 62.15 0.342 7.35 2231 0.01
5/17/2023 11:30:00 PM 16.71 62.078 0.353 7.36 2208 0.01
5/17/2023 11:45:00 PM 16.67 62.006 0.361 7.36 2176 0.01
5/18/2023 12:00:00 AM 16.62 61.916 0.359 7.36 2157 0.01
5/18/2023 12:15:00 AM 16.58 61.844 0.36 7.37 2135 0.01
5/18/2023 12:30:00 AM 16.54 61.772 0.363 7.37 2097 0.01
5/18/2023 12:45:00 AM 16.5 61.7 0.368 7.38 2074 0.01
5/18/2023 1:00:00 AM 16.45 61.61 0.35 7.37 1936 0.01
5/18/2023 1:15:00 AM 16.4 61.52 0.343 7.38 1921 0.01
5/18/2023 1:30:00 AM 16.36 61.448 0.336 7.38 1858 0.01
5/18/2023 1:45:00 AM 16.31 61.358 0.33 7.38 1838 0.01
5/18/2023 2:00:00 AM 16.27 61.286 0.336 7.39 1806 0.01
5/18/2023 2:15:00 AM 16.21 61.178 0.326 7.39 1782 0.01
5/18/2023 2:30:00 AM 16.16 61.088 0.322 7.39 1775 0.01
5/18/2023 2:45:00 AM 16.11 60.998 0.336 7.39 1727 0.01
5/18/2023 3:00:00 AM 16.05 60.89 0.334 7.39 1709 0.01
5/18/2023 3:15:00 AM 16 60.8 0.321 7.4 1689 0.01
5/18/2023 3:30:00 AM 15.94 60.692 0.321 7.4 1667 0.01
5/18/2023 3:45:00 AM 15.88 60.584 0.319 7.4 1663 0.01
5/18/2023 4:00:00 AM 15.82 60.476 0.324 7.39 1638 0.01
5/18/2023 4:15:00 AM 15.76 60.368 0.314 7.4 1604 0.01
5/18/2023 4:30:00 AM 15.69 60.242 0.31 7.4 1588 0.01
5/18/2023 4:45:00 AM 15.63 60.134 0.301 7.4 1562 0.01
5/18/2023 5:00:00 AM 15.56 60.008 0.299 7.39 1534 0.01
5/18/2023 5:15:00 AM 15.5 59.9 0.305 7.39 1521 0.01
5/18/2023 5:30:00 AM 15.43 59.774 0.298 7.39 1492 0.01
5/18/2023 5:45:00 AM 15.36 59.648 0.302 7.4 1479 0.01
5/18/2023 6:00:00 AM 15.29 59.522 0.298 7.39 1473 0.01
5/18/2023 6:15:00 AM 15.22 59.396 0.299 7.39 1466 0.01
5/18/2023 6:30:00 AM 15.16 59.288 0.305 7.38 1458 0.01
5/18/2023 6:45:00 AM 15.09 59.162 0.301 7.38 1447 0.01
5/18/2023 7:00:00 AM 15.03 59.054 0.294 7.38 1434 0.01
5/18/2023 7:15:00 AM 14.96 58.928 0.289 7.39 1423 0.01
5/18/2023 7:30:00 AM 14.89 58.802 0.286 7.39 1471 0.01
5/18/2023 7:45:00 AM 14.83 58.694 0.304 7.38 1445 0.01
5/18/2023 8:00:00 AM 14.77 58.586 0.295 7.38 1420 0.01
5/18/2023 8:15:00 AM 14.73 58.514 0.294 7.38 1399 0.01
5/18/2023 8:30:00 AM 14.69 58.442 0.301 7.39 1381 0.01
5/18/2023 8:45:00 AM 14.65 58.37 0.291 7.39 1368 0.01
5/18/2023 9:00:00 AM 14.61 58.298 0.293 7.38 1333 0.01
5/18/2023 9:15:00 AM 14.58 58.244 0.302 7.39 1308 0.01
5/18/2023 9:30:00 AM 14.57 58.226 0.298 7.39 1291 0.01
5/18/2023 9:45:00 AM 14.57 58.226 0.298 7.39 1275 0.01
5/18/2023 10:00:00 AM 14.58 58.244 0.32 7.39 1271 0.01
5/18/2023 10:15:00 AM 14.59 58.262 0.327 7.39 1243 0.01
5/18/2023 10:30:00 AM 14.61 58.298 0.325 7.38 1225 0.01
5/18/2023 10:45:00 AM 14.63 58.334 0.332 7.39 1210 0.01
5/18/2023 11:00:00 AM 14.66 58.388 0.322 7.38 1205 0.01
5/18/2023 11:15:00 AM 14.69 58.442 0.313 7.41 1182 0.01
5/18/2023 11:30:00 AM 14.74 58.532 0.313 7.57 1158 0.01
5/18/2023 11:45:00 AM 14.78 58.604 0.309 7.66 1131 0.01
5/18/2023 12:00:00 PM 14.82 58.676 0.295 7.83 1132 0.01
5/18/2023 12:15:00 PM 14.87 58.766 0.294 8.05 1113 0.01
5/18/2023 12:30:00 PM 14.93 58.874 0.301 8.11 1066 0.01
5/18/2023 12:45:00 PM 14.96 58.928 0.29 8.18 1056 0.01
5/18/2023 1:00:00 PM 15.04 59.072 0.273 8.32 1103 0.01
5/18/2023 1:15:00 PM 15.08 59.144 0.284 8.31 1095 0.01
5/18/2023 1:30:00 PM 15.14 59.252 0.269 8.3 1055 0.01
5/18/2023 1:45:00 PM 15.17 59.306 0.28 8.36 1063 0.01
5/18/2023 2:00:00 PM 15.21 59.378 0.281 8.42 1074 0.01
5/18/2023 2:15:00 PM 15.23 59.414 0.281 8.49 1056 0.01
5/18/2023 2:30:00 PM 15.26 59.468 0.283 8.52 1047 0.01
5/18/2023 2:45:00 PM 15.3 59.54 0.287 8.52 1042 0.01
5/18/2023 3:00:00 PM 15.35 59.63 0.281 8.54 1026 0.01
5/18/2023 3:15:00 PM 15.44 59.792 0.292 8.63 1019 0.01
5/18/2023 3:30:00 PM 15.48 59.864 0.271 8.61 1002 0.03
5/18/2023 3:45:00 PM 15.54 59.972 0.297 8.66 1000 0.1
5/18/2023 4:00:00 PM 15.58 60.044 0.305 8.7 996.1 0.04
5/18/2023 4:15:00 PM 15.62 60.116 0.299 8.7 990.7 0.06
5/18/2023 4:30:00 PM 15.66 60.188 0.275 8.7 984.4 0.22
5/18/2023 4:45:00 PM 15.71 60.278 0.291 8.71 992.3 0.2
5/18/2023 5:00:00 PM 15.75 60.35 0.277 8.7 982.6 0.22
5/18/2023 5:15:00 PM 15.8 60.44 0.258 8.71 978.1 0.23
5/18/2023 5:30:00 PM 15.85 60.53 0.282 8.72 977.4 0.29
5/18/2023 5:45:00 PM 15.89 60.602 0.29 8.75 977.4 0.22
5/18/2023 6:00:00 PM 15.92 60.656 0.283 8.71 972.7 0.24
5/18/2023 6:15:00 PM 15.97 60.746 0.286 8.74 970.5 0.44
5/18/2023 6:30:00 PM 16 60.8 0.288 8.75 962.4 0.39
5/18/2023 6:45:00 PM 16.02 60.836 0.28 8.72 967.1 0.23
5/18/2023 7:00:00 PM 16.05 60.89 0.268 8.74 959.2 0.23

These are provisional data and have not been subject to a quality assurance process, but rather are the raw data reported by the instrument.
H: value is above sensor operating range
L: value is below sensor operating range
Offline: station is not reporting data
NC: parameter is not collected at site

Data Availability & Limitations

Uncertainty and potential for error can be associated with environmental monitoring data. Provisional data have not been subject to a quality assurance process, but rather are the raw data reported by the instrument. Data users are cautioned to consider carefully the provisional nature of the information before using it for decisions that concern personal or public safety or the conduct of business that involves substantial monetary or operational consequences.

Approved data are currently available by request by emailing: [email protected]. Approved data have been subject to a quality assurance process to correct for equipment or fouling drift. Data recorded during equipment malfunctions have been removed.

View Historical Stations that have been discontinued.